Darstellungsparameter: Aktuell verwendete Einstellungen:
Skalierung der Graphiken ... ?
xyx+y,   Skalierungsfaktor:      Skalierung: Modus: x, Faktor: 1
Darstellungszeitraum ... ?
Vom - - bis: - -   Zeitraum: 06.04.2020 - 03.05.2020
Min/Max/Avg-Anzeige ... ?
Zeige MMA aktuell
Zeige MMA Monat
Zeige MMA alles
Zeige --A aktuell
Zeige --A Monat
Zeige --A alles
Keine MMA-Anzeige
MMA:
Keine MMA-Graphiken
MMA-Basis: 06.04.2020 - 03.05.2020
Quicknavigation für Darstellung... ?
Tage:      1T, 2T, 3T, 5T -1T -2T -3T -5T +1T +2T +3T +5T
Wochen: 1W, 2W, 3W -1W -2W -3W +1W +2W +3W
Monate: 1M, 3M, 6M -1M -3M -6M +1M +3M +6M
Jahre:    1J, 3J, 5J, 10J -1J -3J -5J -10J +1J +3J +5J +10J
Nutze für die Darstellung ... ?
Originaldaten oder Mittelwerte auf ...
Stundenbasis Tagesbasis Wochenbasis
Monatsbasis Jahresbasis      Datenbasis: Original-Daten
Darstellen als:
Statistik (Auto) Statistik J:M      Darstellung:
Zur Graphik,    zurück zur Übersicht aller Sensoren.
 
Tabellarische Datenbersicht: ?
 
Sensor: Nr:Datum:Temp:Feuchte:
Aussen-T/F 1 06-04-2020 00:01:17 6.2 C 32 %
2 06-04-2020 00:11:17 6.3 C 32 %
3 06-04-2020 00:21:17 6.3 C 32 %
4 06-04-2020 00:31:18 6 C 32 %
5 06-04-2020 00:41:18 5.6 C 33 %
6 06-04-2020 00:51:17 5.6 C 34 %
7 06-04-2020 01:01:18 5.4 C 35 %
8 06-04-2020 01:11:18 5.3 C 35 %
9 06-04-2020 01:21:17 5.1 C 35 %
10 06-04-2020 01:31:17 4.8 C 36 %
11 06-04-2020 01:41:17 4.7 C 36 %
12 06-04-2020 01:51:17 4.6 C 36 %
13 06-04-2020 02:01:17 4.5 C 37 %
14 06-04-2020 02:11:17 4.1 C 37 %
15 06-04-2020 02:21:17 4.2 C 37 %
16 06-04-2020 02:31:17 4 C 37 %
17 06-04-2020 02:41:17 4.1 C 37 %
18 06-04-2020 02:51:17 3.8 C 38 %
19 06-04-2020 03:01:17 3.9 C 39 %
20 06-04-2020 03:11:17 3.6 C 39 %
21 06-04-2020 03:21:17 3.3 C 39 %
22 06-04-2020 03:31:18 3.3 C 40 %
23 06-04-2020 03:41:18 3.2 C 40 %
24 06-04-2020 03:51:17 3.3 C 40 %
25 06-04-2020 04:01:17 3.2 C 40 %
Sensor: Nr:Datum:Temp:Feuchte:
Aussen-T/F 26 06-04-2020 04:11:17 3.3 C 40 %
27 06-04-2020 04:21:17 3.1 C 40 %
28 06-04-2020 04:31:17 2.8 C 40 %
29 06-04-2020 04:41:17 2.6 C 41 %
30 06-04-2020 04:51:17 2.5 C 41 %
31 06-04-2020 05:01:17 2.4 C 41 %
32 06-04-2020 05:11:17 2.3 C 41 %
33 06-04-2020 05:21:18 2.2 C 41 %
34 06-04-2020 05:31:17 1.9 C 42 %
35 06-04-2020 05:41:17 1.8 C 43 %
36 06-04-2020 05:51:17 1.7 C 43 %
37 06-04-2020 06:01:17 1.6 C 44 %
38 06-04-2020 06:11:17 1.5 C 44 %
39 06-04-2020 06:21:18 1.3 C 45 %
40 06-04-2020 06:31:17 1.2 C 45 %
41 06-04-2020 06:41:18 1.3 C 45 %
42 06-04-2020 06:51:17 1.3 C 45 %
43 06-04-2020 07:01:17 1.4 C 45 %
44 06-04-2020 07:11:17 1.5 C 45 %
45 06-04-2020 07:21:17 1.6 C 45 %
46 06-04-2020 07:31:18 1.5 C 45 %
47 06-04-2020 07:41:18 1.6 C 45 %
48 06-04-2020 07:51:17 2 C 45 %
49 06-04-2020 08:01:17 1.9 C 45 %
50 06-04-2020 08:11:17 2.2 C 44 %
Sensor: Nr:Datum:Temp:Feuchte:
Aussen-T/F 51 06-04-2020 08:21:17 2.5 C 44 %
52 06-04-2020 08:31:17 3 C 42 %
53 06-04-2020 08:41:17 3.2 C 42 %
54 06-04-2020 08:51:17 3.4 C 41 %
55 06-04-2020 09:01:18 3.5 C 41 %
56 06-04-2020 09:11:18 3.4 C 41 %
57 06-04-2020 09:21:17 3.9 C 41 %
58 06-04-2020 09:31:17 4.3 C 40 %
59 06-04-2020 09:41:17 4.8 C 40 %
60 06-04-2020 09:51:18 5.2 C 40 %
61 06-04-2020 10:01:18 6 C 38 %
62 06-04-2020 10:11:18 6.5 C 37 %
63 06-04-2020 10:21:17 7.2 C 36 %
64 06-04-2020 10:31:17 7.9 C 36 %
65 06-04-2020 10:41:17 8.8 C 35 %
66 06-04-2020 10:51:17 9.8 C 34 %
67 06-04-2020 11:01:17 11.1 C 31 %
68 06-04-2020 11:11:18 12.2 C 29 %
69 06-04-2020 11:21:17 13.3 C 26 %
70 06-04-2020 11:31:17 16 C 20 %
71 06-04-2020 11:41:17 17.1 C 20 %
72 06-04-2020 11:51:18 17.6 C 20 %
73 06-04-2020 12:01:18 18.1 C 20 %
74 06-04-2020 12:11:18 18.6 C 20 %
75 06-04-2020 12:21:17 20.3 C 20 %
Sensor: Nr:Datum:Temp:Feuchte:
Aussen-T/F 76 06-04-2020 12:31:17 21 C 20 %
77 06-04-2020 12:41:17 19.4 C 20 %
78 06-04-2020 12:51:17 20.2 C 20 %
79 06-04-2020 13:01:17 20.6 C 20 %
80 06-04-2020 13:11:17 20.8 C 20 %
81 06-04-2020 13:21:17 20.4 C 20 %
82 06-04-2020 13:31:18 20.3 C 20 %
83 06-04-2020 13:41:18 21.2 C 20 %
84 06-04-2020 13:51:17 21.3 C 20 %
85 06-04-2020 14:01:18 22.3 C 20 %
86 06-04-2020 14:11:18 22.3 C 20 %
87 06-04-2020 14:21:17 23.7 C 20 %
88 06-04-2020 14:31:17 26.8 C 20 %
89 06-04-2020 14:41:17 27.4 C 20 %
90 06-04-2020 14:51:18 28.3 C 20 %
91 06-04-2020 15:01:17 28 C 20 %
92 06-04-2020 15:11:17 26.6 C 20 %
93 06-04-2020 15:21:17 27.1 C 20 %
94 06-04-2020 15:31:17 25.8 C 20 %
95 06-04-2020 15:41:17 26.9 C 20 %
96 06-04-2020 15:51:17 27.9 C 20 %
97 06-04-2020 16:01:17 29.7 C 20 %
98 06-04-2020 16:11:17 27.4 C 20 %
99 06-04-2020 16:21:18 27.4 C 20 %
100 06-04-2020 16:31:18 28.3 C 20 %
Sensor: Nr:Datum:Temp:Feuchte:
Aussen-T/F 101 06-04-2020 16:41:18 28.5 C 20 %
102 06-04-2020 16:51:17 27.1 C 20 %
103 06-04-2020 17:01:17 27.6 C 20 %
104 06-04-2020 17:11:17 26 C 20 %
105 06-04-2020 17:21:17 26.7 C 20 %
106 06-04-2020 17:31:17 25.7 C 20 %
107 06-04-2020 17:41:17 25.5 C 20 %
108 06-04-2020 17:51:17 24.2 C 20 %
109 06-04-2020 18:01:17 23.3 C 20 %
110 06-04-2020 18:11:17 23.1 C 20 %
111 06-04-2020 18:21:17 22.6 C 20 %
112 06-04-2020 18:31:18 22.6 C 20 %
113 06-04-2020 18:41:18 22.3 C 20 %
114 06-04-2020 18:51:17 22 C 20 %
115 06-04-2020 19:01:17 21.7 C 20 %
116 06-04-2020 19:11:17 21.1 C 20 %
117 06-04-2020 19:21:17 20.5 C 20 %
118 06-04-2020 19:31:17 20.2 C 20 %
119 06-04-2020 19:41:17 19.1 C 20 %
120 06-04-2020 19:51:17 18.3 C 20 %
121 06-04-2020 20:01:18 16.4 C 20 %
122 06-04-2020 20:11:18 16.3 C 20 %
123 06-04-2020 20:21:17 15.8 C 20 %
124 06-04-2020 20:31:17 15.3 C 20 %
125 06-04-2020 20:41:18 15.1 C 20 %
Sensor: Nr:Datum:Temp:Feuchte:
Aussen-T/F 126 06-04-2020 20:51:17 13.7 C 20 %
127 06-04-2020 21:01:18 13.2 C 20 %
128 06-04-2020 21:11:18 12.9 C 20 %
129 06-04-2020 21:21:17 12 C 20 %
130 06-04-2020 21:31:18 11.8 C 22 %
131 06-04-2020 21:41:18 11.6 C 22 %
132 06-04-2020 21:51:17 11.1 C 22 %
133 06-04-2020 22:01:17 10.8 C 25 %
134 06-04-2020 22:11:17 10.6 C 25 %
135 06-04-2020 22:21:17 10.2 C 25 %
136 06-04-2020 22:31:17 10 C 26 %
137 06-04-2020 22:41:17 10 C 26 %
138 06-04-2020 22:51:17 9.9 C 26 %
139 06-04-2020 23:01:18 9.8 C 26 %
140 06-04-2020 23:11:18 9.6 C 26 %
141 06-04-2020 23:21:17 9.5 C 27 %
142 06-04-2020 23:31:17 9.4 C 27 %
143 06-04-2020 23:41:17 9.2 C 27 %
144 06-04-2020 23:51:17 9.5 C 29 %
145 07-04-2020 00:01:17 10.2 C 26 %
146 07-04-2020 00:11:17 9.1 C 29 %
147 07-04-2020 00:21:18 8.7 C 30 %
148 07-04-2020 00:31:17 8.8 C 30 %
149 07-04-2020 00:41:17 9 C 30 %
150 07-04-2020 00:51:17 8.6 C 30 %
Sensor: Nr:Datum:Temp:Feuchte:
Aussen-T/F 151 07-04-2020 01:01:17 8.7 C 30 %
152 07-04-2020 01:11:17 9.1 C 30 %
153 07-04-2020 01:21:17 9.4 C 30 %
154 07-04-2020 01:31:17 9.8 C 30 %
155 07-04-2020 01:41:17 10.1 C 30 %
156 07-04-2020 01:51:18 10 C 29 %
157 07-04-2020 02:01:18 9.2 C 30 %
158 07-04-2020 02:11:18 8.8 C 31 %
159 07-04-2020 02:21:17 8.2 C 33 %
160 07-04-2020 02:31:17 7.9 C 34 %
161 07-04-2020 02:41:17 7.5 C 34 %
162 07-04-2020 02:51:17 7.2 C 35 %
163 07-04-2020 03:01:17 7.3 C 35 %
164 07-04-2020 03:11:17 7.6 C 35 %
165 07-04-2020 03:21:17 7.9 C 35 %
166 07-04-2020 03:31:17 8 C 35 %
167 07-04-2020 03:41:17 7.7 C 36 %
168 07-04-2020 03:51:17 7.8 C 35 %
169 07-04-2020 04:01:17 7.8 C 36 %
170 07-04-2020 04:11:17 7.6 C 36 %
171 07-04-2020 04:21:17 7.4 C 36 %
172 07-04-2020 04:31:17 7.2 C 36 %
173 07-04-2020 04:41:18 6.9 C 37 %
174 07-04-2020 04:51:17 6.8 C 37 %
175 07-04-2020 05:01:17 6.3 C 38 %
Sensor: Nr:Datum:Temp:Feuchte:
Aussen-T/F 176 07-04-2020 05:11:17 6.1 C 38 %
177 07-04-2020 05:21:18 5.9 C 40 %
178 07-04-2020 05:31:17 5.8 C 40 %
179 07-04-2020 05:41:17 5.7 C 40 %
180 07-04-2020 05:51:17 5.6 C 41 %
181 07-04-2020 06:01:17 5.6 C 41 %
182 07-04-2020 06:11:17 5.2 C 40 %
183 07-04-2020 06:21:17 5.3 C 41 %
184 07-04-2020 06:31:17 5.2 C 41 %
185 07-04-2020 06:41:17 5 C 41 %
186 07-04-2020 06:51:17 4.8 C 42 %
187 07-04-2020 07:01:18 4.8 C 43 %
188 07-04-2020 07:11:18 4.7 C 43 %
189 07-04-2020 07:21:18 4.8 C 44 %
190 07-04-2020 07:31:17 5 C 43 %
191 07-04-2020 07:41:18 5.7 C 43 %
192 07-04-2020 07:51:17 5.8 C 42 %
193 07-04-2020 08:01:17 5.7 C 41 %
194 07-04-2020 08:11:18 5.8 C 41 %
195 07-04-2020 08:21:17 6 C 41 %
196 07-04-2020 08:31:17 6 C 41 %
197 07-04-2020 08:41:17 6.3 C 41 %
198 07-04-2020 08:51:17 6.6 C 41 %
199 07-04-2020 09:01:17 7.1 C 40 %
200 07-04-2020 09:11:17 7.3 C 40 %
Sensor: Nr:Datum:Temp:Feuchte:
Aussen-T/F 201 07-04-2020 09:21:17 7.5 C 40 %
202 07-04-2020 09:31:17 8 C 39 %
203 07-04-2020 09:41:18 8.9 C 39 %
204 07-04-2020 09:51:17 9.3 C 37 %
205 07-04-2020 10:01:17 9.4 C 38 %
206 07-04-2020 10:11:18 10 C 37 %
207 07-04-2020 10:21:17 10.7 C 37 %
208 07-04-2020 10:31:18 11.4 C 36 %
209 07-04-2020 10:41:18 12.3 C 35 %
210 07-04-2020 10:51:17 13.1 C 33 %
211 07-04-2020 11:01:17 14 C 31 %
212 07-04-2020 11:11:17 14.6 C 31 %
213 07-04-2020 11:21:17 15.2 C 30 %
214 07-04-2020 11:31:17 16 C 28 %
215 07-04-2020 11:41:17 16.5 C 27 %
216 07-04-2020 11:51:17 16.9 C 27 %
217 07-04-2020 12:01:17 17.2 C 26 %
218 07-04-2020 12:11:17 17.7 C 25 %
219 07-04-2020 12:21:18 18.7 C 23 %
220 07-04-2020 12:31:17 20.9 C 21 %
221 07-04-2020 12:41:17 19.6 C 20 %
222 07-04-2020 12:51:18 19.6 C 20 %
223 07-04-2020 13:01:17 20.7 C 20 %
224 07-04-2020 13:11:17 21.3 C 20 %
225 07-04-2020 13:21:17 20.8 C 20 %
Sensor: Nr:Datum:Temp:Feuchte:
Aussen-T/F 226 07-04-2020 13:31:17 19.8 C 20 %
227 07-04-2020 13:41:17 20.4 C 20 %
228 07-04-2020 13:51:18 20.6 C 20 %
229 07-04-2020 14:01:17 21.1 C 20 %
230 07-04-2020 14:11:17 22 C 20 %
231 07-04-2020 14:21:17 23.6 C 20 %
232 07-04-2020 14:31:17 26.2 C 20 %
233 07-04-2020 14:41:17 22.9 C 20 %
234 07-04-2020 14:51:17 26.7 C 20 %
235 07-04-2020 15:01:17 26.4 C 20 %
236 07-04-2020 15:11:17 27.1 C 20 %
237 07-04-2020 15:21:17 30.1 C 20 %
238 07-04-2020 15:31:17 28.4 C 20 %
239 07-04-2020 15:41:18 27.2 C 20 %
240 07-04-2020 15:51:17 26.6 C 20 %
241 07-04-2020 16:01:17 27.4 C 20 %
242 07-04-2020 16:11:17 25.1 C 20 %
243 07-04-2020 16:21:17 27.8 C 20 %
244 07-04-2020 16:31:17 23.9 C 20 %
245 07-04-2020 16:41:18 24.3 C 20 %
246 07-04-2020 16:51:18 29.2 C 20 %
247 07-04-2020 17:01:17 31 C 20 %
248 07-04-2020 17:11:17 25 C 20 %
249 07-04-2020 17:21:17 24.2 C 20 %
250 07-04-2020 17:31:18 24.2 C 20 %
Sensor: Nr:Datum:Temp:Feuchte:
Aussen-T/F 251 07-04-2020 17:41:18 26.9 C 20 %
252 07-04-2020 17:51:18 24.6 C 20 %
253 07-04-2020 18:01:17 23.7 C 20 %
254 07-04-2020 18:11:17 23.7 C 20 %
255 07-04-2020 18:21:17 22.9 C 20 %
256 07-04-2020 18:31:17 22.7 C 20 %
257 07-04-2020 18:41:17 22.3 C 20 %
258 07-04-2020 18:51:17 22 C 20 %
259 07-04-2020 19:01:17 21.8 C 20 %
260 07-04-2020 19:11:18 21 C 20 %
261 07-04-2020 19:21:17 20 C 20 %
262 07-04-2020 19:31:17 19.1 C 20 %
263 07-04-2020 19:41:17 18.4 C 20 %
264 07-04-2020 19:51:17 18.3 C 20 %
265 07-04-2020 20:01:18 17.6 C 20 %
266 07-04-2020 20:11:18 17.3 C 20 %
267 07-04-2020 20:21:17 17.1 C 20 %
268 07-04-2020 20:31:17 16.8 C 20 %
269 07-04-2020 20:41:17 16.5 C 20 %
270 07-04-2020 20:51:17 16.3 C 20 %
271 07-04-2020 21:01:17 16.1 C 20 %
272 07-04-2020 21:11:17 15.9 C 20 %
273 07-04-2020 21:21:18 15.8 C 20 %
274 07-04-2020 21:31:17 15.4 C 21 %
275 07-04-2020 21:41:17 15.2 C 21 %
Sensor: Nr:Datum:Temp:Feuchte:
Aussen-T/F 276 07-04-2020 21:51:17 15.1 C 22 %
277 07-04-2020 22:01:18 14.6 C 25 %
278 07-04-2020 22:11:18 13.1 C 27 %
279 07-04-2020 22:21:17 12.9 C 29 %
280 07-04-2020 22:31:17 12.7 C 30 %
281 07-04-2020 22:41:17 12.7 C 30 %
282 07-04-2020 22:51:18 12.7 C 30 %
283 07-04-2020 23:01:18 12.7 C 30 %
284 07-04-2020 23:11:18 12.6 C 30 %
285 07-04-2020 23:21:17 13.1 C 29 %
286 07-04-2020 23:31:17 12.8 C 30 %
287 07-04-2020 23:41:17 12.8 C 30 %
288 07-04-2020 23:51:17 12.3 C 31 %
289 08-04-2020 00:01:17 11.7 C 33 %
290 08-04-2020 00:11:17 11.7 C 33 %
291 08-04-2020 00:21:17 11.5 C 33 %
292 08-04-2020 00:31:17 11.5 C 33 %
293 08-04-2020 00:41:17 11.2 C 34 %
294 08-04-2020 00:51:18 10.8 C 35 %
295 08-04-2020 01:01:17 10.8 C 36 %
296 08-04-2020 01:11:17 10.9 C 35 %
297 08-04-2020 01:21:17 10.4 C 36 %
298 08-04-2020 01:31:18 10.2 C 36 %
299 08-04-2020 01:41:18 9.9 C 37 %
300 08-04-2020 01:51:17 9.6 C 38 %
Sensor: Nr:Datum:Temp:Feuchte:
Aussen-T/F 301 08-04-2020 02:01:18 9.2 C 38 %
302 08-04-2020 02:11:18 8.7 C 39 %
303 08-04-2020 02:21:17 8.5 C 40 %
304 08-04-2020 02:31:17 8.2 C 40 %
305 08-04-2020 02:41:18 8 C 40 %
306 08-04-2020 02:51:17 7.7 C 41 %
307 08-04-2020 03:01:18 7.4 C 41 %
308 08-04-2020 03:11:18 7.1 C 41 %
309 08-04-2020 03:21:17 7.1 C 42 %
310 08-04-2020 03:31:17 7.1 C 42 %
311 08-04-2020 03:41:17 6.8 C 43 %
312 08-04-2020 03:51:17 6.7 C 43 %
313 08-04-2020 04:01:17 6.6 C 44 %
314 08-04-2020 04:11:18 6.7 C 44 %
315 08-04-2020 04:21:17 6.3 C 44 %
316 08-04-2020 04:31:17 6.3 C 45 %
317 08-04-2020 04:41:17 6.4 C 45 %
318 08-04-2020 04:51:17 6.3 C 45 %
319 08-04-2020 05:01:18 6.1 C 44 %
320 08-04-2020 05:11:18 5.9 C 45 %
321 08-04-2020 05:21:17 5.6 C 45 %
322 08-04-2020 05:31:17 5.4 C 45 %
323 08-04-2020 05:41:18 5.4 C 45 %
324 08-04-2020 05:51:17 5.4 C 46 %
325 08-04-2020 06:01:17 5.3 C 46 %
Sensor: Nr:Datum:Temp:Feuchte:
Aussen-T/F 326 08-04-2020 06:11:17 5.4 C 46 %
327 08-04-2020 06:21:17 5.3 C 46 %
328 08-04-2020 06:31:17 5.3 C 46 %
329 08-04-2020 06:41:17 5.1 C 46 %
330 08-04-2020 06:51:18 5 C 46 %
331 08-04-2020 07:01:18 5 C 46 %
332 08-04-2020 07:11:18 5.1 C 46 %
333 08-04-2020 07:21:17 5.2 C 46 %
334 08-04-2020 07:31:17 5.3 C 46 %
335 08-04-2020 07:41:17 5.4 C 46 %
336 08-04-2020 07:51:17 5.8 C 46 %
337 08-04-2020 08:01:17 5.7 C 46 %
338 08-04-2020 08:11:17 6 C 46 %
339 08-04-2020 08:21:17 6.3 C 46 %
340 08-04-2020 08:31:18 6.3 C 46 %
341 08-04-2020 08:41:18 6.5 C 46 %
342 08-04-2020 08:51:18 6.7 C 46 %
343 08-04-2020 09:01:18 7 C 45 %
344 08-04-2020 09:11:18 7.1 C 45 %
345 08-04-2020 09:21:17 7.6 C 45 %
346 08-04-2020 09:31:17 7.9 C 45 %
347 08-04-2020 09:41:17 8.3 C 45 %
348 08-04-2020 09:51:17 8.7 C 44 %
349 08-04-2020 10:01:17 9.1 C 43 %
350 08-04-2020 10:11:17 9.7 C 43 %
Sensor: Nr:Datum:Temp:Feuchte:
Aussen-T/F 351 08-04-2020 10:21:17 10.2 C 41 %
352 08-04-2020 10:31:18 11 C 40 %
353 08-04-2020 10:41:18 11.8 C 39 %
354 08-04-2020 10:51:18 12.6 C 38 %
355 08-04-2020 11:01:18 13.7 C 36 %
356 08-04-2020 11:11:18 14.5 C 35 %
357 08-04-2020 11:21:17 15.5 C 34 %
358 08-04-2020 11:31:18 16.2 C 32 %
359 08-04-2020 11:41:18 17.6 C 27 %
360 08-04-2020 11:51:17 18.6 C 25 %
361 08-04-2020 12:01:18 19.2 C 22 %
362 08-04-2020 12:11:18 20.1 C 21 %
363 08-04-2020 12:21:17 21.2 C 20 %
364 08-04-2020 12:31:17 22.4 C 20 %
365 08-04-2020 12:41:17 22.9 C 20 %
366 08-04-2020 12:51:17 21.8 C 20 %
367 08-04-2020 13:01:18 22.9 C 20 %
368 08-04-2020 13:11:18 22.4 C 20 %
369 08-04-2020 13:21:17 22.1 C 20 %
370 08-04-2020 13:31:18 22.3 C 20 %
371 08-04-2020 13:41:18 23.3 C 20 %
372 08-04-2020 13:51:17 22.6 C 20 %
373 08-04-2020 14:01:18 23 C 20 %
374 08-04-2020 14:11:18 23.7 C 20 %
375 08-04-2020 14:21:17 24.8 C 20 %
Sensor: Nr:Datum:Temp:Feuchte:
Aussen-T/F 376 08-04-2020 14:31:18 28.3 C 20 %
377 08-04-2020 14:41:18 28.9 C 20 %
378 08-04-2020 14:51:17 28.7 C 20 %
379 08-04-2020 15:01:17 28.7 C 20 %
380 08-04-2020 15:11:17 30.1 C 20 %
381 08-04-2020 15:21:18 29.3 C 20 %
382 08-04-2020 15:31:17 29.5 C 20 %
383 08-04-2020 15:41:17 29.1 C 20 %
384 08-04-2020 15:51:17 32.2 C 20 %
385 08-04-2020 16:01:17 31.1 C 20 %
386 08-04-2020 16:11:17 29.7 C 20 %
387 08-04-2020 16:21:18 30.7 C 20 %
388 08-04-2020 16:31:17 29 C 20 %
389 08-04-2020 16:41:17 32.6 C 20 %
390 08-04-2020 16:51:17 29.7 C 20 %
391 08-04-2020 17:01:17 29.4 C 20 %
392 08-04-2020 17:11:17 29.7 C 20 %
393 08-04-2020 17:21:17 30.1 C 20 %
394 08-04-2020 17:31:17 30.1 C 20 %
395 08-04-2020 17:41:17 29 C 20 %
396 08-04-2020 17:51:17 28.1 C 20 %
397 08-04-2020 18:01:17 26.6 C 20 %
398 08-04-2020 18:11:17 25.2 C 20 %
399 08-04-2020 18:21:17 24.7 C 20 %
400 08-04-2020 18:31:18 24.3 C 20 %
Sensor: Nr:Datum:Temp:Feuchte:
Aussen-T/F 401 08-04-2020 18:41:18 24.1 C 20 %
402 08-04-2020 18:51:17 23.8 C 20 %
403 08-04-2020 19:01:17 23.2 C 20 %
404 08-04-2020 19:11:17 22.6 C 20 %
405 08-04-2020 19:21:17 21.4 C 20 %
406 08-04-2020 19:31:17 20.1 C 20 %
407 08-04-2020 19:41:17 19.7 C 20 %
408 08-04-2020 19:51:17 19.2 C 20 %
409 08-04-2020 20:01:17 18.5 C 20 %
410 08-04-2020 20:11:17 18 C 20 %
411 08-04-2020 20:21:18 17.5 C 20 %
412 08-04-2020 20:31:17 17 C 20 %
413 08-04-2020 20:41:18 16.2 C 20 %
414 08-04-2020 20:51:17 15.6 C 20 %
415 08-04-2020 21:01:18 14.6 C 20 %
416 08-04-2020 21:11:18 13.9 C 20 %
417 08-04-2020 21:21:17 14.2 C 20 %
418 08-04-2020 21:31:17 13.7 C 20 %
419 08-04-2020 21:41:17 13.5 C 20 %
420 08-04-2020 21:51:17 13.4 C 20 %
421 08-04-2020 22:01:17 12.9 C 21 %
422 08-04-2020 22:11:18 12.7 C 21 %
423 08-04-2020 22:21:17 12.5 C 24 %
424 08-04-2020 22:31:17 12.2 C 25 %
425 08-04-2020 22:41:17 11.8 C 26 %
Sensor: Nr:Datum:Temp:Feuchte:
Aussen-T/F 426 08-04-2020 22:51:18 11.6 C 26 %
427 08-04-2020 23:01:17 12 C 25 %
428 08-04-2020 23:11:17 11.5 C 26 %
429 08-04-2020 23:21:17 10.9 C 28 %
430 08-04-2020 23:31:17 10.5 C 29 %
431 08-04-2020 23:41:17 10.7 C 28 %
432 08-04-2020 23:51:17 11.2 C 28 %
433 09-04-2020 00:01:18 10.7 C 29 %
434 09-04-2020 00:11:18 10.7 C 29 %
435 09-04-2020 00:21:17 10.3 C 30 %
436 09-04-2020 00:31:18 10 C 30 %
437 09-04-2020 00:41:18 10.5 C 30 %
438 09-04-2020 00:51:17 10.5 C 30 %
439 09-04-2020 01:01:17 10 C 30 %
440 09-04-2020 01:11:17 9.6 C 31 %
441 09-04-2020 01:21:17 9.2 C 32 %
442 09-04-2020 01:31:17 9.9 C 33 %
443 09-04-2020 01:41:17 9.3 C 33 %
444 09-04-2020 01:51:17 9.6 C 33 %
445 09-04-2020 02:01:17 8.8 C 35 %
446 09-04-2020 02:11:17 9.1 C 34 %
447 09-04-2020 02:21:18 9 C 34 %
448 09-04-2020 02:31:18 8.8 C 35 %
449 09-04-2020 02:41:18 8.7 C 35 %
450 09-04-2020 02:51:17 8.8 C 35 %
Sensor: Nr:Datum:Temp:Feuchte:
Aussen-T/F 451 09-04-2020 03:01:17 9.2 C 34 %
452 09-04-2020 03:11:17 9.7 C 33 %
453 09-04-2020 03:21:17 9.5 C 33 %
454 09-04-2020 03:31:17 9.4 C 34 %
455 09-04-2020 03:41:17 9.5 C 34 %
456 09-04-2020 03:51:17 10.2 C 32 %
457 09-04-2020 04:01:17 9.9 C 34 %
458 09-04-2020 04:11:17 10.1 C 33 %
459 09-04-2020 04:21:17 10 C 33 %
460 09-04-2020 04:31:18 9.4 C 34 %
461 09-04-2020 04:41:18 9.3 C 35 %
462 09-04-2020 04:51:17 8.9 C 35 %
463 09-04-2020 05:01:17 8.7 C 36 %
464 09-04-2020 05:11:17 8.6 C 35 %
465 09-04-2020 05:21:17 8.5 C 36 %
466 09-04-2020 05:31:18 8.2 C 36 %
467 09-04-2020 05:41:18 8.1 C 36 %
468 09-04-2020 05:51:17 8.1 C 37 %
469 09-04-2020 06:01:18 8.1 C 37 %
470 09-04-2020 06:11:18 7.7 C 38 %
471 09-04-2020 06:21:17 7.1 C 38 %
472 09-04-2020 06:31:17 7 C 38 %
473 09-04-2020 06:41:17 6.6 C 39 %
474 09-04-2020 06:51:17 6.8 C 40 %
475 09-04-2020 07:01:17 6.9 C 40 %
Sensor: Nr:Datum:Temp:Feuchte:
Aussen-T/F 476 09-04-2020 07:11:17 7.3 C 39 %
477 09-04-2020 07:21:17 7.3 C 39 %
478 09-04-2020 07:31:17 7 C 39 %
479 09-04-2020 07:41:17 6.9 C 40 %
480 09-04-2020 07:51:17 7 C 40 %
481 09-04-2020 08:01:17 7 C 40 %
482 09-04-2020 08:11:17 7.3 C 40 %
483 09-04-2020 08:21:18 7.4 C 40 %
484 09-04-2020 08:31:17 7.6 C 40 %
485 09-04-2020 08:41:17 8 C 39 %
486 09-04-2020 08:51:17 8.3 C 39 %
487 09-04-2020 09:01:17 8.5 C 38 %
488 09-04-2020 09:11:17 8.7 C 39 %
489 09-04-2020 09:21:17 9 C 38 %
490 09-04-2020 09:31:17 9.3 C 38 %
491 09-04-2020 09:41:17 9.8 C 37 %
492 09-04-2020 09:51:17 10.4 C 36 %
493 09-04-2020 10:01:17 10.8 C 36 %
494 09-04-2020 10:11:17 11.2 C 35 %
495 09-04-2020 10:21:17 11.8 C 35 %
496 09-04-2020 10:31:17 12.6 C 34 %
497 09-04-2020 10:41:17 13.3 C 32 %
498 09-04-2020 10:51:18 14.6 C 31 %
499 09-04-2020 11:01:17 15.4 C 30 %
500 09-04-2020 11:11:18 16.2 C 28 %
Sensor: Nr:Datum:Temp:Feuchte:
Aussen-T/F 501 09-04-2020 11:21:17 17 C 25 %
502 09-04-2020 11:31:17 17.9 C 23 %
503 09-04-2020 11:41:17 18.5 C 21 %
504 09-04-2020 11:51:18 19 C 20 %
505 09-04-2020 12:01:17 19.3 C 20 %
506 09-04-2020 12:11:17 19.8 C 20 %
507 09-04-2020 12:21:17 20.7 C 20 %
508 09-04-2020 12:31:17 22 C 20 %
509 09-04-2020 12:41:17 23 C 20 %
510 09-04-2020 12:51:18 22.3 C 20 %
511 09-04-2020 13:01:17 23.2 C 20 %
512 09-04-2020 13:11:17 23.3 C 20 %
513 09-04-2020 13:21:17 22.9 C 20 %
514 09-04-2020 13:31:17 22.4 C 20 %
515 09-04-2020 13:41:18 22.6 C 20 %
516 09-04-2020 13:51:17 22.8 C 20 %
517 09-04-2020 14:01:17 24.1 C 20 %
518 09-04-2020 14:11:17 23.8 C 20 %
519 09-04-2020 14:21:17 24.3 C 20 %
520 09-04-2020 14:31:17 26.8 C 20 %
521 09-04-2020 14:41:17 28 C 20 %
522 09-04-2020 14:51:17 29.2 C 20 %
523 09-04-2020 15:01:17 28.6 C 20 %
524 09-04-2020 15:11:17 31.7 C 20 %
525 09-04-2020 15:21:17 28.2 C 20 %
Sensor: Nr:Datum:Temp:Feuchte:
Aussen-T/F 526 09-04-2020 15:31:18 28.7 C 20 %
527 09-04-2020 15:41:18 28.4 C 20 %
528 09-04-2020 15:51:17 30.1 C 20 %
529 09-04-2020 16:01:18 29.2 C 20 %
530 09-04-2020 16:11:18 29.3 C 20 %
531 09-04-2020 16:21:17 31.4 C 20 %
532 09-04-2020 16:31:17 28.8 C 20 %
533 09-04-2020 16:41:17 28.8 C 20 %
534 09-04-2020 16:51:17 29.2 C 20 %
535 09-04-2020 17:01:17 28.7 C 20 %
536 09-04-2020 17:11:17 28.4 C 20 %
537 09-04-2020 17:21:17 29.8 C 20 %
538 09-04-2020 17:31:17 28 C 20 %
539 09-04-2020 17:41:17 27.6 C 20 %
540 09-04-2020 17:51:18 27.1 C 20 %
541 09-04-2020 18:01:18 25.2 C 20 %
542 09-04-2020 18:11:18 24 C 20 %
543 09-04-2020 18:21:17 23.7 C 20 %
544 09-04-2020 18:31:17 23.4 C 20 %
545 09-04-2020 18:41:17 23.5 C 20 %
546 09-04-2020 18:51:17 22.9 C 20 %
547 09-04-2020 19:01:18 22.7 C 20 %
548 09-04-2020 19:11:18 22.4 C 20 %
549 09-04-2020 19:21:17 21.8 C 20 %
550 09-04-2020 19:31:17 21.1 C 20 %
Sensor: Nr:Datum:Temp:Feuchte:
Aussen-T/F 551 09-04-2020 19:41:17 20.6 C 20 %
552 09-04-2020 19:51:17 20.1 C 20 %
553 09-04-2020 20:01:17 19.7 C 20 %
554 09-04-2020 20:11:17 17.9 C 20 %
555 09-04-2020 20:21:17 16.6 C 20 %
556 09-04-2020 20:31:17 16.6 C 20 %
557 09-04-2020 20:41:17 16.1 C 21 %
558 09-04-2020 20:51:17 16.4 C 20 %
559 09-04-2020 21:01:17 16.2 C 20 %
560 09-04-2020 21:11:17 16.4 C 20 %
561 09-04-2020 21:21:17 16.5 C 20 %
562 09-04-2020 21:31:17 15.9 C 21 %
563 09-04-2020 21:41:17 15.4 C 22 %
564 09-04-2020 21:51:17 15.5 C 22 %
565 09-04-2020 22:01:17 15.5 C 22 %
566 09-04-2020 22:11:17 15.2 C 22 %
567 09-04-2020 22:21:17 15.1 C 22 %
568 09-04-2020 22:31:18 14.8 C 24 %
569 09-04-2020 22:41:18 14.6 C 25 %
570 09-04-2020 22:51:17 14.3 C 25 %
571 09-04-2020 23:01:18 14.2 C 25 %
572 09-04-2020 23:11:18 14.2 C 25 %
573 09-04-2020 23:21:17 13.6 C 26 %
574 09-04-2020 23:31:17 13.8 C 26 %
575 09-04-2020 23:41:18 13.7 C 26 %
Sensor: Nr:Datum:Temp:Feuchte:
Aussen-T/F 576 09-04-2020 23:51:17 12.7 C 28 %
577 10-04-2020 00:01:17 12.7 C 29 %
578 10-04-2020 00:11:17 11.7 C 31 %
579 10-04-2020 00:21:18 11.8 C 31 %
580 10-04-2020 00:31:18 11.1 C 32 %
581 10-04-2020 00:41:18 10.7 C 34 %
582 10-04-2020 00:51:17 10.5 C 34 %
583 10-04-2020 01:01:17 10.1 C 35 %
584 10-04-2020 01:11:17 10 C 35 %
585 10-04-2020 01:21:17 9.7 C 36 %
586 10-04-2020 01:31:17 9.6 C 36 %
587 10-04-2020 01:41:17 9.5 C 36 %
588 10-04-2020 01:51:17 9 C 36 %
589 10-04-2020 02:01:17 9.2 C 36 %
590 10-04-2020 02:11:17 8.9 C 37 %
591 10-04-2020 02:21:18 8.7 C 37 %
592 10-04-2020 02:31:18 8.6 C 37 %
593 10-04-2020 02:41:18 8.3 C 38 %
594 10-04-2020 02:51:17 8.2 C 38 %
595 10-04-2020 03:01:18 8.3 C 38 %
596 10-04-2020 03:11:18 7.9 C 39 %
597 10-04-2020 03:21:17 7.6 C 39 %
598 10-04-2020 03:31:17 7.4 C 40 %
599 10-04-2020 03:41:17 7.2 C 40 %
600 10-04-2020 03:51:17 7.1 C 40 %
Sensor: Nr:Datum:Temp:Feuchte:
Aussen-T/F 601 10-04-2020 04:01:18 7 C 40 %
602 10-04-2020 04:11:18 6.8 C 41 %
603 10-04-2020 04:21:17 6.9 C 41 %
604 10-04-2020 04:31:17 6.6 C 41 %
605 10-04-2020 04:41:17 6.6 C 41 %
606 10-04-2020 04:51:18 6.6 C 41 %
607 10-04-2020 05:01:17 6.3 C 41 %
608 10-04-2020 05:11:17 6.3 C 42 %
609 10-04-2020 05:21:18 6.4 C 42 %
610 10-04-2020 05:31:17 6.2 C 42 %
611 10-04-2020 05:41:17 5.9 C 43 %
612 10-04-2020 05:51:17 5.7 C 43 %
613 10-04-2020 06:01:17 5.8 C 44 %
614 10-04-2020 06:11:17 5.8 C 44 %
615 10-04-2020 06:21:17 5.6 C 44 %
616 10-04-2020 06:31:18 5.4 C 44 %
617 10-04-2020 06:41:18 5.4 C 44 %
618 10-04-2020 06:51:17 5.4 C 44 %
619 10-04-2020 07:01:18 5.3 C 44 %
620 10-04-2020 07:11:18 5.3 C 45 %
621 10-04-2020 07:21:17 5.3 C 45 %
622 10-04-2020 07:31:18 5.3 C 45 %
623 10-04-2020 07:41:18 5.3 C 45 %
624 10-04-2020 07:51:17 5.9 C 46 %
625 10-04-2020 08:01:17 5.8 C 45 %
Sensor: Nr:Datum:Temp:Feuchte:
Aussen-T/F 626 10-04-2020 08:11:17 5.8 C 45 %
627 10-04-2020 08:21:17 6 C 44 %
628 10-04-2020 08:31:17 6.1 C 45 %
629 10-04-2020 08:41:17 6.2 C 44 %
630 10-04-2020 08:51:17 6.5 C 45 %
631 10-04-2020 09:01:17 6.9 C 45 %
632 10-04-2020 09:11:17 7.8 C 42 %
633 10-04-2020 09:21:18 8.2 C 41 %
634 10-04-2020 09:31:18 8.5 C 40 %
635 10-04-2020 09:41:18 9.1 C 39 %
636 10-04-2020 09:51:17 9.4 C 39 %
637 10-04-2020 10:01:17 9.9 C 38 %
638 10-04-2020 10:11:17 10.2 C 37 %
639 10-04-2020 10:21:17 10.8 C 37 %
640 10-04-2020 10:31:17 11.6 C 36 %
641 10-04-2020 10:41:17 12.3 C 35 %
642 10-04-2020 10:51:17 13.4 C 33 %
643 10-04-2020 11:01:17 14 C 31 %
644 10-04-2020 11:11:17 14.7 C 31 %
645 10-04-2020 11:21:17 15.9 C 28 %
646 10-04-2020 11:31:17 16.3 C 27 %
647 10-04-2020 11:41:17 16.8 C 26 %
648 10-04-2020 11:51:17 17.5 C 25 %
649 10-04-2020 12:01:17 17.9 C 24 %
650 10-04-2020 12:11:17 18.4 C 21 %
Sensor: Nr:Datum:Temp:Feuchte:
Aussen-T/F 651 10-04-2020 12:21:17 19.2 C 20 %
652 10-04-2020 12:31:17 19.7 C 20 %
653 10-04-2020 12:41:17 20.6 C 20 %
654 10-04-2020 12:51:17 20.4 C 20 %
655 10-04-2020 13:01:17 20.8 C 20 %
656 10-04-2020 13:11:17 20.2 C 20 %
657 10-04-2020 13:21:17 20.4 C 20 %
658 10-04-2020 13:31:17 20.2 C 20 %
659 10-04-2020 13:41:17 20.4 C 20 %
660 10-04-2020 13:51:17 20.7 C 20 %
661 10-04-2020 14:01:17 21.7 C 20 %
662 10-04-2020 14:11:17 21.6 C 20 %
663 10-04-2020 14:21:18 22 C 20 %
664 10-04-2020 14:31:18 25.1 C 20 %
665 10-04-2020 14:41:18 29.1 C 20 %
666 10-04-2020 14:51:17 27.6 C 20 %
667 10-04-2020 15:01:17 27.9 C 20 %
668 10-04-2020 15:11:17 31.6 C 20 %
669 10-04-2020 15:21:17 30.1 C 20 %
670 10-04-2020 15:31:17 30.5 C 20 %
671 10-04-2020 15:41:17 30.2 C 20 %
672 10-04-2020 15:51:17 29.1 C 20 %
673 10-04-2020 16:01:17 29.8 C 20 %
674 10-04-2020 16:11:17 30.3 C 20 %
675 10-04-2020 16:21:17 28.8 C 20 %
Sensor: Nr:Datum:Temp:Feuchte:
Aussen-T/F 676 10-04-2020 16:31:17 29.1 C 20 %
677 10-04-2020 16:41:17 28.3 C 20 %
678 10-04-2020 16:51:17 30.8 C 20 %
679 10-04-2020 17:01:17 29.6 C 20 %
680 10-04-2020 17:11:17 28.8 C 20 %
681 10-04-2020 17:21:17 26.8 C 20 %
682 10-04-2020 17:31:17 28.5 C 20 %
683 10-04-2020 17:41:17 27.6 C 20 %
684 10-04-2020 17:51:18 26.4 C 20 %
685 10-04-2020 18:01:17 23.6 C 20 %
686 10-04-2020 18:11:17 23 C 20 %
687 10-04-2020 18:21:18 22.5 C 20 %
688 10-04-2020 18:31:18 22.2 C 20 %
689 10-04-2020 18:41:18 22.3 C 20 %
690 10-04-2020 18:51:17 22 C 20 %
691 10-04-2020 19:01:17 21.6 C 20 %
692 10-04-2020 19:11:17 21.4 C 20 %
693 10-04-2020 19:21:17 21.1 C 20 %
694 10-04-2020 19:31:17 20.9 C 20 %
695 10-04-2020 19:41:17 20.7 C 20 %
696 10-04-2020 19:51:18 20.2 C 20 %
697 10-04-2020 20:01:17 19.6 C 20 %
698 10-04-2020 20:11:17 18.5 C 20 %
699 10-04-2020 20:21:18 16 C 20 %
700 10-04-2020 20:31:17 15.9 C 20 %
Sensor: Nr:Datum:Temp:Feuchte:
Aussen-T/F 701 10-04-2020 20:41:17 15.3 C 20 %
702 10-04-2020 20:51:17 15 C 20 %
703 10-04-2020 21:01:17 15.3 C 20 %
704 10-04-2020 21:11:17 14.7 C 20 %
705 10-04-2020 21:21:17 14.3 C 21 %
706 10-04-2020 21:31:17 13.8 C 21 %
707 10-04-2020 21:41:17 14.2 C 21 %
708 10-04-2020 21:51:17 14.3 C 21 %
709 10-04-2020 22:01:18 14.5 C 21 %
710 10-04-2020 22:11:18 14.9 C 20 %
711 10-04-2020 22:21:18 14.5 C 22 %
712 10-04-2020 22:31:17 14.5 C 22 %
713 10-04-2020 22:41:17 13.9 C 24 %
714 10-04-2020 22:51:17 13.1 C 25 %
715 10-04-2020 23:01:17 12.7 C 25 %
716 10-04-2020 23:11:17 12.8 C 25 %
717 10-04-2020 23:21:17 12 C 26 %
718 10-04-2020 23:31:17 12.2 C 26 %
719 10-04-2020 23:41:17 11.2 C 28 %
720 10-04-2020 23:51:17 11.1 C 29 %
721 11-04-2020 00:01:18 10.5 C 30 %
722 11-04-2020 00:11:18 10.8 C 30 %
723 11-04-2020 00:21:17 10.8 C 30 %
724 11-04-2020 00:31:17 10.1 C 31 %
725 11-04-2020 00:41:18 9.9 C 32 %
Sensor: Nr:Datum:Temp:Feuchte:
Aussen-T/F 726 11-04-2020 00:51:18 10 C 31 %
727 11-04-2020 01:01:17 9.6 C 31 %
728 11-04-2020 01:11:17 9.6 C 32 %
729 11-04-2020 01:21:17 9.1 C 32 %
730 11-04-2020 01:31:18 9.2 C 32 %
731 11-04-2020 01:41:18 9 C 32 %
732 11-04-2020 01:51:18 8.7 C 32 %
733 11-04-2020 02:01:17 8.4 C 32 %
734 11-04-2020 02:11:17 8.2 C 32 %
735 11-04-2020 02:21:18 8.1 C 32 %
736 11-04-2020 02:31:17 8.3 C 32 %
737 11-04-2020 02:41:17 8.1 C 32 %
738 11-04-2020 02:51:17 7.9 C 33 %
739 11-04-2020 03:01:17 8.5 C 31 %
740 11-04-2020 03:11:17 8.7 C 31 %
741 11-04-2020 03:21:17 8.8 C 30 %
742 11-04-2020 03:31:18 8.8 C 30 %
743 11-04-2020 03:41:18 8.2 C 30 %
744 11-04-2020 03:51:17 8.6 C 30 %
745 11-04-2020 04:01:17 8.3 C 30 %
746 11-04-2020 04:11:17 8.3 C 30 %
747 11-04-2020 04:21:17 7.7 C 30 %
748 11-04-2020 04:31:17 7.4 C 30 %
749 11-04-2020 04:41:17 7.5 C 30 %
750 11-04-2020 04:51:17 7.6 C 29 %
Sensor: Nr:Datum:Temp:Feuchte:
Aussen-T/F 751 11-04-2020 05:01:17 7.4 C 29 %
752 11-04-2020 05:11:17 6.9 C 30 %
753 11-04-2020 05:21:17 6.8 C 30 %
754 11-04-2020 05:31:18 6.1 C 31 %
755 11-04-2020 05:41:18 5.8 C 32 %
756 11-04-2020 05:51:17 5.7 C 32 %
757 11-04-2020 06:01:17 5.6 C 32 %
758 11-04-2020 06:11:17 5 C 33 %
759 11-04-2020 06:21:17 4.9 C 35 %
760 11-04-2020 06:31:18 5 C 33 %
761 11-04-2020 06:41:18 4.6 C 35 %
762 11-04-2020 06:51:17 4.6 C 35 %
763 11-04-2020 07:01:18 4.4 C 35 %
764 11-04-2020 07:11:18 4.5 C 35 %
765 11-04-2020 07:21:17 4.4 C 35 %
766 11-04-2020 07:31:18 4.4 C 36 %
767 11-04-2020 07:41:18 4.7 C 35 %
768 11-04-2020 07:51:17 5 C 34 %
769 11-04-2020 08:01:18 5 C 34 %
770 11-04-2020 08:11:18 5 C 35 %
771 11-04-2020 08:21:18 5.1 C 35 %
772 11-04-2020 08:31:18 5.5 C 34 %
773 11-04-2020 08:41:18 6 C 33 %
774 11-04-2020 08:51:18 6.4 C 32 %
775 11-04-2020 09:01:17 6.5 C 33 %
Sensor: Nr:Datum:Temp:Feuchte:
Aussen-T/F 776 11-04-2020 09:11:18 7.1 C 31 %
777 11-04-2020 09:21:17 7.3 C 31 %
778 11-04-2020 09:31:18 7.8 C 31 %
779 11-04-2020 09:41:18 8.2 C 30 %
780 11-04-2020 09:51:17 8.6 C 30 %
781 11-04-2020 10:01:17 9.1 C 29 %
782 11-04-2020 10:11:17 9.5 C 29 %
783 11-04-2020 10:21:17 10.2 C 26 %
784 11-04-2020 10:31:17 10.7 C 27 %
785 11-04-2020 10:41:17 11.5 C 25 %
786 11-04-2020 10:51:17 12.3 C 21 %
787 11-04-2020 11:01:18 12.9 C 20 %
788 11-04-2020 11:11:18 13.7 C 20 %
789 11-04-2020 11:21:17 14.5 C 20 %
790 11-04-2020 11:31:17 15.3 C 20 %
791 11-04-2020 11:41:18 16 C 20 %
792 11-04-2020 11:51:17 16.5 C 20 %
793 11-04-2020 12:01:17 17.2 C 20 %
794 11-04-2020 12:11:17 17.5 C 20 %
795 11-04-2020 12:21:18 18.1 C 20 %
796 11-04-2020 12:31:17 19.1 C 20 %
797 11-04-2020 12:41:17 19.4 C 20 %
798 11-04-2020 12:51:17 19.5 C 20 %
799 11-04-2020 13:01:17 19.6 C 20 %
800 11-04-2020 13:11:17 19.5 C 20 %
Sensor: Nr:Datum:Temp:Feuchte:
Aussen-T/F 801 11-04-2020 13:21:17 19.5 C 20 %
802 11-04-2020 13:31:17 19.6 C 20 %
803 11-04-2020 13:41:17 19.9 C 20 %
804 11-04-2020 13:51:17 20.2 C 20 %
805 11-04-2020 14:01:18 20.9 C 20 %
806 11-04-2020 14:11:18 21.3 C 20 %
807 11-04-2020 14:21:17 21.5 C 20 %
808 11-04-2020 14:31:17 24.4 C 20 %
809 11-04-2020 14:41:17 27.5 C 20 %
810 11-04-2020 14:51:18 27.4 C 20 %
811 11-04-2020 15:01:18 28.6 C 20 %
812 11-04-2020 15:11:18 30.4 C 20 %
813 11-04-2020 15:21:17 29.9 C 20 %
814 11-04-2020 15:31:17 30.4 C 20 %
815 11-04-2020 15:41:17 31.2 C 20 %
816 11-04-2020 15:51:18 31.8 C 20 %
817 11-04-2020 16:01:17 28.5 C 20 %
818 11-04-2020 16:11:17 31.4 C 20 %
819 11-04-2020 16:21:18 30.7 C 20 %
820 11-04-2020 16:31:17 31.5 C 20 %
821 11-04-2020 16:41:17 31.3 C 20 %
822 11-04-2020 16:51:17 32.1 C 20 %
823 11-04-2020 17:01:17 31.8 C 20 %
824 11-04-2020 17:11:17 29.5 C 20 %
825 11-04-2020 17:21:17 29.8 C 20 %
Sensor: Nr:Datum:Temp:Feuchte:
Aussen-T/F 826 11-04-2020 17:31:17 28.7 C 20 %
827 11-04-2020 17:41:17 26.5 C 20 %
828 11-04-2020 17:51:17 27.5 C 20 %
829 11-04-2020 18:01:17 24.2 C 20 %
830 11-04-2020 18:11:17 23.4 C 20 %
831 11-04-2020 18:21:17 23.6 C 20 %
832 11-04-2020 18:31:17 23.6 C 20 %
833 11-04-2020 18:41:17 23.3 C 20 %
834 11-04-2020 18:51:17 22.9 C 20 %
835 11-04-2020 19:01:17 22.9 C 20 %
836 11-04-2020 19:11:17 22.7 C 20 %
837 11-04-2020 19:21:18 22 C 20 %
838 11-04-2020 19:31:17 21.7 C 20 %
839 11-04-2020 19:41:17 21.2 C 20 %
840 11-04-2020 19:51:17 18.9 C 20 %
841 11-04-2020 20:01:17 18 C 20 %
842 11-04-2020 20:11:17 17.1 C 20 %
843 11-04-2020 20:21:17 16.6 C 20 %
844 11-04-2020 20:31:17 16.5 C 20 %
845 11-04-2020 20:41:17 16.5 C 20 %
846 11-04-2020 20:51:17 16.2 C 20 %
847 11-04-2020 21:01:18 16 C 20 %
848 11-04-2020 21:11:18 15.5 C 20 %
849 11-04-2020 21:21:18 15.4 C 20 %
850 11-04-2020 21:31:17 15.1 C 20 %
Sensor: Nr:Datum:Temp:Feuchte:
Aussen-T/F 851 11-04-2020 21:41:17 14.8 C 20 %
852 11-04-2020 21:51:17 14.5 C 20 %
853 11-04-2020 22:01:17 14.3 C 20 %
854 11-04-2020 22:11:17 14.4 C 20 %
855 11-04-2020 22:21:17 14 C 20 %
856 11-04-2020 22:31:18 14 C 21 %
857 11-04-2020 22:41:18 14.4 C 21 %
858 11-04-2020 22:51:17 14.4 C 22 %
859 11-04-2020 23:01:17 13.7 C 23 %
860 11-04-2020 23:11:17 13 C 24 %
861 11-04-2020 23:21:18 12.3 C 26 %
862 11-04-2020 23:31:18 12.1 C 26 %
863 11-04-2020 23:41:18 11.8 C 27 %
864 11-04-2020 23:51:17 11.7 C 28 %
865 12-04-2020 00:01:17 11.6 C 29 %
866 12-04-2020 00:11:17 11.3 C 28 %
867 12-04-2020 00:21:17 11.3 C 29 %
868 12-04-2020 00:31:17 11.5 C 29 %
869 12-04-2020 00:41:17 11.6 C 29 %
870 12-04-2020 00:51:17 11.4 C 28 %
871 12-04-2020 01:01:17 11.3 C 28 %
872 12-04-2020 01:11:17 11 C 28 %
873 12-04-2020 01:21:17 10.6 C 29 %
874 12-04-2020 01:31:18 10.3 C 29 %
875 12-04-2020 01:41:18 10.2 C 30 %
Sensor: Nr:Datum:Temp:Feuchte:
Aussen-T/F 876 12-04-2020 01:51:17 10.6 C 29 %
877 12-04-2020 02:01:18 10.8 C 30 %
878 12-04-2020 02:11:18 10.7 C 31 %
879 12-04-2020 02:21:18 10.3 C 31 %
880 12-04-2020 02:31:17 10.4 C 30 %
881 12-04-2020 02:41:17 10.2 C 31 %
882 12-04-2020 02:51:17 10.1 C 31 %
883 12-04-2020 03:01:17 10.3 C 31 %
884 12-04-2020 03:11:17 10.2 C 31 %
885 12-04-2020 03:21:17 10.1 C 32 %
886 12-04-2020 03:31:17 10 C 32 %
887 12-04-2020 03:41:18 9.9 C 33 %
888 12-04-2020 03:51:17 10 C 32 %
889 12-04-2020 04:01:17 9.8 C 33 %
890 12-04-2020 04:11:17 9.7 C 33 %
891 12-04-2020 04:21:17 8.9 C 35 %
892 12-04-2020 04:31:17 8.8 C 34 %
893 12-04-2020 04:41:17 8.9 C 35 %
894 12-04-2020 04:51:17 8.5 C 35 %
895 12-04-2020 05:01:18 8.2 C 36 %
896 12-04-2020 05:11:18 8.4 C 36 %
897 12-04-2020 05:21:17 8.5 C 36 %
898 12-04-2020 05:31:17 8.2 C 36 %
899 12-04-2020 05:41:17 8 C 36 %
900 12-04-2020 05:51:17 7.6 C 37 %
Sensor: Nr:Datum:Temp:Feuchte:
Aussen-T/F 901 12-04-2020 06:01:17 7.7 C 37 %
902 12-04-2020 06:11:17 7.5 C 38 %
903 12-04-2020 06:21:17 7.2 C 38 %
904 12-04-2020 06:31:17 7.1 C 39 %
905 12-04-2020 06:41:17 7.2 C 39 %
906 12-04-2020 06:51:17 7.3 C 39 %
907 12-04-2020 07:01:17 6.9 C 39 %
908 12-04-2020 07:11:17 6.7 C 40 %
909 12-04-2020 07:21:17 6.5 C 40 %
910 12-04-2020 07:31:17 6.7 C 40 %
911 12-04-2020 07:41:17 7.1 C 40 %
912 12-04-2020 07:51:18 7 C 40 %
913 12-04-2020 08:01:17 7.3 C 40 %
914 12-04-2020 08:11:17 7.5 C 40 %
915 12-04-2020 08:21:17 7.5 C 40 %
916 12-04-2020 08:31:17 7.6 C 40 %
917 12-04-2020 08:41:18 7.9 C 40 %
918 12-04-2020 08:51:17 8.2 C 40 %
919 12-04-2020 09:01:18 8.8 C 39 %
920 12-04-2020 09:11:18 9.2 C 38 %
921 12-04-2020 09:21:17 9.5 C 38 %
922 12-04-2020 09:31:17 10 C 37 %
923 12-04-2020 09:41:17 10.1 C 37 %
924 12-04-2020 09:51:17 11 C 36 %
925 12-04-2020 10:01:17 11.3 C 36 %
Sensor: Nr:Datum:Temp:Feuchte:
Aussen-T/F 926 12-04-2020 10:11:17 11.7 C 35 %
927 12-04-2020 10:21:17 12.2 C 35 %
928 12-04-2020 10:31:18 13.2 C 33 %
929 12-04-2020 10:41:18 14.4 C 31 %
930 12-04-2020 10:51:17 14.9 C 31 %
931 12-04-2020 11:01:17 15.6 C 30 %
932 12-04-2020 11:11:17 17 C 27 %
933 12-04-2020 11:21:17 17.6 C 27 %
934 12-04-2020 11:31:17 18 C 26 %
935 12-04-2020 11:41:17 18.5 C 24 %
936 12-04-2020 11:51:17 19.1 C 20 %
937 12-04-2020 12:01:17 20.6 C 20 %
938 12-04-2020 12:11:17 20.8 C 20 %
939 12-04-2020 12:21:17 21.7 C 20 %
940 12-04-2020 12:31:17 21.6 C 20 %
941 12-04-2020 12:41:17 21.8 C 20 %
942 12-04-2020 12:51:18 21.2 C 20 %
943 12-04-2020 13:01:17 21.7 C 20 %
944 12-04-2020 13:11:17 21.7 C 20 %
945 12-04-2020 13:21:17 22 C 20 %
946 12-04-2020 13:31:17 21.7 C 20 %
947 12-04-2020 13:41:17 22 C 20 %
948 12-04-2020 13:51:17 22.1 C 20 %
949 12-04-2020 14:01:17 22.4 C 20 %
950 12-04-2020 14:11:17 22.8 C 20 %
Sensor: Nr:Datum:Temp:Feuchte:
Aussen-T/F 951 12-04-2020 14:21:17 22.9 C 20 %
952 12-04-2020 14:31:17 26.2 C 20 %
953 12-04-2020 14:41:17 28.6 C 20 %
954 12-04-2020 14:51:17 28.5 C 20 %
955 12-04-2020 15:01:17 30.3 C 20 %
956 12-04-2020 15:11:17 27.7 C 20 %
957 12-04-2020 15:21:17 27.9 C 20 %
958 12-04-2020 15:31:18 30.7 C 20 %
959 12-04-2020 15:41:18 30.5 C 20 %
960 12-04-2020 15:51:18 28.3 C 20 %
961 12-04-2020 16:01:17 30.5 C 20 %
962 12-04-2020 16:11:17 33.2 C 20 %
963 12-04-2020 16:21:17 32.8 C 20 %
964 12-04-2020 16:31:17 27.8 C 20 %
965 12-04-2020 16:41:17 26 C 20 %
966 12-04-2020 16:51:17 24.7 C 20 %
967 12-04-2020 17:01:17 29.6 C 20 %
968 12-04-2020 17:11:18 29.6 C 20 %
969 12-04-2020 17:21:17 29.5 C 20 %
970 12-04-2020 17:31:17 26.5 C 20 %
971 12-04-2020 17:41:17 29.3 C 20 %
972 12-04-2020 17:51:17 29.8 C 20 %
973 12-04-2020 18:01:18 24.6 C 20 %
974 12-04-2020 18:11:18 24 C 20 %
975 12-04-2020 18:21:17 24 C 20 %
Sensor: Nr:Datum:Temp:Feuchte:
Aussen-T/F 976 12-04-2020 18:31:17 23.6 C 20 %
977 12-04-2020 18:41:17 22.9 C 20 %
978 12-04-2020 18:51:17 22.4 C 20 %
979 12-04-2020 19:01:17 22.5 C 20 %
980 12-04-2020 19:11:17 22.4 C 20 %
981 12-04-2020 19:21:17 22 C 20 %
982 12-04-2020 19:31:17 21.6 C 20 %
983 12-04-2020 19:41:17 20.3 C 20 %
984 12-04-2020 19:51:18 19.1 C 20 %
985 12-04-2020 20:01:18 18.2 C 20 %
986 12-04-2020 20:11:18 17.9 C 20 %
987 12-04-2020 20:21:17 17.5 C 20 %
988 12-04-2020 20:31:18 17 C 20 %
989 12-04-2020 20:41:18 16.8 C 20 %
990 12-04-2020 20:51:17 16 C 20 %
991 12-04-2020 21:01:17 15.5 C 20 %
992 12-04-2020 21:11:17 14 C 20 %
993 12-04-2020 21:22:17 13.5 C 20 %
994 12-04-2020 21:31:17 13.2 C 21 %
995 12-04-2020 21:41:17 13.2 C 20 %
996 12-04-2020 21:51:17 13.3 C 21 %
997 12-04-2020 22:01:17 13.4 C 20 %
998 12-04-2020 22:11:17 13 C 21 %
999 12-04-2020 22:22:17 12.9 C 22 %
1000 12-04-2020 22:32:17 12.2 C 23 %
Sensor: Nr:Datum:Temp:Feuchte:
Aussen-T/F 1001 12-04-2020 22:42:17 11.8 C 26 %
1002 12-04-2020 22:51:17 11.7 C 25 %
1003 12-04-2020 23:01:18 11.5 C 25 %
1004 12-04-2020 23:11:18 11.1 C 26 %
1005 12-04-2020 23:21:17 10.9 C 27 %
1006 12-04-2020 23:32:17 10.7 C 28 %
1007 12-04-2020 23:41:17 10.3 C 28 %
1008 12-04-2020 23:52:17 10.5 C 28 %
1009 13-04-2020 00:01:17 10.6 C 28 %
1010 13-04-2020 00:11:17 10.4 C 29 %
1011 13-04-2020 00:21:18 10.4 C 30 %
1012 13-04-2020 00:31:17 10.1 C 30 %
1013 13-04-2020 00:41:17 9.9 C 31 %
1014 13-04-2020 00:51:17 9.7 C 31 %
1015 13-04-2020 01:01:18 9.5 C 31 %
1016 13-04-2020 01:11:18 9.4 C 32 %
1017 13-04-2020 01:21:18 9 C 32 %
1018 13-04-2020 01:31:18 9.3 C 32 %
1019 13-04-2020 01:41:18 9.2 C 32 %
1020 13-04-2020 01:51:18 9.3 C 32 %
1021 13-04-2020 02:02:17 9.2 C 32 %
1022 13-04-2020 02:12:17 9.2 C 32 %
1023 13-04-2020 02:21:17 9.1 C 32 %
1024 13-04-2020 02:31:18 9 C 33 %
1025 13-04-2020 02:41:18 8.6 C 34 %
Sensor: Nr:Datum:Temp:Feuchte:
Aussen-T/F 1026 13-04-2020 02:51:17 8.6 C 34 %
1027 13-04-2020 03:01:18 8.4 C 34 %
1028 13-04-2020 03:11:18 8.2 C 35 %
1029 13-04-2020 03:22:17 7.9 C 35 %
1030 13-04-2020 03:32:17 8.1 C 35 %
1031 13-04-2020 03:42:17 8 C 35 %
1032 13-04-2020 03:51:17 7.8 C 35 %
1033 13-04-2020 04:02:17 7.5 C 36 %
1034 13-04-2020 04:12:17 7.2 C 36 %
1035 13-04-2020 04:21:18 6.8 C 38 %
1036 13-04-2020 04:32:17 6.8 C 38 %
1037 13-04-2020 04:41:17 6.7 C 39 %
1038 13-04-2020 04:52:17 7.7 C 37 %
1039 13-04-2020 05:02:17 7.3 C 37 %
1040 13-04-2020 05:12:17 7.5 C 38 %
1041 13-04-2020 05:22:17 7.8 C 38 %
1042 13-04-2020 05:32:17 7.6 C 37 %
1043 13-04-2020 05:42:17 7.4 C 37 %
1044 13-04-2020 05:52:17 7.2 C 38 %
1045 13-04-2020 06:02:17 7.2 C 38 %
1046 13-04-2020 06:12:17 6.6 C 39 %
1047 13-04-2020 06:22:17 6.2 C 39 %
1048 13-04-2020 06:32:17 6.3 C 40 %
1049 13-04-2020 06:42:17 6.3 C 40 %
1050 13-04-2020 06:52:17 6.4 C 40 %
Sensor: Nr:Datum:Temp:Feuchte:
Aussen-T/F 1051 13-04-2020 07:02:17 6.5 C 40 %
1052 13-04-2020 07:12:17 7.2 C 39 %
1053 13-04-2020 07:22:17 7.6 C 38 %
1054 13-04-2020 07:32:17 8.1 C 37 %
1055 13-04-2020 07:42:17 8.3 C 37 %
1056 13-04-2020 07:52:17 8.5 C 37 %
1057 13-04-2020 08:02:17 8.6 C 36 %
1058 13-04-2020 08:12:18 8.9 C 36 %
1059 13-04-2020 08:22:17 9 C 36 %
1060 13-04-2020 08:32:17 9.4 C 36 %
1061 13-04-2020 08:42:17 10.7 C 37 %
1062 13-04-2020 08:52:17 11.1 C 36 %
1063 13-04-2020 09:02:17 10.7 C 37 %
1064 13-04-2020 09:12:17 10.7 C 37 %
1065 13-04-2020 09:22:17 11 C 36 %
1066 13-04-2020 09:32:17 11.5 C 36 %
1067 13-04-2020 09:42:17 11.9 C 35 %
1068 13-04-2020 09:52:17 11.4 C 35 %
1069 13-04-2020 10:02:17 11.2 C 35 %
1070 13-04-2020 10:12:17 11.1 C 35 %
1071 13-04-2020 10:22:17 11 C 34 %
1072 13-04-2020 10:32:17 11.1 C 34 %
1073 13-04-2020 10:42:17 11.3 C 34 %
1074 13-04-2020 10:52:17 11.6 C 33 %
1075 13-04-2020 11:02:17 11.6 C 33 %
Sensor: Nr:Datum:Temp:Feuchte:
Aussen-T/F 1076 13-04-2020 11:12:17 11.4 C 32 %
1077 13-04-2020 11:22:17 11.8 C 32 %
1078 13-04-2020 11:32:17 11.5 C 31 %
1079 13-04-2020 11:42:17 11.1 C 31 %
1080 13-04-2020 11:52:16 10.8 C 32 %
1081 13-04-2020 12:02:17 10.9 C 32 %
1082 13-04-2020 12:12:17 10.5 C 33 %
1083 13-04-2020 12:22:17 10.4 C 33 %
1084 13-04-2020 12:32:17 10.7 C 32 %
1085 13-04-2020 12:42:17 11.1 C 32 %
1086 13-04-2020 12:52:17 10.6 C 32 %
1087 13-04-2020 13:02:16 10.3 C 32 %
1088 13-04-2020 13:12:16 10.2 C 32 %
1089 13-04-2020 13:22:17 10.2 C 32 %
1090 13-04-2020 13:32:17 9.6 C 33 %
1091 13-04-2020 13:42:17 8.6 C 35 %
1092 13-04-2020 13:52:17 7.6 C 39 %
1093 13-04-2020 14:02:17 7.5 C 40 %
1094 13-04-2020 14:12:17 7.7 C 38 %
1095 13-04-2020 14:22:16 8.7 C 36 %
1096 13-04-2020 14:32:17 9.2 C 35 %
1097 13-04-2020 14:42:17 9.6 C 34 %
1098 13-04-2020 14:52:16 10.9 C 31 %
1099 13-04-2020 15:02:17 12.4 C 26 %
1100 13-04-2020 15:12:17 12.3 C 25 %
Sensor: Nr:Datum:Temp:Feuchte:
Aussen-T/F 1101 13-04-2020 15:22:17 12.7 C 20 %
1102 13-04-2020 15:32:17 11.8 C 20 %
1103 13-04-2020 15:42:17 12.4 C 20 %
1104 13-04-2020 15:52:16 13.2 C 20 %
1105 13-04-2020 16:02:16 12.2 C 20 %
1106 13-04-2020 16:12:16 14.4 C 20 %
1107 13-04-2020 16:22:16 15 C 20 %
1108 13-04-2020 16:32:17 16 C 20 %
1109 13-04-2020 16:42:17 14.9 C 20 %
1110 13-04-2020 16:52:16 16.5 C 20 %
1111 13-04-2020 17:02:17 15.2 C 20 %
1112 13-04-2020 17:12:17 15.6 C 20 %
1113 13-04-2020 17:22:16 15 C 20 %
1114 13-04-2020 17:32:16 15 C 20 %
1115 13-04-2020 17:42:16 14.5 C 20 %
1116 13-04-2020 17:52:16 15.4 C 20 %
1117 13-04-2020 18:02:16 13.2 C 20 %
1118 13-04-2020 18:12:16 12.5 C 20 %
1119 13-04-2020 18:22:17 12.1 C 20 %
1120 13-04-2020 18:32:17 11.9 C 20 %
1121 13-04-2020 18:42:18 11.1 C 20 %
1122 13-04-2020 18:52:16 11.1 C 20 %
1123 13-04-2020 19:02:16 10.8 C 20 %
1124 13-04-2020 19:12:16 10.5 C 20 %
1125 13-04-2020 19:22:16 10.2 C 20 %
Sensor: Nr:Datum:Temp:Feuchte:
Aussen-T/F 1126 13-04-2020 19:32:17 10 C 20 %
1127 13-04-2020 19:42:17 9.8 C 20 %
1128 13-04-2020 19:52:16 9.6 C 20 %
1129 13-04-2020 20:02:16 9 C 20 %
1130 13-04-2020 20:12:16 8.6 C 20 %
1131 13-04-2020 20:22:16 8.5 C 20 %
1132 13-04-2020 20:32:16 8.4 C 20 %
1133 13-04-2020 20:42:16 8.2 C 20 %
1134 13-04-2020 20:52:16 7.5 C 20 %
1135 13-04-2020 21:02:16 7.5 C 20 %
1136 13-04-2020 21:12:16 7.4 C 20 %
1137 13-04-2020 21:22:16 7.3 C 20 %
1138 13-04-2020 21:32:17 7.2 C 20 %
1139 13-04-2020 21:42:17 6.7 C 20 %
1140 13-04-2020 21:52:16 6.5 C 20 %
1141 13-04-2020 22:02:16 6.1 C 20 %
1142 13-04-2020 22:12:16 5.5 C 20 %
1143 13-04-2020 22:22:16 5.1 C 20 %
1144 13-04-2020 22:32:16 4.6 C 23 %
1145 13-04-2020 22:42:16 4.4 C 25 %
1146 13-04-2020 22:52:16 4.1 C 25 %
1147 13-04-2020 23:02:16 3.9 C 26 %
1148 13-04-2020 23:12:16 3.8 C 27 %
1149 13-04-2020 23:22:16 3.5 C 30 %
1150 13-04-2020 23:32:17 3.3 C 29 %
Sensor: Nr:Datum:Temp:Feuchte:
Aussen-T/F 1151 13-04-2020 23:42:17 4 C 26 %
1152 13-04-2020 23:52:16 4 C 25 %
1153 14-04-2020 00:02:16 3.3 C 28 %
1154 14-04-2020 00:12:16 4.1 C 25 %
1155 14-04-2020 00:22:16 3.2 C 27 %
1156 14-04-2020 00:32:16 3.3 C 27 %
1157 14-04-2020 00:42:16 2.8 C 29 %
1158 14-04-2020 00:52:16 2.9 C 29 %
1159 14-04-2020 01:02:16 3.1 C 27 %
1160 14-04-2020 01:12:16 3.4 C 27 %
1161 14-04-2020 01:22:16 2.8 C 28 %
1162 14-04-2020 01:32:16 2.1 C 30 %
1163 14-04-2020 01:42:16 1.9 C 33 %
1164 14-04-2020 01:52:16 1.2 C 35 %
1165 14-04-2020 02:02:16 1.6 C 35 %
1166 14-04-2020 02:12:16 1.3 C 35 %
1167 14-04-2020 02:22:16 0.9 C 36 %
1168 14-04-2020 02:32:16 0.8 C 36 %
1169 14-04-2020 02:42:16 1.1 C 35 %
1170 14-04-2020 02:52:18 1 C 35 %
1171 14-04-2020 03:02:18 1.1 C 35 %
1172 14-04-2020 03:12:18 1.1 C 35 %
1173 14-04-2020 03:22:17 0.7 C 36 %
1174 14-04-2020 03:32:18 1.1 C 36 %
1175 14-04-2020 03:42:18 0.9 C 36 %
Sensor: Nr:Datum:Temp:Feuchte:
Aussen-T/F 1176 14-04-2020 03:52:17 1 C 35 %
1177 14-04-2020 04:02:18 0.9 C 36 %
1178 14-04-2020 04:12:18 0.9 C 36 %
1179 14-04-2020 04:22:17 0.6 C 36 %
1180 14-04-2020 04:32:17 0.7 C 36 %
1181 14-04-2020 04:42:17 0.7 C 36 %
1182 14-04-2020 04:52:18 0.6 C 36 %
1183 14-04-2020 05:02:17 0 C 37 %
1184 14-04-2020 05:12:17 0 C 38 %
1185 14-04-2020 05:22:17 0.6 C 38 %
1186 14-04-2020 05:32:17 0.6 C 39 %
1187 14-04-2020 05:42:17 0.7 C 39 %
1188 14-04-2020 05:52:17 0 C 39 %
1189 14-04-2020 06:02:17 -0.2 C 40 %
1190 14-04-2020 06:12:17 -0.7 C 41 %
1191 14-04-2020 06:22:17 -0.9 C 41 %
1192 14-04-2020 06:32:17 -0.4 C 41 %
1193 14-04-2020 06:42:17 -0.1 C 41 %
1194 14-04-2020 06:52:17 0.5 C 41 %
1195 14-04-2020 07:02:17 0.7 C 41 %
1196 14-04-2020 07:12:17 1.1 C 40 %
1197 14-04-2020 07:22:17 1.3 C 39 %
1198 14-04-2020 07:32:17 1.6 C 39 %
1199 14-04-2020 07:42:17 1.8 C 39 %
1200 14-04-2020 07:52:18 2.1 C 37 %
Sensor: Nr:Datum:Temp:Feuchte:
Aussen-T/F 1201 14-04-2020 08:02:17 2.2 C 38 %
1202 14-04-2020 08:12:17 2.3 C 37 %
1203 14-04-2020 08:22:18 1.7 C 39 %
1204 14-04-2020 08:32:17 1.7 C 40 %
1205 14-04-2020 08:42:17 2.2 C 38 %
1206 14-04-2020 08:52:17 2.4 C 38 %
1207 14-04-2020 09:02:18 3 C 37 %
1208 14-04-2020 09:12:18 3.8 C 36 %
1209 14-04-2020 09:22:17 4.7 C 34 %
1210 14-04-2020 09:32:18 5.7 C 32 %
1211 14-04-2020 09:42:18 5.3 C 31 %
1212 14-04-2020 09:52:17 6 C 31 %
1213 14-04-2020 10:02:17 6.6 C 30 %
1214 14-04-2020 10:12:17 5.8 C 30 %
1215 14-04-2020 10:22:17 5.9 C 30 %
1216 14-04-2020 10:32:17 6.7 C 30 %
1217 14-04-2020 10:42:17 7.4 C 26 %
1218 14-04-2020 10:52:18 8.4 C 23 %
1219 14-04-2020 11:02:17 8.2 C 21 %
1220 14-04-2020 11:12:17 8 C 20 %
1221 14-04-2020 11:22:17 7.9 C 20 %
1222 14-04-2020 11:32:17 8.2 C 20 %
1223 14-04-2020 11:42:17 9.1 C 20 %
1224 14-04-2020 11:52:18 8.4 C 20 %
1225 14-04-2020 12:02:17 8.5 C 20 %
Sensor: Nr:Datum:Temp:Feuchte:
Aussen-T/F 1226 14-04-2020 12:12:17 8.6 C 20 %
1227 14-04-2020 12:22:17 8.9 C 20 %
1228 14-04-2020 12:32:17 8.6 C 20 %
1229 14-04-2020 12:42:17 9.8 C 20 %
1230 14-04-2020 12:52:17 10.6 C 20 %
1231 14-04-2020 13:02:18 10.2 C 20 %
1232 14-04-2020 13:12:18 10 C 20 %
1233 14-04-2020 13:22:17 10.4 C 20 %
1234 14-04-2020 13:32:17 10.7 C 20 %
1235 14-04-2020 13:42:17 10 C 20 %
1236 14-04-2020 13:52:18 9.5 C 20 %
1237 14-04-2020 14:02:17 9.8 C 20 %
1238 14-04-2020 14:12:18 10.3 C 20 %
1239 14-04-2020 14:22:18 11.8 C 20 %
1240 14-04-2020 14:32:18 14.5 C 20 %
1241 14-04-2020 14:42:18 17.4 C 20 %
1242 14-04-2020 14:52:17 16.8 C 20 %
1243 14-04-2020 15:02:17 17.6 C 20 %
1244 14-04-2020 15:12:18 21 C 20 %
1245 14-04-2020 15:22:17 14.7 C 20 %
1246 14-04-2020 15:32:17 16.7 C 20 %
1247 14-04-2020 15:42:17 14 C 20 %
1248 14-04-2020 15:52:17 14 C 20 %
1249 14-04-2020 16:02:17 15 C 20 %
1250 14-04-2020 16:12:17 17.2 C 20 %
Sensor: Nr:Datum:Temp:Feuchte:
Aussen-T/F 1251 14-04-2020 16:22:17 17.7 C 20 %
1252 14-04-2020 16:32:18 16.3 C 20 %
1253 14-04-2020 16:42:18 14 C 20 %
1254 14-04-2020 16:52:17 14.5 C 20 %
1255 14-04-2020 17:02:18 12.2 C 20 %
1256 14-04-2020 17:12:18 14.2 C 20 %
1257 14-04-2020 17:22:17 19.2 C 20 %
1258 14-04-2020 17:32:17 16.8 C 20 %
1259 14-04-2020 17:42:18 15.5 C 20 %
1260 14-04-2020 17:52:17 16 C 20 %
1261 14-04-2020 18:02:18 13.4 C 20 %
1262 14-04-2020 18:12:18 12.4 C 20 %
1263 14-04-2020 18:22:17 12.1 C 20 %
1264 14-04-2020 18:32:18 11.9 C 20 %
1265 14-04-2020 18:42:18 11.7 C 20 %
1266 14-04-2020 18:52:17 11.3 C 20 %
1267 14-04-2020 19:02:17 11.2 C 20 %
1268 14-04-2020 19:12:18 11 C 20 %
1269 14-04-2020 19:22:18 10.6 C 20 %
1270 14-04-2020 19:32:18 10.3 C 20 %
1271 14-04-2020 19:42:18 10.1 C 20 %
1272 14-04-2020 19:52:17 9.7 C 20 %
1273 14-04-2020 20:02:17 9.3 C 20 %
1274 14-04-2020 20:12:17 8.9 C 20 %
1275 14-04-2020 20:22:17 7.7 C 20 %
Sensor: Nr:Datum:Temp:Feuchte:
Aussen-T/F 1276 14-04-2020 20:32:17 7 C 23 %
1277 14-04-2020 20:42:18 6.7 C 25 %
1278 14-04-2020 20:52:17 6.8 C 25 %
1279 14-04-2020 21:02:17 6.5 C 25 %
1280 14-04-2020 21:12:17 6.3 C 25 %
1281 14-04-2020 21:22:17 6 C 26 %
1282 14-04-2020 21:32:17 6.1 C 26 %
1283 14-04-2020 21:42:17 5.8 C 27 %
1284 14-04-2020 21:52:17 5.6 C 27 %
1285 14-04-2020 22:02:18 5.6 C 27 %
1286 14-04-2020 22:12:18 5.1 C 29 %
1287 14-04-2020 22:22:17 5.2 C 28 %
1288 14-04-2020 22:32:18 5 C 29 %
1289 14-04-2020 22:42:18 4.7 C 30 %
1290 14-04-2020 22:52:18 4.7 C 30 %
1291 14-04-2020 23:02:18 4.3 C 32 %
1292 14-04-2020 23:12:18 3.6 C 34 %
1293 14-04-2020 23:22:17 3.2 C 35 %
1294 14-04-2020 23:32:17 3 C 35 %
1295 14-04-2020 23:42:17 2.8 C 36 %
1296 14-04-2020 23:52:17 2.6 C 36 %
1297 15-04-2020 00:02:18 2.4 C 37 %
1298 15-04-2020 00:12:18 2.1 C 37 %
1299 15-04-2020 00:22:17 1.7 C 39 %
1300 15-04-2020 00:32:18 1.6 C 39 %
Sensor: Nr:Datum:Temp:Feuchte:
Aussen-T/F 1301 15-04-2020 00:42:18 1.6 C 40 %
1302 15-04-2020 00:52:17 1.6 C 39 %
1303 15-04-2020 01:02:17 1.5 C 40 %
1304 15-04-2020 01:12:17 1.3 C 40 %
1305 15-04-2020 01:22:17 1.2 C 40 %
1306 15-04-2020 01:32:17 1.3 C 40 %
1307 15-04-2020 01:42:17 1.2 C 40 %
1308 15-04-2020 01:52:17 1 C 40 %
1309 15-04-2020 02:02:17 0.8 C 41 %
1310 15-04-2020 02:12:17 0.8 C 42 %
1311 15-04-2020 02:22:17 0.8 C 42 %
1312 15-04-2020 02:32:17 0.7 C 42 %
1313 15-04-2020 02:42:17 0.6 C 42 %
1314 15-04-2020 02:52:17 0.1 C 42 %
1315 15-04-2020 03:02:17 0.2 C 43 %
1316 15-04-2020 03:12:17 0.3 C 43 %
1317 15-04-2020 03:22:17 0.2 C 43 %
1318 15-04-2020 03:32:18 0.5 C 43 %
1319 15-04-2020 03:42:18 0.1 C 43 %
1320 15-04-2020 03:52:18 0 C 43 %
1321 15-04-2020 04:02:18 0.2 C 43 %
1322 15-04-2020 04:12:18 -0.2 C 43 %
1323 15-04-2020 04:22:17 0 C 44 %
1324 15-04-2020 04:32:18 -0.2 C 43 %
1325 15-04-2020 04:42:18 -0.3 C 44 %
Sensor: Nr:Datum:Temp:Feuchte:
Aussen-T/F 1326 15-04-2020 04:52:17 -0.4 C 44 %
1327 15-04-2020 05:02:18 -0.4 C 44 %
1328 15-04-2020 05:12:18 -0.3 C 44 %
1329 15-04-2020 05:22:17 -0.4 C 45 %
1330 15-04-2020 05:32:17 -0.5 C 45 %
1331 15-04-2020 05:42:17 -0.4 C 45 %
1332 15-04-2020 05:52:17 -0.7 C 45 %
1333 15-04-2020 06:02:17 -0.7 C 45 %
1334 15-04-2020 06:12:17 -0.7 C 45 %
1335 15-04-2020 06:22:17 -0.7 C 45 %
1336 15-04-2020 06:32:17 -0.6 C 45 %
1337 15-04-2020 06:42:17 -0.7 C 45 %
1338 15-04-2020 06:52:17 -0.9 C 45 %
1339 15-04-2020 07:02:17 -0.7 C 45 %
1340 15-04-2020 07:12:17 -0.6 C 45 %
1341 15-04-2020 07:22:17 -0.5 C 45 %
1342 15-04-2020 07:32:17 -0.1 C 46 %
1343 15-04-2020 07:42:17 0.1 C 45 %
1344 15-04-2020 07:52:18 0.4 C 45 %
1345 15-04-2020 08:02:17 0.7 C 45 %
1346 15-04-2020 08:12:17 1 C 43 %
1347 15-04-2020 08:22:18 1.4 C 42 %
1348 15-04-2020 08:32:18 1.6 C 41 %
1349 15-04-2020 08:42:18 1.9 C 41 %
1350 15-04-2020 08:52:18 2.4 C 40 %
Sensor: Nr:Datum:Temp:Feuchte:
Aussen-T/F 1351 15-04-2020 09:02:17 2.8 C 40 %
1352 15-04-2020 09:12:17 3 C 38 %
1353 15-04-2020 09:22:18 3.4 C 38 %
1354 15-04-2020 09:32:18 3.5 C 37 %
1355 15-04-2020 09:42:18 4.2 C 36 %
1356 15-04-2020 09:52:17 4.4 C 36 %
1357 15-04-2020 10:02:18 4.9 C 35 %
1358 15-04-2020 10:12:18 5.4 C 35 %
1359 15-04-2020 10:22:18 6.2 C 34 %
1360 15-04-2020 10:32:18 6.9 C 33 %
1361 15-04-2020 10:42:18 7.4 C 31 %
1362 15-04-2020 10:52:18 8.1 C 30 %
1363 15-04-2020 11:02:17 8.5 C 30 %
1364 15-04-2020 11:12:17 9.2 C 29 %
1365 15-04-2020 11:22:18 9.9 C 28 %
1366 15-04-2020 11:32:17 10.4 C 26 %
1367 15-04-2020 11:42:17 11 C 22 %
1368 15-04-2020 11:52:18 11.6 C 20 %
1369 15-04-2020 12:02:17 12.3 C 20 %
1370 15-04-2020 12:12:17 12.2 C 20 %
1371 15-04-2020 12:22:18 13.3 C 20 %
1372 15-04-2020 12:32:18 13.2 C 20 %
1373 15-04-2020 12:42:18 13.3 C 20 %
1374 15-04-2020 12:52:17 13.2 C 20 %
1375 15-04-2020 13:02:17 13.4 C 20 %
Sensor: Nr:Datum:Temp:Feuchte:
Aussen-T/F 1376 15-04-2020 13:12:17 13.5 C 20 %
1377 15-04-2020 13:22:18 13.4 C 20 %
1378 15-04-2020 13:32:18 14.2 C 20 %
1379 15-04-2020 13:42:18 14.4 C 20 %
1380 15-04-2020 13:52:17 14.7 C 20 %
1381 15-04-2020 14:02:17 15.2 C 20 %
1382 15-04-2020 14:12:17 15.5 C 20 %
1383 15-04-2020 14:22:17 16.9 C 20 %
1384 15-04-2020 14:32:17 21.6 C 20 %
1385 15-04-2020 14:42:17 23.9 C 20 %
1386 15-04-2020 14:52:17 25.2 C 20 %
1387 15-04-2020 15:02:18 24.8 C 20 %
1388 15-04-2020 15:12:18 23.5 C 20 %
1389 15-04-2020 15:22:18 24.4 C 20 %
1390 15-04-2020 15:32:18 23.9 C 20 %
1391 15-04-2020 15:42:18 24.5 C 20 %
1392 15-04-2020 15:52:17 24.4 C 20 %
1393 15-04-2020 16:02:18 24.8 C 20 %
1394 15-04-2020 16:12:18 24.6 C 20 %
1395 15-04-2020 16:22:17 23.3 C 20 %
1396 15-04-2020 16:32:18 23.7 C 20 %
1397 15-04-2020 16:42:18 25.4 C 20 %
1398 15-04-2020 16:52:18 25.9 C 20 %
1399 15-04-2020 17:02:17 25.4 C 20 %
1400 15-04-2020 17:12:17 26.8 C 20 %
Sensor: Nr:Datum:Temp:Feuchte:
Aussen-T/F 1401 15-04-2020 17:22:18 24.8 C 20 %
1402 15-04-2020 17:32:17 24 C 20 %
1403 15-04-2020 17:42:17 22.4 C 20 %
1404 15-04-2020 17:52:18 24.4 C 20 %
1405 15-04-2020 18:02:18 20.6 C 20 %
1406 15-04-2020 18:12:18 20.2 C 20 %
1407 15-04-2020 18:22:18 19.7 C 20 %
1408 15-04-2020 18:32:18 19.1 C 20 %
1409 15-04-2020 18:42:18 19.4 C 20 %
1410 15-04-2020 18:52:17 19.4 C 20 %
1411 15-04-2020 19:02:17 18.8 C 20 %
1412 15-04-2020 19:12:17 18.7 C 20 %
1413 15-04-2020 19:22:17 18.2 C 20 %
1414 15-04-2020 19:32:17 18 C 20 %
1415 15-04-2020 19:42:18 17.3 C 20 %
1416 15-04-2020 19:52:17 15.3 C 20 %
1417 15-04-2020 20:02:18 14 C 20 %
1418 15-04-2020 20:12:18 13.6 C 20 %
1419 15-04-2020 20:22:18 13.4 C 20 %
1420 15-04-2020 20:32:17 13.1 C 20 %
1421 15-04-2020 20:42:18 12.7 C 20 %
1422 15-04-2020 20:52:17 12 C 20 %
1423 15-04-2020 21:02:18 12 C 20 %
1424 15-04-2020 21:12:18 11 C 20 %
1425 15-04-2020 21:22:17 11 C 20 %
Sensor: Nr:Datum:Temp:Feuchte:
Aussen-T/F 1426 15-04-2020 21:32:17 10.5 C 20 %
1427 15-04-2020 21:42:17 9.4 C 25 %
1428 15-04-2020 21:52:17 9 C 26 %
1429 15-04-2020 22:02:17 8.9 C 27 %
1430 15-04-2020 22:12:17 8.6 C 28 %
1431 15-04-2020 22:22:17 8.8 C 28 %
1432 15-04-2020 22:32:18 8.1 C 28 %
1433 15-04-2020 22:42:18 7.7 C 29 %
1434 15-04-2020 22:52:17 7.3 C 30 %
1435 15-04-2020 23:02:17 7.1 C 30 %
1436 15-04-2020 23:12:17 7.2 C 30 %
1437 15-04-2020 23:22:17 7 C 30 %
1438 15-04-2020 23:32:17 6.6 C 31 %
1439 15-04-2020 23:42:18 6.4 C 32 %
1440 15-04-2020 23:52:17 6.2 C 32 %
1441 16-04-2020 00:02:17 6.2 C 32 %
1442 16-04-2020 00:12:17 6 C 33 %
1443 16-04-2020 00:22:17 5.8 C 34 %
1444 16-04-2020 00:32:18 5.5 C 35 %
1445 16-04-2020 00:42:18 5.3 C 35 %
1446 16-04-2020 00:52:17 5.2 C 35 %
1447 16-04-2020 01:02:17 4.8 C 35 %
1448 16-04-2020 01:12:17 4.8 C 35 %
1449 16-04-2020 01:22:17 5.1 C 35 %
1450 16-04-2020 01:32:18 5.1 C 35 %
Sensor: Nr:Datum:Temp:Feuchte:
Aussen-T/F 1451 16-04-2020 01:42:18 4.7 C 36 %
1452 16-04-2020 01:52:17 4.8 C 36 %
1453 16-04-2020 02:02:18 4.6 C 36 %
1454 16-04-2020 02:12:18 4.3 C 36 %
1455 16-04-2020 02:22:18 3.9 C 38 %
1456 16-04-2020 02:32:17 4.1 C 38 %
1457 16-04-2020 02:42:17 4 C 38 %
1458 16-04-2020 02:52:17 3.7 C 39 %
1459 16-04-2020 03:02:17 3.6 C 40 %
1460 16-04-2020 03:12:17 3.6 C 39 %
1461 16-04-2020 03:22:17 3.5 C 39 %
1462 16-04-2020 03:32:17 3.3 C 39 %
1463 16-04-2020 03:42:17 3 C 40 %
1464 16-04-2020 03:52:17 2.9 C 41 %
1465 16-04-2020 04:02:17 3.2 C 40 %
1466 16-04-2020 04:12:17 3.2 C 40 %
1467 16-04-2020 04:22:17 2.7 C 41 %
1468 16-04-2020 04:32:18 2.6 C 41 %
1469 16-04-2020 04:42:18 3 C 41 %
1470 16-04-2020 04:52:17 2.6 C 42 %
1471 16-04-2020 05:02:17 2.7 C 42 %
1472 16-04-2020 05:12:17 2.7 C 42 %
1473 16-04-2020 05:22:17 2.6 C 42 %
1474 16-04-2020 05:32:17 2.3 C 42 %
1475 16-04-2020 05:42:17 2 C 42 %
Sensor: Nr:Datum:Temp:Feuchte:
Aussen-T/F 1476 16-04-2020 05:52:17 2.1 C 43 %
1477 16-04-2020 06:02:18 2.4 C 43 %
1478 16-04-2020 06:12:18 2 C 42 %
1479 16-04-2020 06:22:17 1.6 C 44 %
1480 16-04-2020 06:32:17 1.4 C 44 %
1481 16-04-2020 06:42:17 1.8 C 45 %
1482 16-04-2020 06:52:17 1.8 C 45 %
1483 16-04-2020 07:02:17 1.8 C 45 %
1484 16-04-2020 07:12:17 1.8 C 45 %
1485 16-04-2020 07:22:17 2.2 C 44 %
1486 16-04-2020 07:32:17 2.1 C 44 %
1487 16-04-2020 07:42:17 2.1 C 44 %
1488 16-04-2020 07:52:17 2.5 C 44 %
1489 16-04-2020 08:02:17 2.5 C 44 %
1490 16-04-2020 08:12:17 2.6 C 44 %
1491 16-04-2020 08:22:17 3 C 43 %
1492 16-04-2020 08:32:18 3.2 C 42 %
1493 16-04-2020 08:42:18 3.5 C 42 %
1494 16-04-2020 08:52:17 3.6 C 41 %
1495 16-04-2020 09:02:18 3.9 C 41 %
1496 16-04-2020 09:12:18 4.2 C 41 %
1497 16-04-2020 09:22:17 4.5 C 40 %
1498 16-04-2020 09:32:17 5.1 C 40 %
1499 16-04-2020 09:42:17 5.8 C 39 %
1500 16-04-2020 09:52:17 6.6 C 37 %
Sensor: Nr:Datum:Temp:Feuchte:
Aussen-T/F 1501 16-04-2020 10:02:18 7 C 36 %
1502 16-04-2020 10:12:18 7.5 C 36 %
1503 16-04-2020 10:22:17 8.1 C 35 %
1504 16-04-2020 10:32:17 9.4 C 34 %
1505 16-04-2020 10:42:18 10.4 C 31 %
1506 16-04-2020 10:52:17 11.2 C 30 %
1507 16-04-2020 11:02:18 12.2 C 29 %
1508 16-04-2020 11:12:18 14.2 C 25 %
1509 16-04-2020 11:22:17 15.5 C 20 %
1510 16-04-2020 11:32:17 16.8 C 20 %
1511 16-04-2020 11:42:17 17.6 C 20 %
1512 16-04-2020 11:52:17 18 C 20 %
1513 16-04-2020 12:02:18 18.4 C 20 %
1514 16-04-2020 12:12:18 18.7 C 20 %
1515 16-04-2020 12:22:17 19.1 C 20 %
1516 16-04-2020 12:32:18 19.3 C 20 %
1517 16-04-2020 12:42:18 19.5 C 20 %
1518 16-04-2020 12:52:17 19.6 C 20 %
1519 16-04-2020 13:02:18 20.1 C 20 %
1520 16-04-2020 13:12:18 20.5 C 20 %
1521 16-04-2020 13:22:17 20.8 C 20 %
1522 16-04-2020 13:32:18 21.1 C 20 %
1523 16-04-2020 13:42:18 21.5 C 20 %
1524 16-04-2020 13:52:17 21.7 C 20 %
1525 16-04-2020 14:02:17 22 C 20 %
Sensor: Nr:Datum:Temp:Feuchte:
Aussen-T/F 1526 16-04-2020 14:12:17 22.4 C 20 %
1527 16-04-2020 14:22:17 22.8 C 20 %
1528 16-04-2020 14:32:17 26.2 C 20 %
1529 16-04-2020 14:42:17 28 C 20 %
1530 16-04-2020 14:52:17 29.6 C 20 %
1531 16-04-2020 15:02:17 29.8 C 20 %
1532 16-04-2020 15:12:17 29.5 C 20 %
1533 16-04-2020 15:22:17 28.5 C 20 %
1534 16-04-2020 15:32:18 30.1 C 20 %
1535 16-04-2020 15:42:18 25.8 C 20 %
1536 16-04-2020 15:52:17 27.1 C 20 %
1537 16-04-2020 16:02:17 29.5 C 20 %
1538 16-04-2020 16:12:17 28.4 C 20 %
1539 16-04-2020 16:22:17 26.5 C 20 %
1540 16-04-2020 16:32:17 26.6 C 20 %
1541 16-04-2020 16:42:18 27.2 C 20 %
1542 16-04-2020 16:52:17 24.9 C 20 %
1543 16-04-2020 17:02:17 25 C 20 %
1544 16-04-2020 17:12:17 26.1 C 20 %
1545 16-04-2020 17:22:18 28.3 C 20 %
1546 16-04-2020 17:32:17 27.6 C 20 %
1547 16-04-2020 17:42:17 27.3 C 20 %
1548 16-04-2020 17:52:17 26.5 C 20 %
1549 16-04-2020 18:02:17 25.6 C 20 %
1550 16-04-2020 18:12:17 24.3 C 20 %
Sensor: Nr:Datum:Temp:Feuchte:
Aussen-T/F 1551 16-04-2020 18:22:17 24.4 C 20 %
1552 16-04-2020 18:32:17 24.2 C 20 %
1553 16-04-2020 18:42:17 23.9 C 20 %
1554 16-04-2020 18:52:17 24 C 20 %
1555 16-04-2020 19:02:17 23.2 C 20 %
1556 16-04-2020 19:12:17 22.9 C 20 %
1557 16-04-2020 19:22:17 22.2 C 20 %
1558 16-04-2020 19:32:18 21.9 C 20 %
1559 16-04-2020 19:42:18 21.2 C 20 %
1560 16-04-2020 19:52:17 20.5 C 20 %
1561 16-04-2020 20:02:17 19.5 C 20 %
1562 16-04-2020 20:12:17 19.2 C 20 %
1563 16-04-2020 20:22:17 19.3 C 20 %
1564 16-04-2020 20:32:18 19.1 C 20 %
1565 16-04-2020 20:42:18 18.9 C 20 %
1566 16-04-2020 20:52:18 18.5 C 20 %
1567 16-04-2020 21:02:17 17.9 C 20 %
1568 16-04-2020 21:12:17 16.5 C 20 %
1569 16-04-2020 21:22:17 16.1 C 20 %
1570 16-04-2020 21:32:18 15.5 C 20 %
1571 16-04-2020 21:42:18 14.7 C 21 %
1572 16-04-2020 21:52:17 14.4 C 22 %
1573 16-04-2020 22:02:17 14.5 C 22 %
1574 16-04-2020 22:12:17 13.5 C 25 %
1575 16-04-2020 22:22:17 14.1 C 25 %
Sensor: Nr:Datum:Temp:Feuchte:
Aussen-T/F 1576 16-04-2020 22:32:17 13.8 C 25 %
1577 16-04-2020 22:42:18 13.1 C 26 %
1578 16-04-2020 22:52:17 12.4 C 28 %
1579 16-04-2020 23:02:17 12.5 C 29 %
1580 16-04-2020 23:12:17 12.2 C 30 %
1581 16-04-2020 23:22:17 11.7 C 30 %
1582 16-04-2020 23:32:18 11.6 C 31 %
1583 16-04-2020 23:42:18 11.6 C 31 %
1584 16-04-2020 23:52:17 11.8 C 31 %
1585 17-04-2020 00:02:18 11.4 C 31 %
1586 17-04-2020 00:12:18 11 C 31 %
1587 17-04-2020 00:22:17 11 C 32 %
1588 17-04-2020 00:32:17 11 C 32 %
1589 17-04-2020 00:42:17 11 C 32 %
1590 17-04-2020 00:52:18 10.4 C 33 %
1591 17-04-2020 01:02:17 10.1 C 34 %
1592 17-04-2020 01:12:18 10.1 C 34 %
1593 17-04-2020 01:22:18 9.8 C 35 %
1594 17-04-2020 01:32:18 10 C 35 %
1595 17-04-2020 01:42:18 10 C 35 %
1596 17-04-2020 01:52:17 9.5 C 36 %
1597 17-04-2020 02:02:17 9.7 C 36 %
1598 17-04-2020 02:12:17 9.6 C 36 %
1599 17-04-2020 02:22:17 9.1 C 36 %
1600 17-04-2020 02:32:17 8.9 C 37 %
Sensor: Nr:Datum:Temp:Feuchte:
Aussen-T/F 1601 17-04-2020 02:42:17 8.5 C 38 %
1602 17-04-2020 02:52:17 8.1 C 38 %
1603 17-04-2020 03:02:17 7.9 C 39 %
1604 17-04-2020 03:12:18 7.9 C 40 %
1605 17-04-2020 03:22:18 7.8 C 40 %
1606 17-04-2020 03:32:17 7.8 C 40 %
1607 17-04-2020 03:42:18 7.8 C 40 %
1608 17-04-2020 03:52:18 8.5 C 39 %
1609 17-04-2020 04:02:17 8.4 C 39 %
1610 17-04-2020 04:12:17 8.3 C 39 %
1611 17-04-2020 04:22:17 8 C 39 %
1612 17-04-2020 04:32:17 7.9 C 40 %
1613 17-04-2020 04:42:17 8 C 40 %
1614 17-04-2020 04:52:17 7.8 C 40 %
1615 17-04-2020 05:02:17 7.5 C 40 %
1616 17-04-2020 05:12:18 6.9 C 41 %
1617 17-04-2020 05:22:17 6.7 C 42 %
1618 17-04-2020 05:32:18 6.6 C 42 %
1619 17-04-2020 05:42:18 6.7 C 43 %
1620 17-04-2020 05:52:18 6.5 C 42 %
1621 17-04-2020 06:02:18 6.5 C 43 %
1622 17-04-2020 06:12:18 6.2 C 43 %
1623 17-04-2020 06:22:17 6 C 43 %
1624 17-04-2020 06:32:17 6 C 44 %
1625 17-04-2020 06:42:17 5.8 C 44 %
Sensor: Nr:Datum:Temp:Feuchte:
Aussen-T/F 1626 17-04-2020 06:52:17 5.8 C 44 %
1627 17-04-2020 07:02:18 5.8 C 45 %
1628 17-04-2020 07:12:18 5.9 C 45 %
1629 17-04-2020 07:22:18 6.1 C 45 %
1630 17-04-2020 07:32:17 6.1 C 45 %
1631 17-04-2020 07:42:17 6.3 C 45 %
1632 17-04-2020 07:52:17 6.3 C 45 %
1633 17-04-2020 08:02:17 6.5 C 45 %
1634 17-04-2020 08:12:17 6.7 C 45 %
1635 17-04-2020 08:22:17 6.9 C 45 %
1636 17-04-2020 08:32:18 7 C 44 %
1637 17-04-2020 08:42:18 7.6 C 44 %
1638 17-04-2020 08:52:17 7.9 C 44 %
1639 17-04-2020 09:02:18 8.4 C 42 %
1640 17-04-2020 09:12:18 8.6 C 42 %
1641 17-04-2020 09:22:17 8.8 C 41 %
1642 17-04-2020 09:32:17 9.3 C 41 %
1643 17-04-2020 09:42:17 9.6 C 40 %
1644 17-04-2020 09:52:18 10.3 C 39 %
1645 17-04-2020 10:02:17 10.8 C 38 %
1646 17-04-2020 10:12:17 11 C 37 %
1647 17-04-2020 10:22:18 11.8 C 36 %
1648 17-04-2020 10:32:18 12.4 C 35 %
1649 17-04-2020 10:42:18 13 C 34 %
1650 17-04-2020 10:52:17 13.9 C 34 %
Sensor: Nr:Datum:Temp:Feuchte:
Aussen-T/F 1651 17-04-2020 11:02:17 14.6 C 32 %
1652 17-04-2020 11:12:17 15.8 C 30 %
1653 17-04-2020 11:22:18 16.5 C 28 %
1654 17-04-2020 11:32:17 17.1 C 28 %
1655 17-04-2020 11:42:17 17.7 C 26 %
1656 17-04-2020 11:52:17 17.9 C 25 %
1657 17-04-2020 12:02:18 18.5 C 25 %
1658 17-04-2020 12:12:18 18.7 C 24 %
1659 17-04-2020 12:22:17 19.1 C 22 %
1660 17-04-2020 12:32:17 19.7 C 20 %
1661 17-04-2020 12:42:17 19.7 C 20 %
1662 17-04-2020 12:52:17 19.7 C 20 %
1663 17-04-2020 13:02:18 20 C 20 %
1664 17-04-2020 13:12:18 20.4 C 20 %
1665 17-04-2020 13:22:17 20.6 C 20 %
1666 17-04-2020 13:32:17 20.8 C 20 %
1667 17-04-2020 13:42:17 21.1 C 20 %
1668 17-04-2020 13:52:17 21.6 C 20 %
1669 17-04-2020 14:02:18 21.8 C 20 %
1670 17-04-2020 14:12:18 22.6 C 20 %
1671 17-04-2020 14:22:17 23.2 C 20 %
1672 17-04-2020 14:32:17 25.2 C 20 %
1673 17-04-2020 14:42:17 29 C 20 %
1674 17-04-2020 14:52:17 32.1 C 20 %
1675 17-04-2020 15:02:17 30.9 C 20 %
Sensor: Nr:Datum:Temp:Feuchte:
Aussen-T/F 1676 17-04-2020 15:12:17 31.4 C 20 %
1677 17-04-2020 15:22:17 29.6 C 20 %
1678 17-04-2020 15:32:17 29.2 C 20 %
1679 17-04-2020 15:42:17 29 C 20 %
1680 17-04-2020 15:52:18 25.7 C 20 %
1681 17-04-2020 16:02:17 30.3 C 20 %
1682 17-04-2020 16:12:17 30.2 C 20 %
1683 17-04-2020 16:22:17 27.5 C 20 %
1684 17-04-2020 16:32:17 28.2 C 20 %
1685 17-04-2020 16:42:17 28.2 C 20 %
1686 17-04-2020 16:52:17 27.7 C 20 %
1687 17-04-2020 17:02:18 29.6 C 20 %
1688 17-04-2020 17:12:18 29.4 C 20 %
1689 17-04-2020 17:22:17 29.5 C 20 %
1690 17-04-2020 17:32:17 30.4 C 20 %
1691 17-04-2020 17:42:18 27.7 C 20 %
1692 17-04-2020 17:52:17 28.5 C 20 %
1693 17-04-2020 18:02:17 26.6 C 20 %
1694 17-04-2020 18:12:17 26.2 C 20 %
1695 17-04-2020 18:22:17 25.7 C 20 %
1696 17-04-2020 18:32:17 24.8 C 20 %
1697 17-04-2020 18:42:17 24.7 C 20 %
1698 17-04-2020 18:52:18 24.2 C 20 %
1699 17-04-2020 19:02:17 24.1 C 20 %
1700 17-04-2020 19:12:17 23.7 C 20 %
Sensor: Nr:Datum:Temp:Feuchte:
Aussen-T/F 1701 17-04-2020 19:22:17 23 C 20 %
1702 17-04-2020 19:32:17 22.2 C 20 %
1703 17-04-2020 19:42:17 21.7 C 20 %
1704 17-04-2020 19:52:17 20.7 C 20 %
1705 17-04-2020 20:02:17 20 C 20 %
1706 17-04-2020 20:12:17 19.5 C 20 %
1707 17-04-2020 20:22:17 18.8 C 21 %
1708 17-04-2020 20:32:17 18.4 C 21 %
1709 17-04-2020 20:42:17 18.2 C 21 %
1710 17-04-2020 20:52:17 17.7 C 23 %
1711 17-04-2020 21:02:17 17.5 C 23 %
1712 17-04-2020 21:12:17 17.7 C 24 %
1713 17-04-2020 21:22:17 17.6 C 25 %
1714 17-04-2020 21:32:18 17.8 C 24 %
1715 17-04-2020 21:42:18 17 C 25 %
1716 17-04-2020 21:52:18 16.8 C 25 %
1717 17-04-2020 22:02:17 16 C 26 %
1718 17-04-2020 22:12:17 16 C 26 %
1719 17-04-2020 22:22:17 15.8 C 26 %
1720 17-04-2020 22:32:17 15.7 C 26 %
1721 17-04-2020 22:42:17 15.1 C 27 %
1722 17-04-2020 22:52:17 14.6 C 29 %
1723 17-04-2020 23:02:17 14.7 C 30 %
1724 17-04-2020 23:12:17 14.4 C 29 %
1725 17-04-2020 23:22:18 14.1 C 30 %
Sensor: Nr:Datum:Temp:Feuchte:
Aussen-T/F 1726 17-04-2020 23:32:17 14 C 30 %
1727 17-04-2020 23:42:17 13.6 C 31 %
1728 17-04-2020 23:52:17 13.5 C 31 %
1729 18-04-2020 00:02:17 13.4 C 31 %
1730 18-04-2020 00:12:17 13.1 C 32 %
1731 18-04-2020 00:22:18 12.6 C 33 %
1732 18-04-2020 00:32:17 12.2 C 33 %
1733 18-04-2020 00:42:18 12 C 33 %
1734 18-04-2020 00:52:17 11.8 C 34 %
1735 18-04-2020 01:02:18 11.8 C 34 %
1736 18-04-2020 01:12:18 11.8 C 34 %
1737 18-04-2020 01:22:17 11.4 C 34 %
1738 18-04-2020 01:32:18 11.1 C 35 %
1739 18-04-2020 01:42:18 10.9 C 36 %
1740 18-04-2020 01:52:17 10.9 C 36 %
1741 18-04-2020 02:02:18 10.8 C 36 %
1742 18-04-2020 02:12:18 10.6 C 36 %
1743 18-04-2020 02:22:17 10.7 C 36 %
1744 18-04-2020 02:32:17 10.1 C 37 %
1745 18-04-2020 02:42:17 10 C 38 %
1746 18-04-2020 02:52:18 9.8 C 38 %
1747 18-04-2020 03:02:17 9.7 C 39 %
1748 18-04-2020 03:12:17 9.6 C 39 %
1749 18-04-2020 03:22:18 9.2 C 39 %
1750 18-04-2020 03:32:18 9 C 39 %
Sensor: Nr:Datum:Temp:Feuchte:
Aussen-T/F 1751 18-04-2020 03:42:18 9 C 39 %
1752 18-04-2020 03:52:18 8.9 C 40 %
1753 18-04-2020 04:02:17 9 C 40 %
1754 18-04-2020 04:12:17 9 C 40 %
1755 18-04-2020 04:22:17 9 C 40 %
1756 18-04-2020 04:32:18 8.9 C 41 %
1757 18-04-2020 04:42:18 8.8 C 41 %
1758 18-04-2020 04:52:17 8.6 C 41 %
1759 18-04-2020 05:02:17 8.4 C 41 %
1760 18-04-2020 05:12:17 8.5 C 41 %
1761 18-04-2020 05:22:17 8.7 C 40 %
1762 18-04-2020 05:32:17 8.6 C 41 %
1763 18-04-2020 05:42:17 8.3 C 41 %
1764 18-04-2020 05:52:18 8.6 C 41 %
1765 18-04-2020 06:02:17 8.7 C 41 %
1766 18-04-2020 06:12:17 8.6 C 41 %
1767 18-04-2020 06:22:17 8.7 C 41 %
1768 18-04-2020 06:32:17 8.3 C 41 %
1769 18-04-2020 06:42:17 8.1 C 41 %
1770 18-04-2020 06:52:17 8.2 C 41 %
1771 18-04-2020 07:02:17 8.4 C 42 %
1772 18-04-2020 07:12:17 8.7 C 42 %
1773 18-04-2020 07:22:17 9.4 C 42 %
1774 18-04-2020 07:32:17 9.6 C 41 %
1775 18-04-2020 07:42:17 9.7 C 41 %
Sensor: Nr:Datum:Temp:Feuchte:
Aussen-T/F 1776 18-04-2020 07:52:17 9.7 C 41 %
1777 18-04-2020 08:02:18 9.7 C 41 %
1778 18-04-2020 08:12:18 10 C 40 %
1779 18-04-2020 08:22:17 10.1 C 40 %
1780 18-04-2020 08:32:17 10.2 C 40 %
1781 18-04-2020 08:42:18 10.6 C 40 %
1782 18-04-2020 08:52:18 11.1 C 39 %
1783 18-04-2020 09:02:17 11.7 C 38 %
1784 18-04-2020 09:12:17 12.1 C 37 %
1785 18-04-2020 09:22:17 12.5 C 36 %
1786 18-04-2020 09:32:18 13.4 C 35 %
1787 18-04-2020 09:42:18 13.8 C 34 %
1788 18-04-2020 09:52:18 14.4 C 32 %
1789 18-04-2020 10:02:18 15 C 31 %
1790 18-04-2020 10:12:18 14.9 C 31 %
1791 18-04-2020 10:22:18 16.2 C 30 %
1792 18-04-2020 10:32:18 15.8 C 30 %
1793 18-04-2020 10:42:18 17.2 C 29 %
1794 18-04-2020 10:52:18 17.9 C 29 %
1795 18-04-2020 11:02:18 18.5 C 27 %
1796 18-04-2020 11:12:18 18.3 C 27 %
1797 18-04-2020 11:22:17 18.5 C 26 %
1798 18-04-2020 11:32:18 17.8 C 27 %
1799 18-04-2020 11:42:18 18.6 C 26 %
1800 18-04-2020 11:52:18 18.9 C 27 %
Sensor: Nr:Datum:Temp:Feuchte:
Aussen-T/F 1801 18-04-2020 12:02:17 19.1 C 26 %
1802 18-04-2020 12:12:17 20 C 25 %
1803 18-04-2020 12:22:18 20.2 C 24 %
1804 18-04-2020 12:32:18 20.1 C 24 %
1805 18-04-2020 12:42:18 19.6 C 25 %
1806 18-04-2020 12:52:17 19.3 C 25 %
1807 18-04-2020 13:02:17 20.8 C 24 %
1808 18-04-2020 13:12:17 21.8 C 21 %
1809 18-04-2020 13:22:18 21.5 C 20 %
1810 18-04-2020 13:32:18 21.8 C 20 %
1811 18-04-2020 13:42:18 22.4 C 20 %
1812 18-04-2020 13:52:18 21.6 C 20 %
1813 18-04-2020 14:02:18 21.2 C 20 %
1814 18-04-2020 14:12:18 21.7 C 20 %
1815 18-04-2020 14:22:18 22.4 C 20 %
1816 18-04-2020 14:32:17 22.4 C 20 %
1817 18-04-2020 14:42:17 22.8 C 20 %
1818 18-04-2020 14:52:17 22.6 C 20 %
1819 18-04-2020 15:02:17 25.4 C 20 %
1820 18-04-2020 15:12:18 30.4 C 20 %
1821 18-04-2020 15:22:17 28.2 C 20 %
1822 18-04-2020 15:32:17 23.8 C 20 %
1823 18-04-2020 15:42:17 23.2 C 20 %
1824 18-04-2020 15:52:17 22.2 C 20 %
1825 18-04-2020 16:02:18 21.8 C 20 %
Sensor: Nr:Datum:Temp:Feuchte:
Aussen-T/F 1826 18-04-2020 16:12:18 21.8 C 20 %
1827 18-04-2020 16:22:18 20.6 C 20 %
1828 18-04-2020 16:32:17 19.7 C 25 %
1829 18-04-2020 16:42:17 20 C 25 %
1830 18-04-2020 16:52:17 19.9 C 25 %
1831 18-04-2020 17:02:17 19.1 C 26 %
1832 18-04-2020 17:12:17 18.9 C 27 %
1833 18-04-2020 17:22:17 18.7 C 28 %
1834 18-04-2020 17:32:18 17.6 C 33 %
1835 18-04-2020 17:42:18 17.5 C 33 %
1836 18-04-2020 17:52:18 17.4 C 33 %
1837 18-04-2020 18:02:18 17.3 C 34 %
1838 18-04-2020 18:12:18 17.1 C 34 %
1839 18-04-2020 18:22:17 17.3 C 33 %
1840 18-04-2020 18:32:18 17.7 C 31 %
1841 18-04-2020 18:42:18 17.7 C 31 %
1842 18-04-2020 18:52:17 17.9 C 30 %
1843 18-04-2020 19:02:18 18.1 C 30 %
1844 18-04-2020 19:12:18 17.9 C 30 %
1845 18-04-2020 19:22:17 17.6 C 30 %
1846 18-04-2020 19:32:17 17.8 C 30 %
1847 18-04-2020 19:42:17 18.1 C 29 %
1848 18-04-2020 19:52:18 17.7 C 30 %
1849 18-04-2020 20:02:17 17.3 C 30 %
1850 18-04-2020 20:12:17 16.5 C 30 %
Sensor: Nr:Datum:Temp:Feuchte:
Aussen-T/F 1851 18-04-2020 20:22:17 15.9 C 31 %
1852 18-04-2020 20:32:17 15 C 32 %
1853 18-04-2020 20:42:17 14.8 C 34 %
1854 18-04-2020 20:52:17 14.5 C 34 %
1855 18-04-2020 21:02:18 14.5 C 35 %
1856 18-04-2020 21:12:18 14.9 C 34 %
1857 18-04-2020 21:22:17 15 C 33 %
1858 18-04-2020 21:32:17 15.1 C 33 %
1859 18-04-2020 21:42:17 15 C 33 %
1860 18-04-2020 21:52:18 14.8 C 34 %
1861 18-04-2020 22:02:17 14.4 C 34 %
1862 18-04-2020 22:12:17 14.5 C 35 %
1863 18-04-2020 22:22:17 13.7 C 35 %
1864 18-04-2020 22:32:18 13.4 C 36 %
1865 18-04-2020 22:42:18 12.8 C 37 %
1866 18-04-2020 22:52:17 12.8 C 37 %
1867 18-04-2020 23:02:18 12.7 C 38 %
1868 18-04-2020 23:12:18 12.3 C 38 %
1869 18-04-2020 23:22:17 12.1 C 38 %
1870 18-04-2020 23:32:17 11.7 C 40 %
1871 18-04-2020 23:42:17 11.1 C 40 %
1872 18-04-2020 23:52:17 10.9 C 42 %
1873 19-04-2020 00:02:18 10.6 C 43 %
1874 19-04-2020 00:12:18 10.7 C 43 %
1875 19-04-2020 00:22:17 10.2 C 43 %
Sensor: Nr:Datum:Temp:Feuchte:
Aussen-T/F 1876 19-04-2020 00:32:17 10.2 C 43 %
1877 19-04-2020 00:42:17 10.1 C 44 %
1878 19-04-2020 00:52:17 9.8 C 44 %
1879 19-04-2020 01:02:17 9.8 C 45 %
1880 19-04-2020 01:12:17 9.9 C 45 %
1881 19-04-2020 01:22:17 9.6 C 44 %
1882 19-04-2020 01:32:17 9.6 C 45 %
1883 19-04-2020 01:42:17 9.9 C 45 %
1884 19-04-2020 01:52:17 9.5 C 45 %
1885 19-04-2020 02:02:17 9.5 C 45 %
1886 19-04-2020 02:12:18 9.6 C 45 %
1887 19-04-2020 02:22:17 9.7 C 45 %
1888 19-04-2020 02:32:17 10 C 45 %
1889 19-04-2020 02:42:17 10 C 44 %
1890 19-04-2020 02:52:17 9.8 C 45 %
1891 19-04-2020 03:02:17 9.6 C 45 %
1892 19-04-2020 03:12:17 9.3 C 44 %
1893 19-04-2020 03:22:17 9.1 C 45 %
1894 19-04-2020 03:32:17 8.9 C 45 %
1895 19-04-2020 03:42:17 8.7 C 45 %
1896 19-04-2020 03:52:17 8.7 C 45 %
1897 19-04-2020 04:02:17 8.5 C 45 %
1898 19-04-2020 04:12:17 9.2 C 45 %
1899 19-04-2020 04:22:17 9.2 C 45 %
1900 19-04-2020 04:32:17 9.4 C 45 %
Sensor: Nr:Datum:Temp:Feuchte:
Aussen-T/F 1901 19-04-2020 04:42:17 9.6 C 45 %
1902 19-04-2020 04:52:17 9.6 C 45 %
1903 19-04-2020 05:02:17 9.7 C 45 %
1904 19-04-2020 05:12:17 9.6 C 45 %
1905 19-04-2020 05:22:18 9.6 C 45 %
1906 19-04-2020 05:32:17 9.7 C 45 %
1907 19-04-2020 05:42:17 9.7 C 45 %
1908 19-04-2020 05:52:17 9.8 C 45 %
1909 19-04-2020 06:02:17 9.9 C 45 %
1910 19-04-2020 06:12:17 10.1 C 44 %
1911 19-04-2020 06:22:17 10.1 C 44 %
1912 19-04-2020 06:32:17 10.2 C 44 %
1913 19-04-2020 06:42:17 10.2 C 44 %
1914 19-04-2020 06:52:18 10.3 C 44 %
1915 19-04-2020 07:02:18 10.3 C 44 %
1916 19-04-2020 07:12:18 10.4 C 44 %
1917 19-04-2020 07:22:17 10.6 C 44 %
1918 19-04-2020 07:32:18 10.5 C 43 %
1919 19-04-2020 07:42:18 10.6 C 43 %
1920 19-04-2020 07:52:17 10.6 C 43 %
1921 19-04-2020 08:02:17 10.7 C 43 %
1922 19-04-2020 08:12:17 11.3 C 42 %
1923 19-04-2020 08:22:17 11.5 C 41 %
1924 19-04-2020 08:32:17 12 C 40 %
1925 19-04-2020 08:42:17 12.4 C 39 %
Sensor: Nr:Datum:Temp:Feuchte:
Aussen-T/F 1926 19-04-2020 08:52:17 13.2 C 37 %
1927 19-04-2020 09:02:17 12.5 C 38 %
1928 19-04-2020 09:12:18 13 C 37 %
1929 19-04-2020 09:22:18 13.2 C 36 %
1930 19-04-2020 09:32:17 13.5 C 36 %
1931 19-04-2020 09:42:17 13.8 C 36 %
1932 19-04-2020 09:52:17 13.8 C 35 %
1933 19-04-2020 10:02:17 13.7 C 35 %
1934 19-04-2020 10:12:17 14.2 C 35 %
1935 19-04-2020 10:22:17 14.7 C 34 %
1936 19-04-2020 10:32:17 15.5 C 33 %
1937 19-04-2020 10:42:17 16.4 C 31 %
1938 19-04-2020 10:52:17 16.4 C 31 %
1939 19-04-2020 11:02:17 15.7 C 32 %
1940 19-04-2020 11:12:17 14.7 C 33 %
1941 19-04-2020 11:22:17 14.7 C 33 %
1942 19-04-2020 11:32:17 14.4 C 34 %
1943 19-04-2020 11:42:17 14 C 34 %
1944 19-04-2020 11:52:17 13.8 C 35 %
1945 19-04-2020 12:02:17 14.2 C 34 %
1946 19-04-2020 12:12:17 14.7 C 34 %
1947 19-04-2020 12:22:17 16 C 31 %
1948 19-04-2020 12:32:18 16 C 31 %
1949 19-04-2020 12:42:18 16.3 C 30 %
1950 19-04-2020 12:52:17 16.9 C 30 %
Sensor: Nr:Datum:Temp:Feuchte:
Aussen-T/F 1951 19-04-2020 13:02:17 17.4 C 28 %
1952 19-04-2020 13:12:17 16.9 C 29 %
1953 19-04-2020 13:22:17 17.4 C 27 %
1954 19-04-2020 13:32:17 18.8 C 26 %
1955 19-04-2020 13:42:17 19.1 C 25 %
1956 19-04-2020 13:52:17 19.3 C 25 %
1957 19-04-2020 14:02:18 18.8 C 25 %
1958 19-04-2020 14:12:18 18.6 C 25 %
1959 19-04-2020 14:22:17 18.1 C 25 %
1960 19-04-2020 14:32:17 17.4 C 26 %
1961 19-04-2020 14:42:17 18 C 26 %
1962 19-04-2020 14:52:17 17.1 C 26 %
1963 19-04-2020 15:02:18 16.9 C 26 %
1964 19-04-2020 15:12:18 16.6 C 26 %
1965 19-04-2020 15:22:17 17 C 25 %
1966 19-04-2020 15:32:17 17.2 C 25 %
1967 19-04-2020 15:42:18 17.8 C 25 %
1968 19-04-2020 15:52:18 18.1 C 24 %
1969 19-04-2020 16:02:17 19.2 C 22 %
1970 19-04-2020 16:12:17 22.2 C 20 %
1971 19-04-2020 16:22:17 20.2 C 20 %
1972 19-04-2020 16:32:17 18.6 C 20 %
1973 19-04-2020 16:42:17 20.5 C 20 %
1974 19-04-2020 16:52:17 21.3 C 20 %
1975 19-04-2020 17:02:17 17.5 C 20 %
Sensor: Nr:Datum:Temp:Feuchte:
Aussen-T/F 1976 19-04-2020 17:12:17 18.6 C 20 %
1977 19-04-2020 17:22:17 19.7 C 20 %
1978 19-04-2020 17:32:18 18.9 C 20 %
1979 19-04-2020 17:42:18 19.2 C 20 %
1980 19-04-2020 17:52:17 18.6 C 20 %
1981 19-04-2020 18:02:18 17.4 C 20 %
1982 19-04-2020 18:12:18 17.3 C 20 %
1983 19-04-2020 18:22:17 17.3 C 20 %
1984 19-04-2020 18:32:17 17.3 C 20 %
1985 19-04-2020 18:42:17 16.8 C 20 %
1986 19-04-2020 18:52:17 16.8 C 20 %
1987 19-04-2020 19:02:17 16.8 C 20 %
1988 19-04-2020 19:12:17 16.7 C 20 %
1989 19-04-2020 19:22:17 16.3 C 20 %
1990 19-04-2020 19:32:18 16 C 20 %
1991 19-04-2020 19:42:18 15.6 C 20 %
1992 19-04-2020 19:52:17 15.1 C 20 %
1993 19-04-2020 20:02:18 14.7 C 20 %
1994 19-04-2020 20:12:18 13.7 C 23 %
1995 19-04-2020 20:22:17 13.3 C 24 %
1996 19-04-2020 20:32:17 13 C 25 %
1997 19-04-2020 20:42:17 12.5 C 26 %
1998 19-04-2020 20:52:17 12.3 C 26 %
1999 19-04-2020 21:02:18 12 C 26 %
2000 19-04-2020 21:12:18 12 C 26 %
Sensor: Nr:Datum:Temp:Feuchte:
Aussen-T/F 2001 19-04-2020 21:22:17 11.7 C 27 %
2002 19-04-2020 21:32:17 11.5 C 27 %
2003 19-04-2020 21:42:17 11.4 C 27 %
2004 19-04-2020 21:52:17 11 C 27 %
2005 19-04-2020 22:02:17 11.2 C 26 %
2006 19-04-2020 22:12:17 11 C 26 %
2007 19-04-2020 22:22:17 11.1 C 26 %
2008 19-04-2020 22:32:17 10.9 C 26 %
2009 19-04-2020 22:42:17 10.3 C 26 %
2010 19-04-2020 22:52:17 10.2 C 26 %
2011 19-04-2020 23:02:18 11.1 C 25 %
2012 19-04-2020 23:12:18 10.1 C 25 %
2013 19-04-2020 23:22:18 9.7 C 27 %
2014 19-04-2020 23:32:17 10.3 C 22 %
2015 19-04-2020 23:42:17 10.3 C 25 %
2016 19-04-2020 23:52:17 10.3 C 23 %
2017 20-04-2020 00:02:17 10.1 C 25 %
2018 20-04-2020 00:12:17 9.6 C 25 %
2019 20-04-2020 00:22:17 10.1 C 21 %
2020 20-04-2020 00:32:18 9.9 C 23 %
2021 20-04-2020 00:42:18 9.6 C 25 %
2022 20-04-2020 00:52:18 9.3 C 25 %
2023 20-04-2020 01:02:17 9.8 C 23 %
2024 20-04-2020 01:12:17 9.3 C 23 %
2025 20-04-2020 01:22:17 9.1 C 21 %
Sensor: Nr:Datum:Temp:Feuchte:
Aussen-T/F 2026 20-04-2020 01:32:17 9.6 C 21 %
2027 20-04-2020 01:42:17 9.1 C 21 %
2028 20-04-2020 01:52:17 8.5 C 25 %
2029 20-04-2020 02:02:18 8.1 C 26 %
2030 20-04-2020 02:12:18 7.9 C 26 %
2031 20-04-2020 02:22:17 7.5 C 27 %
2032 20-04-2020 02:32:18 7.3 C 27 %
2033 20-04-2020 02:42:18 7.3 C 27 %
2034 20-04-2020 02:52:17 7.3 C 27 %
2035 20-04-2020 03:02:17 7 C 27 %
2036 20-04-2020 03:12:17 6.9 C 28 %
2037 20-04-2020 03:22:17 6.7 C 29 %
2038 20-04-2020 03:32:17 6.9 C 28 %
2039 20-04-2020 03:42:17 6.9 C 28 %
2040 20-04-2020 03:52:17 6.7 C 29 %
2041 20-04-2020 04:02:17 6.6 C 28 %
2042 20-04-2020 04:12:17 6.5 C 28 %
2043 20-04-2020 04:22:17 6.4 C 29 %
2044 20-04-2020 04:32:18 6.4 C 28 %
2045 20-04-2020 04:42:18 6.4 C 28 %
2046 20-04-2020 04:52:17 6.2 C 29 %
2047 20-04-2020 05:02:18 6.4 C 29 %
2048 20-04-2020 05:12:18 6.3 C 29 %
2049 20-04-2020 05:22:17 6.3 C 29 %
2050 20-04-2020 05:32:17 6.2 C 30 %
Sensor: Nr:Datum:Temp:Feuchte:
Aussen-T/F 2051 20-04-2020 05:42:18 6.3 C 29 %
2052 20-04-2020 05:52:17 6.3 C 29 %
2053 20-04-2020 06:02:18 6 C 30 %
2054 20-04-2020 06:12:18 5.9 C 30 %
2055 20-04-2020 06:22:17 5.9 C 30 %
2056 20-04-2020 06:32:17 6.1 C 30 %
2057 20-04-2020 06:42:17 6.1 C 30 %
2058 20-04-2020 06:52:17 5.9 C 30 %
2059 20-04-2020 07:02:17 6.1 C 30 %
2060 20-04-2020 07:12:17 6.2 C 30 %
2061 20-04-2020 07:22:17 6.2 C 30 %
2062 20-04-2020 07:32:17 6.4 C 30 %
2063 20-04-2020 07:42:17 7.2 C 27 %
2064 20-04-2020 07:52:17 7.4 C 27 %
2065 20-04-2020 08:02:18 7.3 C 27 %
2066 20-04-2020 08:12:18 7.9 C 26 %
2067 20-04-2020 08:22:17 7.8 C 27 %
2068 20-04-2020 08:32:17 7.7 C 28 %
2069 20-04-2020 08:42:18 7.9 C 26 %
2070 20-04-2020 08:52:18 8.1 C 26 %
2071 20-04-2020 09:02:17 8.3 C 26 %
2072 20-04-2020 09:12:17 8.2 C 27 %
2073 20-04-2020 09:22:17 8.4 C 27 %
2074 20-04-2020 09:32:17 9 C 25 %
2075 20-04-2020 09:42:17 9.4 C 25 %
Sensor: Nr:Datum:Temp:Feuchte:
Aussen-T/F 2076 20-04-2020 09:52:18 9.4 C 26 %
2077 20-04-2020 10:02:18 9.9 C 26 %
2078 20-04-2020 10:12:18 10.7 C 22 %
2079 20-04-2020 10:22:17 11.4 C 20 %
2080 20-04-2020 10:32:17 12.1 C 20 %
2081 20-04-2020 10:42:18 12.7 C 20 %
2082 20-04-2020 10:52:17 13.1 C 20 %
2083 20-04-2020 11:02:18 13.7 C 20 %
2084 20-04-2020 11:12:18 14 C 20 %
2085 20-04-2020 11:22:17 14.4 C 20 %
2086 20-04-2020 11:32:17 14.7 C 20 %
2087 20-04-2020 11:42:18 14.8 C 20 %
2088 20-04-2020 11:52:17 15 C 20 %
2089 20-04-2020 12:02:17 15.2 C 20 %
2090 20-04-2020 12:12:17 15 C 20 %
2091 20-04-2020 12:22:17 15 C 20 %
2092 20-04-2020 12:32:17 15.1 C 20 %
2093 20-04-2020 12:42:17 15.1 C 20 %
2094 20-04-2020 12:52:17 15.4 C 20 %
2095 20-04-2020 13:02:17 15.4 C 20 %
2096 20-04-2020 13:12:17 16 C 20 %
2097 20-04-2020 13:22:17 15.8 C 20 %
2098 20-04-2020 13:32:17 16.1 C 20 %
2099 20-04-2020 13:42:17 16.1 C 20 %
2100 20-04-2020 13:52:17 16.8 C 20 %
Sensor: Nr:Datum:Temp:Feuchte:
Aussen-T/F 2101 20-04-2020 14:02:17 16.9 C 20 %
2102 20-04-2020 14:12:17 17.3 C 20 %
2103 20-04-2020 14:22:17 18.3 C 20 %
2104 20-04-2020 14:32:18 21 C 20 %
2105 20-04-2020 14:42:18 23 C 20 %
2106 20-04-2020 14:52:18 23.2 C 20 %
2107 20-04-2020 15:02:17 22.9 C 20 %
2108 20-04-2020 15:12:17 21.8 C 20 %
2109 20-04-2020 15:22:17 22.9 C 20 %
2110 20-04-2020 15:32:17 23.3 C 20 %
2111 20-04-2020 15:42:17 24.7 C 20 %
2112 20-04-2020 15:52:17 22.5 C 20 %
2113 20-04-2020 16:02:17 24.5 C 20 %
2114 20-04-2020 16:12:17 22.7 C 20 %
2115 20-04-2020 16:22:17 23 C 20 %
2116 20-04-2020 16:32:17 23.5 C 20 %
2117 20-04-2020 16:42:17 23.6 C 20 %
2118 20-04-2020 16:52:17 23.4 C 20 %
2119 20-04-2020 17:02:17 23.7 C 20 %
2120 20-04-2020 17:12:17 22.3 C 20 %
2121 20-04-2020 17:22:17 21.6 C 20 %
2122 20-04-2020 17:32:17 20.4 C 20 %
2123 20-04-2020 17:42:17 22.4 C 20 %
2124 20-04-2020 17:52:17 20.9 C 20 %
2125 20-04-2020 18:02:18 19.1 C 20 %
Sensor: Nr:Datum:Temp:Feuchte:
Aussen-T/F 2126 20-04-2020 18:12:18 19 C 20 %
2127 20-04-2020 18:22:18 18.5 C 20 %
2128 20-04-2020 18:32:17 18.4 C 20 %
2129 20-04-2020 18:42:18 18.2 C 20 %
2130 20-04-2020 18:52:18 18.3 C 20 %
2131 20-04-2020 19:02:17 17.8 C 20 %
2132 20-04-2020 19:12:17 17.6 C 20 %
2133 20-04-2020 19:22:17 17.2 C 20 %
2134 20-04-2020 19:32:17 17 C 20 %
2135 20-04-2020 19:42:17 16.6 C 20 %
2136 20-04-2020 19:52:17 16.3 C 20 %
2137 20-04-2020 20:02:17 16 C 20 %
2138 20-04-2020 20:12:17 15.6 C 20 %
2139 20-04-2020 20:22:17 15 C 20 %
2140 20-04-2020 20:32:17 14.4 C 20 %
2141 20-04-2020 20:42:17 14.5 C 20 %
2142 20-04-2020 20:52:17 13.8 C 20 %
2143 20-04-2020 21:02:17 13.7 C 20 %
2144 20-04-2020 21:12:17 12.9 C 20 %
2145 20-04-2020 21:22:17 12.6 C 20 %
2146 20-04-2020 21:32:17 12 C 20 %
2147 20-04-2020 21:42:17 12.2 C 20 %
2148 20-04-2020 21:52:17 12.6 C 20 %
2149 20-04-2020 22:02:17 11.8 C 20 %
2150 20-04-2020 22:12:17 11.9 C 20 %
Sensor: Nr:Datum:Temp:Feuchte:
Aussen-T/F 2151 20-04-2020 22:22:17 12.1 C 20 %
2152 20-04-2020 22:32:17 12.2 C 20 %
2153 20-04-2020 22:42:17 11.9 C 20 %
2154 20-04-2020 22:52:18 11.5 C 20 %
2155 20-04-2020 23:02:17 11.5 C 20 %
2156 20-04-2020 23:12:17 11.6 C 20 %
2157 20-04-2020 23:22:17 11 C 20 %
2158 20-04-2020 23:32:18 11.6 C 20 %
2159 20-04-2020 23:42:18 11 C 20 %
2160 20-04-2020 23:52:17 11 C 20 %
2161 21-04-2020 00:02:17 10.9 C 20 %
2162 21-04-2020 00:12:17 10.3 C 20 %
2163 21-04-2020 00:22:17 10.4 C 20 %
2164 21-04-2020 00:32:17 9.9 C 20 %
2165 21-04-2020 00:42:17 10.5 C 20 %
2166 21-04-2020 00:52:17 10 C 20 %
2167 21-04-2020 01:02:18 9.4 C 20 %
2168 21-04-2020 01:12:18 8.9 C 20 %
2169 21-04-2020 01:22:18 9 C 20 %
2170 21-04-2020 01:32:18 8.9 C 20 %
2171 21-04-2020 01:42:18 9.2 C 20 %
2172 21-04-2020 01:52:17 8.4 C 20 %
2173 21-04-2020 02:02:17 9.2 C 20 %
2174 21-04-2020 02:12:18 9.1 C 20 %
2175 21-04-2020 02:22:17 9.1 C 20 %
Sensor: Nr:Datum:Temp:Feuchte:
Aussen-T/F 2176 21-04-2020 02:32:18 8.9 C 20 %
2177 21-04-2020 02:42:18 9.2 C 20 %
2178 21-04-2020 02:52:17 9 C 20 %
2179 21-04-2020 03:02:17 9.3 C 20 %
2180 21-04-2020 03:12:17 9.1 C 20 %
2181 21-04-2020 03:22:18 9.2 C 20 %
2182 21-04-2020 03:32:17 9.1 C 20 %
2183 21-04-2020 03:42:17 8.3 C 20 %
2184 21-04-2020 03:52:18 8.6 C 20 %
2185 21-04-2020 04:02:18 8.1 C 20 %
2186 21-04-2020 04:12:18 7.4 C 23 %
2187 21-04-2020 04:22:17 7.8 C 20 %
2188 21-04-2020 04:32:17 7.7 C 23 %
2189 21-04-2020 04:42:17 7.5 C 25 %
2190 21-04-2020 04:52:17 7.5 C 25 %
2191 21-04-2020 05:02:17 7.1 C 25 %
2192 21-04-2020 05:12:17 7.7 C 25 %
2193 21-04-2020 05:22:17 7.3 C 25 %
2194 21-04-2020 05:32:18 7 C 25 %
2195 21-04-2020 05:42:18 6.8 C 26 %
2196 21-04-2020 05:52:17 6.5 C 27 %
2197 21-04-2020 06:02:17 6.9 C 27 %
2198 21-04-2020 06:12:17 6.6 C 27 %
2199 21-04-2020 06:22:18 6.6 C 27 %
2200 21-04-2020 06:32:18 6.3 C 28 %
Sensor: Nr:Datum:Temp:Feuchte:
Aussen-T/F 2201 21-04-2020 06:42:18 6.4 C 28 %
2202 21-04-2020 06:52:17 6.3 C 29 %
2203 21-04-2020 07:02:18 6.1 C 30 %
2204 21-04-2020 07:12:18 6.2 C 29 %
2205 21-04-2020 07:22:17 6.3 C 30 %
2206 21-04-2020 07:32:17 6.5 C 30 %
2207 21-04-2020 07:42:17 7.3 C 27 %
2208 21-04-2020 07:52:17 6.9 C 29 %
2209 21-04-2020 08:02:17 7.4 C 27 %
2210 21-04-2020 08:12:17 7.7 C 26 %
2211 21-04-2020 08:22:17 7.6 C 26 %
2212 21-04-2020 08:32:17 7.2 C 28 %
2213 21-04-2020 08:42:18 7.5 C 27 %
2214 21-04-2020 08:52:17 8.3 C 27 %
2215 21-04-2020 09:02:17 8.7 C 25 %
2216 21-04-2020 09:12:17 9.2 C 23 %
2217 21-04-2020 09:22:17 9.7 C 21 %
2218 21-04-2020 09:32:17 10.2 C 20 %
2219 21-04-2020 09:42:17 10.7 C 20 %
2220 21-04-2020 09:52:17 10.9 C 20 %
2221 21-04-2020 10:02:17 10.9 C 20 %
2222 21-04-2020 10:12:17 11.7 C 20 %
2223 21-04-2020 10:22:17 12.2 C 20 %
2224 21-04-2020 10:32:17 12.8 C 20 %
2225 21-04-2020 10:42:17 13.2 C 20 %
Sensor: Nr:Datum:Temp:Feuchte:
Aussen-T/F 2226 21-04-2020 10:52:17 13.5 C 20 %
2227 21-04-2020 11:02:17 13.9 C 20 %
2228 21-04-2020 11:12:17 14.6 C 20 %
2229 21-04-2020 11:22:17 14.6 C 20 %
2230 21-04-2020 11:32:18 14.7 C 20 %
2231 21-04-2020 11:42:18 15.2 C 20 %
2232 21-04-2020 11:52:18 15.7 C 20 %
2233 21-04-2020 12:02:17 16.4 C 20 %
2234 21-04-2020 12:12:18 16.1 C 20 %
2235 21-04-2020 12:22:17 16.1 C 20 %
2236 21-04-2020 12:32:17 16.2 C 20 %
2237 21-04-2020 12:42:17 16.4 C 20 %
2238 21-04-2020 12:52:17 16.6 C 20 %
2239 21-04-2020 13:02:17 16.9 C 20 %
2240 21-04-2020 13:12:17 17.4 C 20 %
2241 21-04-2020 13:22:17 17.2 C 20 %
2242 21-04-2020 13:32:17 17.3 C 20 %
2243 21-04-2020 13:42:17 17.9 C 20 %
2244 21-04-2020 13:52:17 18.1 C 20 %
2245 21-04-2020 14:02:17 18.5 C 20 %
2246 21-04-2020 14:12:17 19 C 20 %
2247 21-04-2020 14:22:17 19.4 C 20 %
2248 21-04-2020 14:32:17 22 C 20 %
2249 21-04-2020 14:42:17 24.4 C 20 %
2250 21-04-2020 14:52:17 24.2 C 20 %
Sensor: Nr:Datum:Temp:Feuchte:
Aussen-T/F 2251 21-04-2020 15:02:17 24.5 C 20 %
2252 21-04-2020 15:12:17 22.2 C 20 %
2253 21-04-2020 15:22:17 23.7 C 20 %
2254 21-04-2020 15:32:18 23.2 C 20 %
2255 21-04-2020 15:42:18 24 C 20 %
2256 21-04-2020 15:52:17 23.4 C 20 %
2257 21-04-2020 16:02:18 22.8 C 20 %
2258 21-04-2020 16:12:18 23.2 C 20 %
2259 21-04-2020 16:22:17 22.9 C 20 %
2260 21-04-2020 16:32:17 23.2 C 20 %
2261 21-04-2020 16:42:17 24.3 C 20 %
2262 21-04-2020 16:52:17 22.8 C 20 %
2263 21-04-2020 17:02:17 23.6 C 20 %
2264 21-04-2020 17:12:17 24.8 C 20 %
2265 21-04-2020 17:22:18 22.8 C 20 %
2266 21-04-2020 17:32:17 21.9 C 20 %
2267 21-04-2020 17:42:17 22.3 C 20 %
2268 21-04-2020 17:52:17 22.9 C 20 %
2269 21-04-2020 18:02:18 21.1 C 20 %
2270 21-04-2020 18:12:18 20.9 C 20 %
2271 21-04-2020 18:22:17 20.5 C 20 %
2272 21-04-2020 18:32:17 20.3 C 20 %
2273 21-04-2020 18:42:17 20 C 20 %
2274 21-04-2020 18:52:18 20 C 20 %
2275 21-04-2020 19:02:17 19.6 C 20 %
Sensor: Nr:Datum:Temp:Feuchte:
Aussen-T/F 2276 21-04-2020 19:12:17 19.4 C 20 %
2277 21-04-2020 19:22:17 19.1 C 20 %
2278 21-04-2020 19:32:18 18.9 C 20 %
2279 21-04-2020 19:42:18 18.7 C 20 %
2280 21-04-2020 19:52:17 18.3 C 20 %
2281 21-04-2020 20:02:17 17.9 C 20 %
2282 21-04-2020 20:12:17 17.4 C 20 %
2283 21-04-2020 20:22:17 16.7 C 20 %
2284 21-04-2020 20:32:17 16.2 C 20 %
2285 21-04-2020 20:42:17 15.5 C 20 %
2286 21-04-2020 20:52:17 14.8 C 20 %
2287 21-04-2020 21:02:18 14.2 C 20 %
2288 21-04-2020 21:12:18 14.5 C 20 %
2289 21-04-2020 21:22:17 14.1 C 20 %
2290 21-04-2020 21:32:17 13.9 C 20 %
2291 21-04-2020 21:42:17 13.2 C 20 %
2292 21-04-2020 21:52:18 12.9 C 20 %
2293 21-04-2020 22:02:17 13.2 C 20 %
2294 21-04-2020 22:12:17 13 C 20 %
2295 21-04-2020 22:22:17 13.4 C 20 %
2296 21-04-2020 22:32:17 12.6 C 20 %
2297 21-04-2020 22:42:17 12 C 20 %
2298 21-04-2020 22:52:18 11.8 C 20 %
2299 21-04-2020 23:02:18 12.1 C 20 %
2300 21-04-2020 23:12:18 11.8 C 20 %
Sensor: Nr:Datum:Temp:Feuchte:
Aussen-T/F 2301 21-04-2020 23:22:17 11.5 C 20 %
2302 21-04-2020 23:32:18 11.3 C 20 %
2303 21-04-2020 23:42:18 11.3 C 20 %
2304 21-04-2020 23:52:18 11.1 C 20 %
2305 22-04-2020 00:02:18 11.1 C 20 %
2306 22-04-2020 00:12:18 10.6 C 20 %
2307 22-04-2020 00:22:17 11.1 C 20 %
2308 22-04-2020 00:32:18 11.4 C 20 %
2309 22-04-2020 00:42:18 10.9 C 20 %
2310 22-04-2020 00:52:17 11 C 20 %
2311 22-04-2020 01:02:17 10.8 C 20 %
2312 22-04-2020 01:12:17 10 C 21 %
2313 22-04-2020 01:22:17 9.9 C 25 %
2314 22-04-2020 01:32:18 9.7 C 25 %
2315 22-04-2020 01:42:18 10.2 C 21 %
2316 22-04-2020 01:52:17 9.9 C 23 %
2317 22-04-2020 02:02:17 9.9 C 23 %
2318 22-04-2020 02:12:17 9.8 C 25 %
2319 22-04-2020 02:22:17 9.5 C 25 %
2320 22-04-2020 02:32:17 9.3 C 25 %
2321 22-04-2020 02:42:17 9.7 C 25 %
2322 22-04-2020 02:52:17 9.3 C 25 %
2323 22-04-2020 03:02:17 9.5 C 25 %
2324 22-04-2020 03:12:17 9 C 25 %
2325 22-04-2020 03:22:18 8.8 C 26 %
Sensor: Nr:Datum:Temp:Feuchte:
Aussen-T/F 2326 22-04-2020 03:32:18 8.5 C 27 %
2327 22-04-2020 03:42:18 8.4 C 27 %
2328 22-04-2020 03:52:17 8.3 C 27 %
2329 22-04-2020 04:02:18 8.4 C 27 %
2330 22-04-2020 04:12:18 8.3 C 27 %
2331 22-04-2020 04:22:17 8 C 27 %
2332 22-04-2020 04:32:18 7.9 C 27 %
2333 22-04-2020 04:42:18 7.9 C 27 %
2334 22-04-2020 04:52:17 7.4 C 28 %
2335 22-04-2020 05:02:18 7.5 C 28 %
2336 22-04-2020 05:12:18 7.3 C 28 %
2337 22-04-2020 05:22:17 7.1 C 29 %
2338 22-04-2020 05:32:17 7.1 C 29 %
2339 22-04-2020 05:42:18 6.9 C 30 %
2340 22-04-2020 05:52:17 6.7 C 30 %
2341 22-04-2020 06:02:18 6.7 C 30 %
2342 22-04-2020 06:12:18 6.1 C 31 %
2343 22-04-2020 06:22:17 5.8 C 32 %
2344 22-04-2020 06:32:17 5.6 C 33 %
2345 22-04-2020 06:42:17 5.3 C 35 %
2346 22-04-2020 06:52:17 5.6 C 35 %
2347 22-04-2020 07:02:17 5.6 C 35 %
2348 22-04-2020 07:12:17 5.4 C 35 %
2349 22-04-2020 07:22:18 5.9 C 35 %
2350 22-04-2020 07:32:17 5.5 C 35 %
Sensor: Nr:Datum:Temp:Feuchte:
Aussen-T/F 2351 22-04-2020 07:42:17 5.7 C 35 %
2352 22-04-2020 07:52:17 5.9 C 35 %
2353 22-04-2020 08:02:17 6.5 C 34 %
2354 22-04-2020 08:12:17 6.6 C 34 %
2355 22-04-2020 08:22:17 7 C 33 %
2356 22-04-2020 08:32:17 7.5 C 32 %
2357 22-04-2020 08:42:17 8 C 31 %
2358 22-04-2020 08:52:18 8.9 C 30 %
2359 22-04-2020 09:02:18 9.1 C 30 %
2360 22-04-2020 09:12:18 9.1 C 30 %
2361 22-04-2020 09:22:17 10.1 C 26 %
2362 22-04-2020 09:32:17 10.7 C 26 %
2363 22-04-2020 09:42:17 10.7 C 26 %
2364 22-04-2020 09:52:17 11.3 C 24 %
2365 22-04-2020 10:02:17 11.5 C 24 %
2366 22-04-2020 10:12:17 12.5 C 20 %
2367 22-04-2020 10:22:17 13 C 20 %
2368 22-04-2020 10:32:17 13.7 C 20 %
2369 22-04-2020 10:42:17 14.2 C 20 %
2370 22-04-2020 10:52:17 14.8 C 20 %
2371 22-04-2020 11:02:17 15.4 C 20 %
2372 22-04-2020 11:12:17 15.7 C 20 %
2373 22-04-2020 11:22:17 16.2 C 20 %
2374 22-04-2020 11:32:17 16.4 C 20 %
2375 22-04-2020 11:42:17 17.1 C 20 %
Sensor: Nr:Datum:Temp:Feuchte:
Aussen-T/F 2376 22-04-2020 11:52:18 17.1 C 20 %
2377 22-04-2020 12:02:18 17.9 C 20 %
2378 22-04-2020 12:12:18 17.6 C 20 %
2379 22-04-2020 12:22:17 17.7 C 20 %
2380 22-04-2020 12:32:17 17.7 C 20 %
2381 22-04-2020 12:42:17 17.7 C 20 %
2382 22-04-2020 12:52:18 18 C 20 %
2383 22-04-2020 13:02:17 18.6 C 20 %
2384 22-04-2020 13:12:17 19.3 C 20 %
2385 22-04-2020 13:22:17 19 C 20 %
2386 22-04-2020 13:32:17 18.9 C 20 %
2387 22-04-2020 13:42:17 19.1 C 20 %
2388 22-04-2020 13:52:17 19.4 C 20 %
2389 22-04-2020 14:02:17 19.8 C 20 %
2390 22-04-2020 14:12:17 20.3 C 20 %
2391 22-04-2020 14:22:17 21.2 C 20 %
2392 22-04-2020 14:32:17 25.4 C 20 %
2393 22-04-2020 14:42:17 27.1 C 20 %
2394 22-04-2020 14:52:17 25.8 C 20 %
2395 22-04-2020 15:02:17 24.9 C 20 %
2396 22-04-2020 15:12:18 26.4 C 20 %
2397 22-04-2020 15:22:17 27.6 C 20 %
2398 22-04-2020 15:32:17 27 C 20 %
2399 22-04-2020 15:42:17 25.4 C 20 %
2400 22-04-2020 15:52:17 25.7 C 20 %
Sensor: Nr:Datum:Temp:Feuchte:
Aussen-T/F 2401 22-04-2020 16:02:17 25.3 C 20 %
2402 22-04-2020 16:12:17 27.2 C 20 %
2403 22-04-2020 16:22:17 26.8 C 20 %
2404 22-04-2020 16:32:18 27.7 C 20 %
2405 22-04-2020 16:42:18 25.2 C 20 %
2406 22-04-2020 16:52:17 26.3 C 20 %
2407 22-04-2020 17:02:17 25.2 C 20 %
2408 22-04-2020 17:12:17 24.6 C 20 %
2409 22-04-2020 17:22:17 25.1 C 20 %
2410 22-04-2020 17:32:17 25.5 C 20 %
2411 22-04-2020 17:42:17 25.6 C 20 %
2412 22-04-2020 17:52:17 25.2 C 20 %
2413 22-04-2020 18:02:17 23.1 C 20 %
2414 22-04-2020 18:12:17 22 C 20 %
2415 22-04-2020 18:22:17 22.1 C 20 %
2416 22-04-2020 18:32:17 21.9 C 20 %
2417 22-04-2020 18:42:17 21.9 C 20 %
2418 22-04-2020 18:52:17 21.6 C 20 %
2419 22-04-2020 19:02:17 21.1 C 20 %
2420 22-04-2020 19:12:17 21.2 C 20 %
2421 22-04-2020 19:22:17 20.8 C 20 %
2422 22-04-2020 19:32:18 20.4 C 20 %
2423 22-04-2020 19:42:18 20.3 C 20 %
2424 22-04-2020 19:52:17 20 C 20 %
2425 22-04-2020 20:02:18 19.4 C 20 %
Sensor: Nr:Datum:Temp:Feuchte:
Aussen-T/F 2426 22-04-2020 20:12:18 18.4 C 20 %
2427 22-04-2020 20:22:17 17 C 20 %
2428 22-04-2020 20:32:17 16.3 C 20 %
2429 22-04-2020 20:42:17 16.2 C 20 %
2430 22-04-2020 20:52:17 15.9 C 20 %
2431 22-04-2020 21:02:17 15.7 C 20 %
2432 22-04-2020 21:12:17 15 C 20 %
2433 22-04-2020 21:22:17 14.6 C 20 %
2434 22-04-2020 21:32:17 14.4 C 20 %
2435 22-04-2020 21:42:17 14.4 C 20 %
2436 22-04-2020 21:52:17 14.1 C 20 %
2437 22-04-2020 22:02:17 13.7 C 20 %
2438 22-04-2020 22:12:17 13.8 C 20 %
2439 22-04-2020 22:22:17 14.2 C 20 %
2440 22-04-2020 22:32:17 13.6 C 20 %
2441 22-04-2020 22:42:17 13.5 C 20 %
2442 22-04-2020 22:52:18 13.5 C 20 %
2443 22-04-2020 23:02:17 13.7 C 20 %
2444 22-04-2020 23:12:17 13.5 C 20 %
2445 22-04-2020 23:22:17 13.2 C 20 %
2446 22-04-2020 23:32:17 12.9 C 20 %
2447 22-04-2020 23:42:17 13.2 C 20 %
2448 22-04-2020 23:52:18 12.8 C 20 %
2449 23-04-2020 00:02:17 12.6 C 20 %
2450 23-04-2020 00:12:17 12.4 C 20 %
Sensor: Nr:Datum:Temp:Feuchte:
Aussen-T/F 2451 23-04-2020 00:22:17 12.4 C 20 %
2452 23-04-2020 00:32:17 12.2 C 20 %
2453 23-04-2020 00:42:17 12.2 C 20 %
2454 23-04-2020 00:52:17 12.3 C 20 %
2455 23-04-2020 01:02:17 12.1 C 20 %
2456 23-04-2020 01:12:17 11.9 C 20 %
2457 23-04-2020 01:22:18 11 C 20 %
2458 23-04-2020 01:32:17 12 C 20 %
2459 23-04-2020 01:42:17 10.9 C 20 %
2460 23-04-2020 01:52:17 10.5 C 22 %
2461 23-04-2020 02:02:17 9.7 C 25 %
2462 23-04-2020 02:12:17 9.7 C 26 %
2463 23-04-2020 02:22:18 9.7 C 25 %
2464 23-04-2020 02:32:17 9.8 C 26 %
2465 23-04-2020 02:42:17 9.6 C 25 %
2466 23-04-2020 02:52:17 9.3 C 26 %
2467 23-04-2020 03:02:18 9.2 C 26 %
2468 23-04-2020 03:12:18 9.2 C 26 %
2469 23-04-2020 03:22:17 9.4 C 26 %
2470 23-04-2020 03:32:17 9.4 C 26 %
2471 23-04-2020 03:42:17 9.3 C 26 %
2472 23-04-2020 03:52:17 9.1 C 26 %
2473 23-04-2020 04:02:17 8.6 C 27 %
2474 23-04-2020 04:12:17 8.1 C 29 %
2475 23-04-2020 04:22:17 7.5 C 30 %
Sensor: Nr:Datum:Temp:Feuchte:
Aussen-T/F 2476 23-04-2020 04:32:17 7.2 C 32 %
2477 23-04-2020 04:42:17 7.2 C 32 %
2478 23-04-2020 04:52:17 6.9 C 33 %
2479 23-04-2020 05:02:17 6.4 C 34 %
2480 23-04-2020 05:12:17 6.2 C 34 %
2481 23-04-2020 05:22:17 5.9 C 35 %
2482 23-04-2020 05:32:17 6 C 35 %
2483 23-04-2020 05:42:17 6 C 35 %
2484 23-04-2020 05:52:17 5.8 C 36 %
2485 23-04-2020 06:02:17 5.8 C 36 %
2486 23-04-2020 06:12:18 5.4 C 36 %
2487 23-04-2020 06:22:17 5.4 C 36 %
2488 23-04-2020 06:32:18 5.3 C 36 %
2489 23-04-2020 06:42:18 5.3 C 36 %
2490 23-04-2020 06:52:17 5.3 C 36 %
2491 23-04-2020 07:02:17 5.3 C 37 %
2492 23-04-2020 07:12:17 5.3 C 37 %
2493 23-04-2020 07:22:17 5.2 C 37 %
2494 23-04-2020 07:32:17 5.2 C 39 %
2495 23-04-2020 07:42:17 5.2 C 39 %
2496 23-04-2020 07:52:17 5.3 C 39 %
2497 23-04-2020 08:02:17 5.4 C 39 %
2498 23-04-2020 08:12:18 5.5 C 39 %
2499 23-04-2020 08:22:18 5.9 C 39 %
2500 23-04-2020 08:32:18 6.2 C 38 %
Sensor: Nr:Datum:Temp:Feuchte:
Aussen-T/F 2501 23-04-2020 08:42:18 6.5 C 38 %
2502 23-04-2020 08:52:17 6.9 C 38 %
2503 23-04-2020 09:02:17 7.7 C 36 %
2504 23-04-2020 09:12:17 8.1 C 36 %
2505 23-04-2020 09:22:17 8.6 C 35 %
2506 23-04-2020 09:32:17 9.2 C 35 %
2507 23-04-2020 09:42:17 9.7 C 34 %
2508 23-04-2020 09:52:17 9.9 C 34 %
2509 23-04-2020 10:02:18 10.5 C 33 %
2510 23-04-2020 10:12:18 11 C 32 %
2511 23-04-2020 10:22:17 11.8 C 30 %
2512 23-04-2020 10:32:17 12.7 C 28 %
2513 23-04-2020 10:42:17 13.2 C 27 %
2514 23-04-2020 10:52:17 14.8 C 22 %
2515 23-04-2020 11:02:18 16 C 20 %
2516 23-04-2020 11:12:18 16.3 C 20 %
2517 23-04-2020 11:22:17 17.2 C 20 %
2518 23-04-2020 11:32:17 17.4 C 20 %
2519 23-04-2020 11:42:17 17.7 C 20 %
2520 23-04-2020 11:52:18 17.9 C 20 %
2521 23-04-2020 12:02:17 18.9 C 20 %
2522 23-04-2020 12:12:17 18.2 C 20 %
2523 23-04-2020 12:22:17 18 C 20 %
2524 23-04-2020 12:32:18 18.5 C 20 %
2525 23-04-2020 12:42:18 18.3 C 20 %
Sensor: Nr:Datum:Temp:Feuchte:
Aussen-T/F 2526 23-04-2020 12:52:17 18.4 C 20 %
2527 23-04-2020 13:02:17 19.2 C 20 %
2528 23-04-2020 13:12:17 19.5 C 20 %
2529 23-04-2020 13:22:17 19.1 C 20 %
2530 23-04-2020 13:32:17 19.2 C 20 %
2531 23-04-2020 13:42:17 19.7 C 20 %
2532 23-04-2020 13:52:17 20.1 C 20 %
2533 23-04-2020 14:02:17 20.4 C 20 %
2534 23-04-2020 14:12:17 20.7 C 20 %
2535 23-04-2020 14:22:17 21.6 C 20 %
2536 23-04-2020 14:32:17 27.4 C 20 %
2537 23-04-2020 14:42:17 29.1 C 20 %
2538 23-04-2020 14:52:17 29 C 20 %
2539 23-04-2020 15:02:17 29.3 C 20 %
2540 23-04-2020 15:12:17 29.5 C 20 %
2541 23-04-2020 15:22:18 28.8 C 20 %
2542 23-04-2020 15:32:17 30.3 C 20 %
2543 23-04-2020 15:42:17 31.4 C 20 %
2544 23-04-2020 15:52:17 28.9 C 20 %
2545 23-04-2020 16:02:18 27.7 C 20 %
2546 23-04-2020 16:12:18 28.1 C 20 %
2547 23-04-2020 16:22:17 28.4 C 20 %
2548 23-04-2020 16:32:18 28.3 C 20 %
2549 23-04-2020 16:42:18 29 C 20 %
2550 23-04-2020 16:52:17 29.2 C 20 %
Sensor: Nr:Datum:Temp:Feuchte:
Aussen-T/F 2551 23-04-2020 17:02:17 31.6 C 20 %
2552 23-04-2020 17:12:18 28.2 C 20 %
2553 23-04-2020 17:22:17 28.6 C 20 %
2554 23-04-2020 17:32:18 28.1 C 20 %
2555 23-04-2020 17:42:18 28 C 20 %
2556 23-04-2020 17:52:18 30.1 C 20 %
2557 23-04-2020 18:02:17 27.1 C 20 %
2558 23-04-2020 18:12:17 24.5 C 20 %
2559 23-04-2020 18:22:17 23.9 C 20 %
2560 23-04-2020 18:32:17 23.6 C 20 %
2561 23-04-2020 18:42:17 23.7 C 20 %
2562 23-04-2020 18:52:17 23.2 C 20 %
2563 23-04-2020 19:02:17 22.5 C 20 %
2564 23-04-2020 19:12:17 22.4 C 20 %
2565 23-04-2020 19:22:17 22 C 20 %
2566 23-04-2020 19:32:18 21.2 C 20 %
2567 23-04-2020 19:42:18 20 C 20 %
2568 23-04-2020 19:52:17 18.6 C 20 %
2569 23-04-2020 20:02:18 18.6 C 20 %
2570 23-04-2020 20:12:18 17.9 C 20 %
2571 23-04-2020 20:22:17 17.2 C 20 %
2572 23-04-2020 20:32:18 16.5 C 20 %
2573 23-04-2020 20:42:18 15.5 C 20 %
2574 23-04-2020 20:52:18 14.3 C 20 %
2575 23-04-2020 21:02:18 14 C 20 %
Sensor: Nr:Datum:Temp:Feuchte:
Aussen-T/F 2576 23-04-2020 21:12:18 14.1 C 20 %
2577 23-04-2020 21:22:17 13.5 C 20 %
2578 23-04-2020 21:32:17 13.1 C 20 %
2579 23-04-2020 21:42:17 12.9 C 20 %
2580 23-04-2020 21:52:17 12.5 C 20 %
2581 23-04-2020 22:02:17 12 C 23 %
2582 23-04-2020 22:12:17 11.6 C 25 %
2583 23-04-2020 22:22:17 11.5 C 25 %
2584 23-04-2020 22:32:18 11 C 26 %
2585 23-04-2020 22:42:18 11.1 C 26 %
2586 23-04-2020 22:52:18 10.8 C 26 %
2587 23-04-2020 23:02:18 10.4 C 27 %
2588 23-04-2020 23:12:18 10.3 C 27 %
2589 23-04-2020 23:22:18 9.6 C 29 %
2590 23-04-2020 23:32:17 9.6 C 29 %
2591 23-04-2020 23:42:17 9.6 C 29 %
2592 23-04-2020 23:52:17 9.2 C 30 %
2593 24-04-2020 00:02:18 9.2 C 30 %
2594 24-04-2020 00:12:18 9.3 C 30 %
2595 24-04-2020 00:22:17 9.2 C 30 %
2596 24-04-2020 00:32:18 8.6 C 31 %
2597 24-04-2020 00:42:18 8.4 C 31 %
2598 24-04-2020 00:52:17 8.3 C 32 %
2599 24-04-2020 01:02:18 8.1 C 32 %
2600 24-04-2020 01:12:18 8.3 C 33 %
Sensor: Nr:Datum:Temp:Feuchte:
Aussen-T/F 2601 24-04-2020 01:22:17 8.1 C 32 %
2602 24-04-2020 01:32:18 8.1 C 33 %
2603 24-04-2020 01:42:18 8.2 C 33 %
2604 24-04-2020 01:52:17 7.8 C 33 %
2605 24-04-2020 02:02:17 7.5 C 34 %
2606 24-04-2020 02:12:17 7.1 C 34 %
2607 24-04-2020 02:22:17 7 C 35 %
2608 24-04-2020 02:32:18 7.2 C 35 %
2609 24-04-2020 02:42:18 6.8 C 36 %
2610 24-04-2020 02:52:18 7 C 35 %
2611 24-04-2020 03:02:17 7 C 35 %
2612 24-04-2020 03:12:18 6.8 C 36 %
2613 24-04-2020 03:22:17 6.2 C 36 %
2614 24-04-2020 03:32:17 6.4 C 37 %
2615 24-04-2020 03:42:17 6.3 C 37 %
2616 24-04-2020 03:52:17 6.2 C 37 %
2617 24-04-2020 04:02:17 6.2 C 37 %
2618 24-04-2020 04:12:17 6.1 C 37 %
2619 24-04-2020 04:22:17 6 C 37 %
2620 24-04-2020 04:32:17 5.9 C 38 %
2621 24-04-2020 04:42:17 6.2 C 38 %
2622 24-04-2020 04:52:17 6.3 C 38 %
2623 24-04-2020 05:02:17 6.2 C 38 %
2624 24-04-2020 05:12:17 6 C 38 %
2625 24-04-2020 05:22:17 5.9 C 39 %
Sensor: Nr:Datum:Temp:Feuchte:
Aussen-T/F 2626 24-04-2020 05:32:18 6.3 C 38 %
2627 24-04-2020 05:42:18 6.2 C 38 %
2628 24-04-2020 05:52:17 6.1 C 38 %
2629 24-04-2020 06:02:17 6.1 C 38 %
2630 24-04-2020 06:12:17 5.9 C 39 %
2631 24-04-2020 06:22:18 6 C 39 %
2632 24-04-2020 06:32:17 6 C 38 %
2633 24-04-2020 06:42:17 6 C 39 %
2634 24-04-2020 06:52:17 6.2 C 39 %
2635 24-04-2020 07:02:17 6.3 C 38 %
2636 24-04-2020 07:12:17 6.3 C 39 %
2637 24-04-2020 07:22:17 6.3 C 39 %
2638 24-04-2020 07:32:18 6.3 C 39 %
2639 24-04-2020 07:42:18 6.5 C 39 %
2640 24-04-2020 07:52:17 6.7 C 39 %
2641 24-04-2020 08:02:18 6.8 C 39 %
2642 24-04-2020 08:12:18 7.3 C 38 %
2643 24-04-2020 08:22:17 8.2 C 36 %
2644 24-04-2020 08:32:17 9 C 35 %
2645 24-04-2020 08:42:17 9.6 C 35 %
2646 24-04-2020 08:52:17 9.9 C 34 %
2647 24-04-2020 09:02:17 10.4 C 33 %
2648 24-04-2020 09:12:18 11 C 32 %
2649 24-04-2020 09:22:17 11.5 C 31 %
2650 24-04-2020 09:32:18 11.9 C 31 %
Sensor: Nr:Datum:Temp:Feuchte:
Aussen-T/F 2651 24-04-2020 09:42:18 12.5 C 30 %
2652 24-04-2020 09:52:17 12.4 C 30 %
2653 24-04-2020 10:02:17 12.8 C 30 %
2654 24-04-2020 10:12:17 13.1 C 29 %
2655 24-04-2020 10:22:17 14 C 28 %
2656 24-04-2020 10:32:17 14.2 C 28 %
2657 24-04-2020 10:42:17 14.6 C 27 %
2658 24-04-2020 10:52:17 15 C 26 %
2659 24-04-2020 11:02:17 15.6 C 26 %
2660 24-04-2020 11:12:18 15.6 C 26 %
2661 24-04-2020 11:22:17 16.5 C 25 %
2662 24-04-2020 11:32:18 16.6 C 24 %
2663 24-04-2020 11:42:18 17 C 24 %
2664 24-04-2020 11:52:17 17 C 23 %
2665 24-04-2020 12:02:17 17.9 C 23 %
2666 24-04-2020 12:12:17 18.1 C 21 %
2667 24-04-2020 12:22:17 18.2 C 21 %
2668 24-04-2020 12:32:18 18.4 C 21 %
2669 24-04-2020 12:42:18 18.9 C 20 %
2670 24-04-2020 12:52:18 19.3 C 20 %
2671 24-04-2020 13:02:17 19.6 C 20 %
2672 24-04-2020 13:12:17 20.2 C 20 %
2673 24-04-2020 13:22:17 20.5 C 20 %
2674 24-04-2020 13:32:18 20.7 C 20 %
2675 24-04-2020 13:42:18 21 C 20 %
Sensor: Nr:Datum:Temp:Feuchte:
Aussen-T/F 2676 24-04-2020 13:52:17 21.3 C 20 %
2677 24-04-2020 14:02:17 21.8 C 20 %
2678 24-04-2020 14:12:17 22.2 C 20 %
2679 24-04-2020 14:22:17 23.5 C 20 %
2680 24-04-2020 14:32:17 26.8 C 20 %
2681 24-04-2020 14:42:17 28.5 C 20 %
2682 24-04-2020 14:52:17 27.1 C 20 %
2683 24-04-2020 15:02:18 28 C 20 %
2684 24-04-2020 15:12:18 31 C 20 %
2685 24-04-2020 15:22:17 27.6 C 20 %
2686 24-04-2020 15:32:17 28.1 C 20 %
2687 24-04-2020 15:42:18 27.5 C 20 %
2688 24-04-2020 15:52:17 28.8 C 20 %
2689 24-04-2020 16:02:18 28.7 C 20 %
2690 24-04-2020 16:12:18 28.7 C 20 %
2691 24-04-2020 16:22:18 27.2 C 20 %
2692 24-04-2020 16:32:18 26.8 C 20 %
2693 24-04-2020 16:42:18 28 C 20 %
2694 24-04-2020 16:52:17 26.3 C 20 %
2695 24-04-2020 17:02:17 26 C 20 %
2696 24-04-2020 17:12:17 26.7 C 20 %
2697 24-04-2020 17:22:18 26.4 C 20 %
2698 24-04-2020 17:32:18 26.3 C 20 %
2699 24-04-2020 17:42:18 24.2 C 20 %
2700 24-04-2020 17:52:17 26 C 20 %
Sensor: Nr:Datum:Temp:Feuchte:
Aussen-T/F 2701 24-04-2020 18:02:18 24.1 C 20 %
2702 24-04-2020 18:12:18 22.3 C 20 %
2703 24-04-2020 18:22:17 22.2 C 20 %
2704 24-04-2020 18:32:17 22 C 20 %
2705 24-04-2020 18:42:17 20.9 C 20 %
2706 24-04-2020 18:52:18 21 C 20 %
2707 24-04-2020 19:02:17 20.5 C 20 %
2708 24-04-2020 19:12:17 20.3 C 20 %
2709 24-04-2020 19:23:17 20 C 20 %
2710 24-04-2020 19:32:17 19.9 C 20 %
2711 24-04-2020 19:42:18 19.6 C 20 %
2712 24-04-2020 19:53:17 19.2 C 20 %
2713 24-04-2020 20:02:18 19 C 20 %
2714 24-04-2020 20:12:18 18.5 C 20 %
2715 24-04-2020 20:22:17 17.7 C 20 %
2716 24-04-2020 20:32:18 17.3 C 20 %
2717 24-04-2020 20:42:18 16.8 C 20 %
2718 24-04-2020 20:52:18 16.1 C 20 %
2719 24-04-2020 21:02:18 15.9 C 20 %
2720 24-04-2020 21:12:18 15.5 C 20 %
2721 24-04-2020 21:23:17 15.4 C 20 %
2722 24-04-2020 21:33:17 15 C 20 %
2723 24-04-2020 21:42:17 15.1 C 20 %
2724 24-04-2020 21:52:17 14.7 C 20 %
2725 24-04-2020 22:03:17 14.4 C 20 %
Sensor: Nr:Datum:Temp:Feuchte:
Aussen-T/F 2726 24-04-2020 22:13:17 14.1 C 20 %
2727 24-04-2020 22:22:18 14.2 C 20 %
2728 24-04-2020 22:32:18 14.4 C 20 %
2729 24-04-2020 22:42:18 13.9 C 20 %
2730 24-04-2020 22:52:18 13.3 C 20 %
2731 24-04-2020 23:02:18 13.2 C 20 %
2732 24-04-2020 23:12:18 13.2 C 20 %
2733 24-04-2020 23:22:17 12.7 C 20 %
2734 24-04-2020 23:33:17 12.5 C 20 %
2735 24-04-2020 23:43:17 13 C 20 %
2736 24-04-2020 23:53:17 12.4 C 20 %
2737 25-04-2020 00:02:18 12.6 C 20 %
2738 25-04-2020 00:12:18 12.7 C 20 %
2739 25-04-2020 00:23:17 12.6 C 20 %
2740 25-04-2020 00:32:18 12.3 C 20 %
2741 25-04-2020 00:42:18 11.8 C 20 %
2742 25-04-2020 00:52:18 11.7 C 20 %
2743 25-04-2020 01:03:17 11.7 C 20 %
2744 25-04-2020 01:12:17 11.7 C 20 %
2745 25-04-2020 01:23:17 11.3 C 22 %
2746 25-04-2020 01:33:17 11 C 25 %
2747 25-04-2020 01:43:17 11.1 C 25 %
2748 25-04-2020 01:52:17 11.1 C 25 %
2749 25-04-2020 02:02:18 10.4 C 26 %
2750 25-04-2020 02:12:18 10.3 C 26 %
Sensor: Nr:Datum:Temp:Feuchte:
Aussen-T/F 2751 25-04-2020 02:23:17 9.7 C 29 %
2752 25-04-2020 02:33:17 9.5 C 29 %
2753 25-04-2020 02:43:17 9.4 C 30 %
2754 25-04-2020 02:53:17 9.8 C 29 %
2755 25-04-2020 03:03:17 10.1 C 28 %
2756 25-04-2020 03:13:17 10 C 28 %
2757 25-04-2020 03:22:18 10 C 28 %
2758 25-04-2020 03:33:17 9.7 C 30 %
2759 25-04-2020 03:43:17 9 C 30 %
2760 25-04-2020 03:53:17 9 C 30 %
2761 25-04-2020 04:02:18 9.3 C 30 %
2762 25-04-2020 04:12:18 8.9 C 30 %
2763 25-04-2020 04:23:17 8.9 C 30 %
2764 25-04-2020 04:33:18 8.7 C 31 %
2765 25-04-2020 04:42:18 8.2 C 32 %
2766 25-04-2020 04:53:17 8.3 C 33 %
2767 25-04-2020 05:03:17 8.1 C 33 %
2768 25-04-2020 05:13:18 7.5 C 35 %
2769 25-04-2020 05:23:18 7 C 36 %
2770 25-04-2020 05:32:18 7.1 C 37 %
2771 25-04-2020 05:42:18 7.2 C 38 %
2772 25-04-2020 05:53:18 7.6 C 38 %
2773 25-04-2020 06:02:18 8 C 36 %
2774 25-04-2020 06:12:18 8.2 C 36 %
2775 25-04-2020 06:23:17 8.3 C 36 %
Sensor: Nr:Datum:Temp:Feuchte:
Aussen-T/F 2776 25-04-2020 06:33:17 8.3 C 36 %
2777 25-04-2020 06:43:18 8.4 C 35 %
2778 25-04-2020 06:53:17 8.3 C 35 %
2779 25-04-2020 07:03:18 8.3 C 35 %
2780 25-04-2020 07:12:18 8.4 C 35 %
2781 25-04-2020 07:23:17 8.3 C 35 %
2782 25-04-2020 07:32:18 8.4 C 35 %
2783 25-04-2020 07:42:18 8.4 C 35 %
2784 25-04-2020 07:52:18 8.4 C 35 %
2785 25-04-2020 08:03:17 8.4 C 34 %
2786 25-04-2020 08:13:17 8.7 C 34 %
2787 25-04-2020 08:23:17 8.6 C 34 %
2788 25-04-2020 08:33:17 8.7 C 34 %
2789 25-04-2020 08:43:17 8.8 C 34 %
2790 25-04-2020 08:53:17 8.8 C 32 %
2791 25-04-2020 09:03:17 9.3 C 32 %
2792 25-04-2020 09:13:17 9.6 C 31 %
2793 25-04-2020 09:23:17 9.7 C 31 %
2794 25-04-2020 09:33:17 9.8 C 31 %
2795 25-04-2020 09:43:17 10.2 C 30 %
2796 25-04-2020 09:53:17 10.4 C 30 %
2797 25-04-2020 10:03:17 10.8 C 30 %
2798 25-04-2020 10:13:17 10.5 C 28 %
2799 25-04-2020 10:23:17 11 C 28 %
2800 25-04-2020 10:32:18 11.1 C 27 %
Sensor: Nr:Datum:Temp:Feuchte:
Aussen-T/F 2801 25-04-2020 10:42:18 10.5 C 27 %
2802 25-04-2020 10:53:17 11.5 C 26 %
2803 25-04-2020 11:03:17 12.4 C 25 %
2804 25-04-2020 11:13:18 12 C 24 %
2805 25-04-2020 11:23:17 10.9 C 25 %
2806 25-04-2020 11:32:18 11.6 C 25 %
2807 25-04-2020 11:42:18 11.2 C 25 %
2808 25-04-2020 11:53:17 11.8 C 25 %
2809 25-04-2020 12:03:18 11.2 C 25 %
2810 25-04-2020 12:13:18 11.5 C 25 %
2811 25-04-2020 12:23:18 11.7 C 25 %
2812 25-04-2020 12:33:17 11.7 C 25 %
2813 25-04-2020 12:43:18 11.4 C 25 %
2814 25-04-2020 12:53:17 12.3 C 24 %
2815 25-04-2020 13:03:17 12.4 C 22 %
2816 25-04-2020 13:13:17 12.5 C 23 %
2817 25-04-2020 13:23:17 13.2 C 21 %
2818 25-04-2020 13:33:17 13.1 C 21 %
2819 25-04-2020 13:43:17 13.2 C 21 %
2820 25-04-2020 13:53:17 13.7 C 20 %
2821 25-04-2020 14:03:17 13.8 C 20 %
2822 25-04-2020 14:13:17 14.1 C 20 %
2823 25-04-2020 14:23:17 15.8 C 20 %
2824 25-04-2020 14:33:17 21 C 20 %
2825 25-04-2020 14:43:17 22.5 C 20 %
Sensor: Nr:Datum:Temp:Feuchte:
Aussen-T/F 2826 25-04-2020 14:53:17 20.7 C 20 %
2827 25-04-2020 15:03:17 23.8 C 20 %
2828 25-04-2020 15:13:17 23.8 C 20 %
2829 25-04-2020 15:23:17 23.7 C 20 %
2830 25-04-2020 15:33:18 25.7 C 20 %
2831 25-04-2020 15:43:18 25.7 C 20 %
2832 25-04-2020 15:53:18 26.3 C 20 %
2833 25-04-2020 16:03:17 23.2 C 20 %
2834 25-04-2020 16:13:17 24.8 C 20 %
2835 25-04-2020 16:23:17 23.9 C 20 %
2836 25-04-2020 16:33:17 25.3 C 20 %
2837 25-04-2020 16:43:17 22.5 C 20 %
2838 25-04-2020 16:53:17 23.9 C 20 %
2839 25-04-2020 17:03:17 25.1 C 20 %
2840 25-04-2020 17:13:17 25.9 C 20 %
2841 25-04-2020 17:23:17 26.4 C 20 %
2842 25-04-2020 17:33:18 27.1 C 20 %
2843 25-04-2020 17:43:18 22.5 C 20 %
2844 25-04-2020 17:53:17 23.3 C 20 %
2845 25-04-2020 18:03:17 20.1 C 20 %
2846 25-04-2020 18:13:17 18.5 C 20 %
2847 25-04-2020 18:23:17 18.6 C 20 %
2848 25-04-2020 18:33:17 18.3 C 20 %
2849 25-04-2020 18:43:17 17.9 C 20 %
2850 25-04-2020 18:53:17 17.7 C 20 %
Sensor: Nr:Datum:Temp:Feuchte:
Aussen-T/F 2851 25-04-2020 19:03:17 17.5 C 20 %
2852 25-04-2020 19:13:17 17.1 C 20 %
2853 25-04-2020 19:23:17 16.9 C 20 %
2854 25-04-2020 19:33:17 16.4 C 20 %
2855 25-04-2020 19:43:18 16.2 C 20 %
2856 25-04-2020 19:53:17 15.7 C 20 %
2857 25-04-2020 20:03:18 15.4 C 20 %
2858 25-04-2020 20:13:18 14.7 C 20 %
2859 25-04-2020 20:23:17 13.9 C 20 %
2860 25-04-2020 20:33:17 13.8 C 20 %
2861 25-04-2020 20:43:17 12.7 C 20 %
2862 25-04-2020 20:53:17 12.4 C 20 %
2863 25-04-2020 21:03:18 12.1 C 20 %
2864 25-04-2020 21:13:18 12 C 20 %
2865 25-04-2020 21:23:17 11.4 C 21 %
2866 25-04-2020 21:33:17 11.1 C 22 %
2867 25-04-2020 21:43:18 11.2 C 21 %
2868 25-04-2020 21:53:17 11 C 22 %
2869 25-04-2020 22:03:17 11 C 22 %
2870 25-04-2020 22:13:17 10.9 C 23 %
2871 25-04-2020 22:23:17 10.1 C 25 %
2872 25-04-2020 22:33:17 10.1 C 25 %
2873 25-04-2020 22:43:17 9.9 C 26 %
2874 25-04-2020 22:53:18 9.8 C 27 %
2875 25-04-2020 23:03:17 9.6 C 27 %
Sensor: Nr:Datum:Temp:Feuchte:
Aussen-T/F 2876 25-04-2020 23:13:17 9.5 C 27 %
2877 25-04-2020 23:23:17 9.1 C 28 %
2878 25-04-2020 23:33:18 8.7 C 30 %
2879 25-04-2020 23:43:18 8.2 C 31 %
2880 25-04-2020 23:53:17 7.7 C 32 %
2881 26-04-2020 00:03:18 7.1 C 33 %
2882 26-04-2020 00:13:18 6.8 C 35 %
2883 26-04-2020 00:23:17 6.6 C 35 %
2884 26-04-2020 00:33:18 6.3 C 35 %
2885 26-04-2020 00:43:18 6.2 C 36 %
2886 26-04-2020 00:53:17 5.9 C 37 %
2887 26-04-2020 01:03:17 5.8 C 37 %
2888 26-04-2020 01:13:18 5.5 C 38 %
2889 26-04-2020 01:23:17 5.6 C 38 %
2890 26-04-2020 01:33:17 5.2 C 38 %
2891 26-04-2020 01:43:17 5.1 C 38 %
2892 26-04-2020 01:53:17 5.1 C 39 %
2893 26-04-2020 02:03:17 4.7 C 40 %
2894 26-04-2020 02:13:17 4.7 C 40 %
2895 26-04-2020 02:23:17 4.6 C 40 %
2896 26-04-2020 02:33:17 4.5 C 40 %
2897 26-04-2020 02:43:17 4.8 C 41 %
2898 26-04-2020 02:53:18 4.7 C 41 %
2899 26-04-2020 03:03:17 4.4 C 41 %
2900 26-04-2020 03:13:18 4.3 C 41 %
Sensor: Nr:Datum:Temp:Feuchte:
Aussen-T/F 2901 26-04-2020 03:23:17 4.1 C 41 %
2902 26-04-2020 03:33:18 4 C 41 %
2903 26-04-2020 03:43:18 3.8 C 42 %
2904 26-04-2020 03:53:17 3.6 C 43 %
2905 26-04-2020 04:03:18 3.9 C 44 %
2906 26-04-2020 04:13:18 3.6 C 43 %
2907 26-04-2020 04:23:17 3.4 C 43 %
2908 26-04-2020 04:33:17 3.2 C 43 %
2909 26-04-2020 04:43:17 3.3 C 44 %
2910 26-04-2020 04:53:17 3.1 C 44 %
2911 26-04-2020 05:03:18 3.1 C 45 %
2912 26-04-2020 05:13:18 3 C 44 %
2913 26-04-2020 05:23:17 2.7 C 45 %
2914 26-04-2020 05:33:17 2.6 C 45 %
2915 26-04-2020 05:43:17 2.7 C 46 %
2916 26-04-2020 05:53:17 2.5 C 46 %
2917 26-04-2020 06:03:17 2.3 C 46 %
2918 26-04-2020 06:13:17 2.4 C 46 %
2919 26-04-2020 06:23:17 2.4 C 46 %
2920 26-04-2020 06:33:17 2.4 C 46 %
2921 26-04-2020 06:43:18 2.3 C 46 %
2922 26-04-2020 06:53:17 2.3 C 46 %
2923 26-04-2020 07:03:17 2.3 C 46 %
2924 26-04-2020 07:13:17 2.6 C 47 %
2925 26-04-2020 07:23:17 2.7 C 47 %
Sensor: Nr:Datum:Temp:Feuchte:
Aussen-T/F 2926 26-04-2020 07:33:17 2.8 C 46 %
2927 26-04-2020 07:43:17 2.8 C 46 %
2928 26-04-2020 07:53:17 2.9 C 47 %
2929 26-04-2020 08:03:17 3.2 C 46 %
2930 26-04-2020 08:13:17 3.4 C 46 %
2931 26-04-2020 08:23:17 3.6 C 46 %
2932 26-04-2020 08:33:17 4 C 45 %
2933 26-04-2020 08:43:17 4.3 C 45 %
2934 26-04-2020 08:53:17 4.5 C 45 %
2935 26-04-2020 09:03:17 4.9 C 45 %
2936 26-04-2020 09:13:17 5.2 C 43 %
2937 26-04-2020 09:23:17 5.8 C 44 %
2938 26-04-2020 09:33:17 6.4 C 42 %
2939 26-04-2020 09:43:17 6.8 C 41 %
2940 26-04-2020 09:53:17 7.4 C 40 %
2941 26-04-2020 10:03:18 7.8 C 39 %
2942 26-04-2020 10:13:18 8.5 C 38 %
2943 26-04-2020 10:23:17 9 C 37 %
2944 26-04-2020 10:33:18 9.6 C 36 %
2945 26-04-2020 10:43:18 10.4 C 35 %
2946 26-04-2020 10:53:17 11.3 C 32 %
2947 26-04-2020 11:03:17 12.2 C 31 %
2948 26-04-2020 11:13:17 12.8 C 29 %
2949 26-04-2020 11:23:17 13.6 C 27 %
2950 26-04-2020 11:33:17 14.1 C 26 %
Sensor: Nr:Datum:Temp:Feuchte:
Aussen-T/F 2951 26-04-2020 11:43:17 14.7 C 25 %
2952 26-04-2020 11:53:17 15.2 C 22 %
2953 26-04-2020 12:03:17 15.2 C 21 %
2954 26-04-2020 12:13:17 15.1 C 20 %
2955 26-04-2020 12:23:18 15.4 C 20 %
2956 26-04-2020 12:33:17 15.9 C 20 %
2957 26-04-2020 12:43:18 15.9 C 20 %
2958 26-04-2020 12:53:17 16.2 C 20 %
2959 26-04-2020 13:03:17 16.5 C 20 %
2960 26-04-2020 13:13:17 16.8 C 20 %
2961 26-04-2020 13:23:18 16.6 C 20 %
2962 26-04-2020 13:33:17 16.8 C 20 %
2963 26-04-2020 13:43:17 17.1 C 20 %
2964 26-04-2020 13:53:17 17.1 C 20 %
2965 26-04-2020 14:03:17 17.4 C 20 %
2966 26-04-2020 14:13:17 18.1 C 20 %
2967 26-04-2020 14:23:17 19.3 C 20 %
2968 26-04-2020 14:33:18 25 C 20 %
2969 26-04-2020 14:43:18 24.8 C 20 %
2970 26-04-2020 14:53:17 26.7 C 20 %
2971 26-04-2020 15:03:18 26.6 C 20 %
2972 26-04-2020 15:13:18 28.3 C 20 %
2973 26-04-2020 15:23:17 29.7 C 20 %
2974 26-04-2020 15:33:17 29.5 C 20 %
2975 26-04-2020 15:43:17 28 C 20 %
Sensor: Nr:Datum:Temp:Feuchte:
Aussen-T/F 2976 26-04-2020 15:53:18 29 C 20 %
2977 26-04-2020 16:03:18 30.5 C 20 %
2978 26-04-2020 16:13:18 27.6 C 20 %
2979 26-04-2020 16:23:17 28.4 C 20 %
2980 26-04-2020 16:33:17 26.5 C 20 %
2981 26-04-2020 16:43:17 30.3 C 20 %
2982 26-04-2020 16:53:17 28.1 C 20 %
2983 26-04-2020 17:03:18 29 C 20 %
2984 26-04-2020 17:13:18 28.3 C 20 %
2985 26-04-2020 17:23:18 27.4 C 20 %
2986 26-04-2020 17:33:18 27.2 C 20 %
2987 26-04-2020 17:43:18 28 C 20 %
2988 26-04-2020 17:53:17 26.5 C 20 %
2989 26-04-2020 18:03:17 25.8 C 20 %
2990 26-04-2020 18:13:17 23.1 C 20 %
2991 26-04-2020 18:23:17 22 C 20 %
2992 26-04-2020 18:33:17 21.9 C 20 %
2993 26-04-2020 18:43:17 21.1 C 20 %
2994 26-04-2020 18:53:17 21.1 C 20 %
2995 26-04-2020 19:03:17 20.9 C 20 %
2996 26-04-2020 19:13:17 20.2 C 20 %
2997 26-04-2020 19:23:17 19.7 C 20 %
2998 26-04-2020 19:33:17 19.5 C 20 %
2999 26-04-2020 19:43:18 19.1 C 20 %
3000 26-04-2020 19:53:17 18.2 C 20 %
Sensor: Nr:Datum:Temp:Feuchte:
Aussen-T/F 3001 26-04-2020 20:03:18 17.3 C 20 %
3002 26-04-2020 20:13:18 16.6 C 20 %
3003 26-04-2020 20:23:17 15.8 C 20 %
3004 26-04-2020 20:33:17 14.7 C 20 %
3005 26-04-2020 20:43:17 14.3 C 20 %
3006 26-04-2020 20:53:18 14 C 20 %
3007 26-04-2020 21:03:18 13.7 C 20 %
3008 26-04-2020 21:13:18 13.1 C 20 %
3009 26-04-2020 21:23:17 12.6 C 20 %
3010 26-04-2020 21:33:18 12.4 C 20 %
3011 26-04-2020 21:43:18 12.1 C 20 %
3012 26-04-2020 21:53:17 11.6 C 23 %
3013 26-04-2020 22:03:17 11.3 C 25 %
3014 26-04-2020 22:13:17 10.9 C 26 %
3015 26-04-2020 22:23:18 10.7 C 26 %
3016 26-04-2020 22:33:17 10.5 C 26 %
3017 26-04-2020 22:43:17 9.9 C 28 %
3018 26-04-2020 22:53:17 9.6 C 29 %
3019 26-04-2020 23:03:17 9.2 C 29 %
3020 26-04-2020 23:13:17 9 C 30 %
3021 26-04-2020 23:23:17 8.9 C 30 %
3022 26-04-2020 23:33:18 8.8 C 30 %
3023 26-04-2020 23:43:18 8.7 C 30 %
3024 26-04-2020 23:53:17 8.5 C 30 %
3025 27-04-2020 00:03:18 8.3 C 30 %
Sensor: Nr:Datum:Temp:Feuchte:
Aussen-T/F 3026 27-04-2020 00:13:18 8 C 31 %
3027 27-04-2020 00:23:18 7.9 C 32 %
3028 27-04-2020 00:33:17 7.6 C 32 %
3029 27-04-2020 00:43:17 7.4 C 33 %
3030 27-04-2020 00:53:17 7.2 C 33 %
3031 27-04-2020 01:03:18 7.1 C 33 %
3032 27-04-2020 01:13:18 6.8 C 35 %
3033 27-04-2020 01:23:18 6.9 C 35 %
3034 27-04-2020 01:33:17 6.9 C 35 %
3035 27-04-2020 01:43:17 6.8 C 35 %
3036 27-04-2020 01:53:17 6.4 C 35 %
3037 27-04-2020 02:03:17 6.2 C 36 %
3038 27-04-2020 02:13:17 6 C 36 %
3039 27-04-2020 02:23:17 5.9 C 37 %
3040 27-04-2020 02:33:17 5.7 C 37 %
3041 27-04-2020 02:43:17 6 C 37 %
3042 27-04-2020 02:53:17 6 C 37 %
3043 27-04-2020 03:03:18 5.7 C 38 %
3044 27-04-2020 03:13:18 5.6 C 38 %
3045 27-04-2020 03:23:18 5.6 C 38 %
3046 27-04-2020 03:33:17 5.6 C 38 %
3047 27-04-2020 03:43:17 5.6 C 39 %
3048 27-04-2020 03:53:17 5.7 C 39 %
3049 27-04-2020 04:03:18 5 C 38 %
3050 27-04-2020 04:13:18 4.8 C 40 %
Sensor: Nr:Datum:Temp:Feuchte:
Aussen-T/F 3051 27-04-2020 04:23:17 4.4 C 40 %
3052 27-04-2020 04:33:18 4.3 C 41 %
3053 27-04-2020 04:43:18 4 C 41 %
3054 27-04-2020 04:53:17 4.1 C 42 %
3055 27-04-2020 05:03:17 4 C 42 %
3056 27-04-2020 05:13:17 4.2 C 42 %
3057 27-04-2020 05:23:17 3.7 C 43 %
3058 27-04-2020 05:33:17 3.7 C 43 %
3059 27-04-2020 05:43:17 3.4 C 43 %
3060 27-04-2020 05:53:17 3.7 C 44 %
3061 27-04-2020 06:03:18 3.5 C 44 %
3062 27-04-2020 06:13:18 3.4 C 44 %
3063 27-04-2020 06:23:17 3.6 C 45 %
3064 27-04-2020 06:33:17 3.8 C 45 %
3065 27-04-2020 06:43:17 3.8 C 44 %
3066 27-04-2020 06:53:17 3.8 C 44 %
3067 27-04-2020 07:03:17 3.8 C 44 %
3068 27-04-2020 07:13:17 3.9 C 45 %
3069 27-04-2020 07:23:17 3.9 C 45 %
3070 27-04-2020 07:33:17 4.2 C 44 %
3071 27-04-2020 07:43:17 4.5 C 43 %
3072 27-04-2020 07:53:17 4.6 C 43 %
3073 27-04-2020 08:03:17 4.9 C 42 %
3074 27-04-2020 08:13:17 4.8 C 42 %
3075 27-04-2020 08:23:17 5.1 C 42 %
Sensor: Nr:Datum:Temp:Feuchte:
Aussen-T/F 3076 27-04-2020 08:33:17 5.5 C 41 %
3077 27-04-2020 08:43:17 5.7 C 41 %
3078 27-04-2020 08:53:17 6 C 41 %
3079 27-04-2020 09:03:18 6.4 C 40 %
3080 27-04-2020 09:13:18 6.6 C 40 %
3081 27-04-2020 09:23:17 7 C 40 %
3082 27-04-2020 09:33:17 7.6 C 39 %
3083 27-04-2020 09:43:17 8.3 C 37 %
3084 27-04-2020 09:53:17 8.5 C 38 %
3085 27-04-2020 10:03:17 9.1 C 37 %
3086 27-04-2020 10:13:17 9.9 C 37 %
3087 27-04-2020 10:23:17 10.7 C 35 %
3088 27-04-2020 10:33:17 11.7 C 34 %
3089 27-04-2020 10:43:17 12.3 C 32 %
3090 27-04-2020 10:53:17 13.5 C 30 %
3091 27-04-2020 11:03:17 15.5 C 25 %
3092 27-04-2020 11:13:17 16.6 C 22 %
3093 27-04-2020 11:23:17 16.8 C 20 %
3094 27-04-2020 11:33:17 17.2 C 20 %
3095 27-04-2020 11:43:17 17.5 C 20 %
3096 27-04-2020 11:53:17 17.7 C 20 %
3097 27-04-2020 12:03:17 18.1 C 20 %
3098 27-04-2020 12:13:17 18.4 C 20 %
3099 27-04-2020 12:23:17 18.3 C 20 %
3100 27-04-2020 12:33:17 18.7 C 20 %
Sensor: Nr:Datum:Temp:Feuchte:
Aussen-T/F 3101 27-04-2020 12:43:17 19 C 20 %
3102 27-04-2020 12:53:18 19.1 C 20 %
3103 27-04-2020 13:03:17 19.7 C 20 %
3104 27-04-2020 13:13:17 19.5 C 20 %
3105 27-04-2020 13:23:17 19.6 C 20 %
3106 27-04-2020 13:33:17 20.1 C 20 %
3107 27-04-2020 13:43:17 20.2 C 20 %
3108 27-04-2020 13:53:17 20.4 C 20 %
3109 27-04-2020 14:03:18 21 C 20 %
3110 27-04-2020 14:13:18 21.4 C 20 %
3111 27-04-2020 14:23:17 25.1 C 20 %
3112 27-04-2020 14:33:18 25.5 C 20 %
3113 27-04-2020 14:43:18 28.2 C 20 %
3114 27-04-2020 14:53:17 28.9 C 20 %
3115 27-04-2020 15:03:17 30.1 C 20 %
3116 27-04-2020 15:13:17 27.6 C 20 %
3117 27-04-2020 15:23:17 26.7 C 20 %
3118 27-04-2020 15:33:17 27.5 C 20 %
3119 27-04-2020 15:43:17 27.6 C 20 %
3120 27-04-2020 15:53:17 27.9 C 20 %
3121 27-04-2020 16:03:17 26.8 C 20 %
3122 27-04-2020 16:13:17 23.7 C 20 %
3123 27-04-2020 16:23:17 23.4 C 20 %
3124 27-04-2020 16:33:17 24.1 C 20 %
3125 27-04-2020 16:43:17 23.7 C 20 %
Sensor: Nr:Datum:Temp:Feuchte:
Aussen-T/F 3126 27-04-2020 16:53:17 22.7 C 20 %
3127 27-04-2020 17:03:18 22.1 C 20 %
3128 27-04-2020 17:13:18 22.1 C 20 %
3129 27-04-2020 17:23:17 21.6 C 20 %
3130 27-04-2020 17:33:17 21.7 C 20 %
3131 27-04-2020 17:43:17 21.6 C 20 %
3132 27-04-2020 17:53:17 22.2 C 20 %
3133 27-04-2020 18:03:17 21.5 C 20 %
3134 27-04-2020 18:13:17 21.8 C 20 %
3135 27-04-2020 18:23:17 24 C 20 %
3136 27-04-2020 18:33:18 23.1 C 20 %
3137 27-04-2020 18:43:18 22.4 C 20 %
3138 27-04-2020 18:53:17 22.1 C 20 %
3139 27-04-2020 19:03:17 20.9 C 20 %
3140 27-04-2020 19:13:17 19.4 C 20 %
3141 27-04-2020 19:23:18 19.2 C 20 %
3142 27-04-2020 19:33:17 18.3 C 20 %
3143 27-04-2020 19:43:18 18.2 C 20 %
3144 27-04-2020 19:53:17 17.4 C 20 %
3145 27-04-2020 20:03:17 17.1 C 20 %
3146 27-04-2020 20:13:17 16.8 C 20 %
3147 27-04-2020 20:23:17 16.2 C 20 %
3148 27-04-2020 20:33:17 15.4 C 21 %
3149 27-04-2020 20:43:17 15.1 C 21 %
3150 27-04-2020 20:53:18 15.2 C 21 %
Sensor: Nr:Datum:Temp:Feuchte:
Aussen-T/F 3151 27-04-2020 21:03:17 15 C 21 %
3152 27-04-2020 21:13:17 15 C 22 %
3153 27-04-2020 21:23:17 14.6 C 25 %
3154 27-04-2020 21:33:18 14.2 C 25 %
3155 27-04-2020 21:43:18 13.6 C 26 %
3156 27-04-2020 21:53:17 13.2 C 27 %
3157 27-04-2020 22:03:18 13.3 C 27 %
3158 27-04-2020 22:13:18 13.3 C 27 %
3159 27-04-2020 22:23:17 13 C 28 %
3160 27-04-2020 22:33:17 12.3 C 30 %
3161 27-04-2020 22:43:17 12.1 C 30 %
3162 27-04-2020 22:53:18 12 C 30 %
3163 27-04-2020 23:03:17 12 C 30 %
3164 27-04-2020 23:13:17 12 C 30 %
3165 27-04-2020 23:23:17 11.8 C 31 %
3166 27-04-2020 23:33:17 11.4 C 32 %
3167 27-04-2020 23:43:17 11 C 32 %
3168 27-04-2020 23:53:18 10.6 C 34 %
3169 28-04-2020 00:03:17 10.5 C 35 %
3170 28-04-2020 00:13:17 10 C 35 %
3171 28-04-2020 00:23:17 10 C 35 %
3172 28-04-2020 00:33:18 9.8 C 36 %
3173 28-04-2020 00:43:18 9.8 C 36 %
3174 28-04-2020 00:53:17 9.7 C 36 %
3175 28-04-2020 01:03:18 9.5 C 36 %
Sensor: Nr:Datum:Temp:Feuchte:
Aussen-T/F 3176 28-04-2020 01:13:18 9.3 C 37 %
3177 28-04-2020 01:23:17 9.1 C 37 %
3178 28-04-2020 01:33:17 9.1 C 37 %
3179 28-04-2020 01:43:18 9.2 C 37 %
3180 28-04-2020 01:53:17 8.8 C 38 %
3181 28-04-2020 02:03:18 8.7 C 39 %
3182 28-04-2020 02:13:18 8.8 C 39 %
3183 28-04-2020 02:23:17 8.4 C 39 %
3184 28-04-2020 02:33:18 8.2 C 39 %
3185 28-04-2020 02:43:18 8.3 C 40 %
3186 28-04-2020 02:53:18 8.6 C 40 %
3187 28-04-2020 03:03:17 8.7 C 40 %
3188 28-04-2020 03:13:17 8.4 C 40 %
3189 28-04-2020 03:23:17 8.3 C 40 %
3190 28-04-2020 03:33:18 8.3 C 40 %
3191 28-04-2020 03:43:18 7.8 C 40 %
3192 28-04-2020 03:53:18 7.7 C 41 %
3193 28-04-2020 04:03:18 7.9 C 41 %
3194 28-04-2020 04:13:18 7.4 C 41 %
3195 28-04-2020 04:23:18 7.3 C 41 %
3196 28-04-2020 04:33:18 7.3 C 42 %
3197 28-04-2020 04:43:18 7.6 C 43 %
3198 28-04-2020 04:53:17 7.7 C 42 %
3199 28-04-2020 05:03:17 7.8 C 41 %
3200 28-04-2020 05:13:17 7.8 C 42 %
Sensor: Nr:Datum:Temp:Feuchte:
Aussen-T/F 3201 28-04-2020 05:23:17 7.8 C 41 %
3202 28-04-2020 05:33:18 7.9 C 41 %
3203 28-04-2020 05:43:18 7.7 C 41 %
3204 28-04-2020 05:53:17 7.5 C 41 %
3205 28-04-2020 06:03:17 7.2 C 41 %
3206 28-04-2020 06:13:17 7 C 42 %
3207 28-04-2020 06:23:17 7.3 C 43 %
3208 28-04-2020 06:33:18 7.6 C 43 %
3209 28-04-2020 06:43:18 8 C 42 %
3210 28-04-2020 06:53:17 8.3 C 41 %
3211 28-04-2020 07:03:18 8.7 C 41 %
3212 28-04-2020 07:13:18 9.1 C 40 %
3213 28-04-2020 07:23:18 9.3 C 39 %
3214 28-04-2020 07:33:17 9.5 C 39 %
3215 28-04-2020 07:43:17 9.6 C 39 %
3216 28-04-2020 07:53:17 9.4 C 39 %
3217 28-04-2020 08:03:17 9.2 C 40 %
3218 28-04-2020 08:13:17 9.5 C 41 %
3219 28-04-2020 08:23:17 9.8 C 41 %
3220 28-04-2020 08:33:17 10 C 41 %
3221 28-04-2020 08:43:17 10.1 C 41 %
3222 28-04-2020 08:53:17 10.6 C 40 %
3223 28-04-2020 09:03:17 10.7 C 40 %
3224 28-04-2020 09:13:17 11.2 C 39 %
3225 28-04-2020 09:23:17 11.7 C 39 %
Sensor: Nr:Datum:Temp:Feuchte:
Aussen-T/F 3226 28-04-2020 09:33:18 11.8 C 39 %
3227 28-04-2020 09:43:18 11.8 C 38 %
3228 28-04-2020 09:53:17 12.2 C 38 %
3229 28-04-2020 10:03:17 12.8 C 38 %
3230 28-04-2020 10:13:17 12.9 C 37 %
3231 28-04-2020 10:23:18 13.3 C 36 %
3232 28-04-2020 10:33:17 13.7 C 36 %
3233 28-04-2020 10:43:17 14 C 35 %
3234 28-04-2020 10:53:17 14.1 C 35 %
3235 28-04-2020 11:03:17 13.4 C 37 %
3236 28-04-2020 11:13:17 13.8 C 38 %
3237 28-04-2020 11:23:17 13.5 C 38 %
3238 28-04-2020 11:33:17 14.2 C 38 %
3239 28-04-2020 11:43:17 14.3 C 37 %
3240 28-04-2020 11:53:17 14.6 C 38 %
3241 28-04-2020 12:03:17 14.9 C 37 %
3242 28-04-2020 12:13:17 15 C 37 %
3243 28-04-2020 12:23:17 14.9 C 38 %
3244 28-04-2020 12:33:17 15.2 C 37 %
3245 28-04-2020 12:43:17 15 C 38 %
3246 28-04-2020 12:53:17 14.9 C 39 %
3247 28-04-2020 13:03:18 14.7 C 39 %
3248 28-04-2020 13:13:18 14.5 C 41 %
3249 28-04-2020 13:23:17 14.2 C 41 %
3250 28-04-2020 13:33:17 14.9 C 40 %
Sensor: Nr:Datum:Temp:Feuchte:
Aussen-T/F 3251 28-04-2020 13:43:17 14.9 C 38 %
3252 28-04-2020 13:53:17 15.2 C 36 %
3253 28-04-2020 14:03:17 16.2 C 36 %
3254 28-04-2020 14:13:17 16.9 C 35 %
3255 28-04-2020 14:23:18 20.2 C 30 %
3256 28-04-2020 14:33:18 17.5 C 32 %
3257 28-04-2020 14:43:18 16.5 C 34 %
3258 28-04-2020 14:53:17 17.2 C 33 %
3259 28-04-2020 15:03:17 16.4 C 34 %
3260 28-04-2020 15:13:17 15.6 C 36 %
3261 28-04-2020 15:23:17 15.6 C 36 %
3262 28-04-2020 15:33:17 18.1 C 32 %
3263 28-04-2020 15:43:17 16.5 C 33 %
3264 28-04-2020 15:53:17 17 C 32 %
3265 28-04-2020 16:03:18 17.1 C 32 %
3266 28-04-2020 16:13:18 16.7 C 32 %
3267 28-04-2020 16:23:17 16.9 C 32 %
3268 28-04-2020 16:33:17 18.5 C 30 %
3269 28-04-2020 16:43:17 20.1 C 26 %
3270 28-04-2020 16:53:17 19.4 C 27 %
3271 28-04-2020 17:03:17 17.6 C 30 %
3272 28-04-2020 17:13:17 17.4 C 30 %
3273 28-04-2020 17:23:17 17.2 C 29 %
3274 28-04-2020 17:33:17 17 C 30 %
3275 28-04-2020 17:43:17 16.8 C 30 %
Sensor: Nr:Datum:Temp:Feuchte:
Aussen-T/F 3276 28-04-2020 17:53:17 17.6 C 28 %
3277 28-04-2020 18:03:17 18.2 C 27 %
3278 28-04-2020 18:13:17 17.4 C 29 %
3279 28-04-2020 18:23:17 18 C 28 %
3280 28-04-2020 18:33:18 17.6 C 28 %
3281 28-04-2020 18:43:18 17.7 C 28 %
3282 28-04-2020 18:53:17 16.6 C 30 %
3283 28-04-2020 19:03:17 16.3 C 30 %
3284 28-04-2020 19:13:17 16.3 C 30 %
3285 28-04-2020 19:23:17 16.3 C 30 %
3286 28-04-2020 19:33:18 16.4 C 30 %
3287 28-04-2020 19:43:18 16.5 C 30 %
3288 28-04-2020 19:53:17 16.1 C 30 %
3289 28-04-2020 20:03:18 15 C 32 %
3290 28-04-2020 20:13:18 14.2 C 35 %
3291 28-04-2020 20:23:17 13.6 C 37 %
3292 28-04-2020 20:33:17 13.4 C 37 %
3293 28-04-2020 20:43:18 13.1 C 37 %
3294 28-04-2020 20:53:17 13 C 38 %
3295 28-04-2020 21:03:17 12.5 C 39 %
3296 28-04-2020 21:13:17 13.5 C 36 %
3297 28-04-2020 21:23:17 13.9 C 35 %
3298 28-04-2020 21:33:17 14.6 C 34 %
3299 28-04-2020 21:43:17 14.4 C 34 %
3300 28-04-2020 21:53:17 14.2 C 34 %
Sensor: Nr:Datum:Temp:Feuchte:
Aussen-T/F 3301 28-04-2020 22:03:17 13.4 C 35 %
3302 28-04-2020 22:13:17 12.8 C 37 %
3303 28-04-2020 22:23:17 12.8 C 37 %
3304 28-04-2020 22:33:17 13 C 36 %
3305 28-04-2020 22:43:17 13.1 C 36 %
3306 28-04-2020 22:53:18 12.9 C 37 %
3307 28-04-2020 23:03:17 12.7 C 38 %
3308 28-04-2020 23:13:18 12.7 C 38 %
3309 28-04-2020 23:23:18 12.7 C 38 %
3310 28-04-2020 23:33:18 12.7 C 38 %
3311 28-04-2020 23:43:18 12.5 C 39 %
3312 28-04-2020 23:53:18 12.2 C 39 %
3313 29-04-2020 00:03:17 12.2 C 39 %
3314 29-04-2020 00:13:17 12.2 C 39 %
3315 29-04-2020 00:23:17 12.1 C 39 %
3316 29-04-2020 00:33:18 11.8 C 40 %
3317 29-04-2020 00:43:18 11.5 C 40 %
3318 29-04-2020 00:53:18 11.5 C 40 %
3319 29-04-2020 01:03:18 11.5 C 40 %
3320 29-04-2020 01:13:18 11.6 C 40 %
3321 29-04-2020 01:23:17 11.7 C 40 %
3322 29-04-2020 01:33:17 11.6 C 42 %
3323 29-04-2020 01:43:17 11.4 C 43 %
3324 29-04-2020 01:53:17 11.4 C 44 %
3325 29-04-2020 02:03:17 11.4 C 44 %
Sensor: Nr:Datum:Temp:Feuchte:
Aussen-T/F 3326 29-04-2020 02:13:17 11.4 C 41 %
3327 29-04-2020 02:23:17 12.3 C 37 %
3328 29-04-2020 02:33:18 12.6 C 37 %
3329 29-04-2020 02:43:18 12.5 C 36 %
3330 29-04-2020 02:53:17 12.1 C 36 %
3331 29-04-2020 03:03:17 12 C 36 %
3332 29-04-2020 03:13:17 11.4 C 39 %
3333 29-04-2020 03:23:17 11.5 C 39 %
3334 29-04-2020 03:33:17 11.7 C 39 %
3335 29-04-2020 03:43:17 12 C 37 %
3336 29-04-2020 03:53:17 12.1 C 37 %
3337 29-04-2020 04:03:17 11.9 C 39 %
3338 29-04-2020 04:13:17 11.9 C 39 %
3339 29-04-2020 04:23:17 11.7 C 39 %
3340 29-04-2020 04:33:17 11.9 C 38 %
3341 29-04-2020 04:43:18 11.6 C 39 %
3342 29-04-2020 04:53:17 11.4 C 39 %
3343 29-04-2020 05:03:18 11.7 C 39 %
3344 29-04-2020 05:13:18 11.5 C 39 %
3345 29-04-2020 05:23:18 11.7 C 39 %
3346 29-04-2020 05:33:17 11.5 C 39 %
3347 29-04-2020 05:43:17 11.4 C 39 %
3348 29-04-2020 05:53:17 11.3 C 40 %
3349 29-04-2020 06:03:18 11.3 C 40 %
3350 29-04-2020 06:13:18 11.5 C 39 %
Sensor: Nr:Datum:Temp:Feuchte:
Aussen-T/F 3351 29-04-2020 06:23:17 11.6 C 38 %
3352 29-04-2020 06:33:17 11.2 C 39 %
3353 29-04-2020 06:43:17 11 C 40 %
3354 29-04-2020 06:53:17 11.2 C 40 %
3355 29-04-2020 07:03:17 11.5 C 39 %
3356 29-04-2020 07:13:17 11.9 C 39 %
3357 29-04-2020 07:23:17 12.1 C 37 %
3358 29-04-2020 07:33:17 12.3 C 37 %
3359 29-04-2020 07:43:17 12.4 C 36 %
3360 29-04-2020 07:53:17 12.7 C 36 %
3361 29-04-2020 08:03:17 12.9 C 36 %
3362 29-04-2020 08:13:17 12.9 C 36 %
3363 29-04-2020 08:23:17 12.7 C 36 %
3364 29-04-2020 08:33:17 12.6 C 36 %
3365 29-04-2020 08:43:17 12.5 C 36 %
3366 29-04-2020 08:53:17 13 C 35 %
3367 29-04-2020 09:03:17 13.1 C 35 %
3368 29-04-2020 09:13:17 13.2 C 35 %
3369 29-04-2020 09:23:17 13.5 C 34 %
3370 29-04-2020 09:33:17 13.6 C 33 %
3371 29-04-2020 09:43:17 13.9 C 32 %
3372 29-04-2020 09:53:17 14.1 C 32 %
3373 29-04-2020 10:03:17 14.5 C 31 %
3374 29-04-2020 10:13:17 14.8 C 30 %
3375 29-04-2020 10:23:17 15.1 C 29 %
Sensor: Nr:Datum:Temp:Feuchte:
Aussen-T/F 3376 29-04-2020 10:33:17 14.8 C 30 %
3377 29-04-2020 10:43:17 15 C 29 %
3378 29-04-2020 10:53:17 15.5 C 28 %
3379 29-04-2020 11:03:17 16 C 28 %
3380 29-04-2020 11:13:17 16 C 28 %
3381 29-04-2020 11:23:17 16.3 C 27 %
3382 29-04-2020 11:33:18 16.8 C 27 %
3383 29-04-2020 11:43:18 16.9 C 25 %
3384 29-04-2020 11:53:17 17.1 C 25 %
3385 29-04-2020 12:03:18 17.5 C 25 %
3386 29-04-2020 12:13:18 16.4 C 25 %
3387 29-04-2020 12:23:17 15.5 C 26 %
3388 29-04-2020 12:33:17 15.9 C 26 %
3389 29-04-2020 12:43:17 16.3 C 25 %
3390 29-04-2020 12:53:17 16.2 C 25 %
3391 29-04-2020 13:03:17 17.5 C 25 %
3392 29-04-2020 13:13:17 16.4 C 25 %
3393 29-04-2020 13:23:18 16.1 C 25 %
3394 29-04-2020 13:33:18 17.5 C 25 %
3395 29-04-2020 13:43:18 17.3 C 25 %
3396 29-04-2020 13:53:18 16.6 C 25 %
3397 29-04-2020 14:03:18 16.7 C 26 %
3398 29-04-2020 14:13:18 15.7 C 26 %
3399 29-04-2020 14:23:18 15.9 C 26 %
3400 29-04-2020 14:33:17 16.1 C 26 %
Sensor: Nr:Datum:Temp:Feuchte:
Aussen-T/F 3401 29-04-2020 14:43:17 19.2 C 22 %
3402 29-04-2020 14:53:17 21.1 C 20 %
3403 29-04-2020 15:03:17 20.9 C 20 %
3404 29-04-2020 15:13:17 22.7 C 20 %
3405 29-04-2020 15:23:17 22.3 C 20 %
3406 29-04-2020 15:33:17 19.6 C 20 %
3407 29-04-2020 15:43:17 18.7 C 20 %
3408 29-04-2020 15:53:17 19.2 C 20 %
3409 29-04-2020 16:03:17 17.4 C 22 %
3410 29-04-2020 16:13:17 17.9 C 22 %
3411 29-04-2020 16:23:17 18.4 C 20 %
3412 29-04-2020 16:33:17 17.7 C 21 %
3413 29-04-2020 16:43:17 20.2 C 20 %
3414 29-04-2020 16:53:17 18.2 C 20 %
3415 29-04-2020 17:03:17 17.4 C 22 %
3416 29-04-2020 17:13:17 16 C 25 %
3417 29-04-2020 17:23:17 19.4 C 23 %
3418 29-04-2020 17:33:17 21.1 C 20 %
3419 29-04-2020 17:43:17 21.2 C 20 %
3420 29-04-2020 17:53:17 20.2 C 20 %
3421 29-04-2020 18:03:17 21 C 20 %
3422 29-04-2020 18:13:18 17.5 C 21 %
3423 29-04-2020 18:23:17 17.4 C 21 %
3424 29-04-2020 18:33:17 17.7 C 22 %
3425 29-04-2020 18:43:17 17.9 C 22 %
Sensor: Nr:Datum:Temp:Feuchte:
Aussen-T/F 3426 29-04-2020 18:53:17 17.2 C 23 %
3427 29-04-2020 19:03:18 17 C 25 %
3428 29-04-2020 19:13:18 17.5 C 24 %
3429 29-04-2020 19:23:17 17.5 C 23 %
3430 29-04-2020 19:33:17 17.1 C 23 %
3431 29-04-2020 19:43:18 16.7 C 24 %
3432 29-04-2020 19:53:17 16.1 C 25 %
3433 29-04-2020 20:03:18 15.4 C 26 %
3434 29-04-2020 20:13:18 15 C 26 %
3435 29-04-2020 20:23:18 14.7 C 29 %
3436 29-04-2020 20:33:17 14.5 C 29 %
3437 29-04-2020 20:43:17 14.5 C 28 %
3438 29-04-2020 20:53:18 14.4 C 28 %
3439 29-04-2020 21:03:18 13.8 C 30 %
3440 29-04-2020 21:13:18 13.2 C 31 %
3441 29-04-2020 21:23:17 12.9 C 33 %
3442 29-04-2020 21:33:17 13 C 32 %
3443 29-04-2020 21:43:17 13.5 C 32 %
3444 29-04-2020 21:53:17 13.2 C 32 %
3445 29-04-2020 22:03:18 13 C 32 %
3446 29-04-2020 22:13:18 13.2 C 33 %
3447 29-04-2020 22:23:17 13.5 C 32 %
3448 29-04-2020 22:33:17 13.3 C 32 %
3449 29-04-2020 22:43:17 13.1 C 32 %
3450 29-04-2020 22:53:18 13.3 C 33 %
Sensor: Nr:Datum:Temp:Feuchte:
Aussen-T/F 3451 29-04-2020 23:03:18 12.8 C 35 %
3452 29-04-2020 23:13:18 12.8 C 35 %
3453 29-04-2020 23:23:17 13 C 34 %
3454 29-04-2020 23:33:17 13.2 C 33 %
3455 29-04-2020 23:43:17 13.2 C 34 %
3456 29-04-2020 23:53:18 12.9 C 35 %
3457 30-04-2020 00:03:17 13 C 34 %
3458 30-04-2020 00:13:17 13.2 C 34 %
3459 30-04-2020 00:23:17 13.3 C 33 %
3460 30-04-2020 00:33:17 13.2 C 33 %
3461 30-04-2020 00:43:17 13.3 C 33 %
3462 30-04-2020 00:53:17 13.1 C 33 %
3463 30-04-2020 01:03:17 13.1 C 33 %
3464 30-04-2020 01:13:17 13.2 C 33 %
3465 30-04-2020 01:23:17 13.2 C 33 %
3466 30-04-2020 01:33:17 13.4 C 33 %
3467 30-04-2020 01:43:17 13.4 C 32 %
3468 30-04-2020 01:53:17 13 C 34 %
3469 30-04-2020 02:03:17 12 C 37 %
3470 30-04-2020 02:13:17 11.8 C 39 %
3471 30-04-2020 02:23:17 11.5 C 39 %
3472 30-04-2020 02:33:17 11.8 C 38 %
3473 30-04-2020 02:43:17 11.7 C 38 %
3474 30-04-2020 02:53:17 11.8 C 37 %
3475 30-04-2020 03:03:17 11.7 C 37 %
Sensor: Nr:Datum:Temp:Feuchte:
Aussen-T/F 3476 30-04-2020 03:13:17 11.2 C 38 %
3477 30-04-2020 03:23:17 10.9 C 40 %
3478 30-04-2020 03:33:17 10.9 C 40 %
3479 30-04-2020 03:43:18 11 C 40 %
3480 30-04-2020 03:53:17 11 C 40 %
3481 30-04-2020 04:03:17 10.8 C 41 %
3482 30-04-2020 04:13:17 10.7 C 41 %
3483 30-04-2020 04:23:17 10.6 C 43 %
3484 30-04-2020 04:33:18 10.7 C 44 %
3485 30-04-2020 04:43:18 10.6 C 44 %
3486 30-04-2020 04:53:17 10.7 C 45 %
3487 30-04-2020 05:03:17 10.7 C 45 %
3488 30-04-2020 05:13:17 10.8 C 45 %
3489 30-04-2020 05:23:17 10.8 C 45 %
3490 30-04-2020 05:33:17 10.8 C 45 %
3491 30-04-2020 05:43:17 10.7 C 45 %
3492 30-04-2020 05:53:18 10.8 C 45 %
3493 30-04-2020 06:03:17 10.7 C 45 %
3494 30-04-2020 06:13:18 10.7 C 45 %
3495 30-04-2020 06:23:17 10.7 C 45 %
3496 30-04-2020 06:33:17 10.8 C 45 %
3497 30-04-2020 06:43:17 10.7 C 45 %
3498 30-04-2020 06:53:17 10.8 C 45 %
3499 30-04-2020 07:03:17 10.6 C 44 %
3500 30-04-2020 07:13:17 10.3 C 42 %
Sensor: Nr:Datum:Temp:Feuchte:
Aussen-T/F 3501 30-04-2020 07:23:17 10.2 C 42 %
3502 30-04-2020 07:33:17 10.2 C 42 %
3503 30-04-2020 07:43:17 10.1 C 42 %
3504 30-04-2020 07:53:17 10 C 43 %
3505 30-04-2020 08:03:17 9.9 C 42 %
3506 30-04-2020 08:13:17 9.8 C 43 %
3507 30-04-2020 08:23:17 10 C 43 %
3508 30-04-2020 08:33:17 11 C 39 %
3509 30-04-2020 08:43:17 10.7 C 40 %
3510 30-04-2020 08:53:17 10.9 C 40 %
3511 30-04-2020 09:03:17 11.2 C 39 %
3512 30-04-2020 09:13:17 11.8 C 37 %
3513 30-04-2020 09:23:18 12.1 C 36 %
3514 30-04-2020 09:33:17 12.5 C 36 %
3515 30-04-2020 09:43:17 12.5 C 36 %
3516 30-04-2020 09:53:17 12.7 C 36 %
3517 30-04-2020 10:03:17 13.2 C 35 %
3518 30-04-2020 10:13:17 13.9 C 35 %
3519 30-04-2020 10:23:17 14 C 33 %
3520 30-04-2020 10:33:17 13.7 C 32 %
3521 30-04-2020 10:43:17 14.4 C 31 %
3522 30-04-2020 10:53:18 14 C 31 %
3523 30-04-2020 11:03:18 14 C 30 %
3524 30-04-2020 11:13:18 14 C 30 %
3525 30-04-2020 11:23:17 14 C 31 %
Sensor: Nr:Datum:Temp:Feuchte:
Aussen-T/F 3526 30-04-2020 11:33:17 14.5 C 31 %
3527 30-04-2020 11:43:17 14.2 C 30 %
3528 30-04-2020 11:53:17 14.3 C 30 %
3529 30-04-2020 12:03:18 14.5 C 30 %
3530 30-04-2020 12:13:18 14.2 C 29 %
3531 30-04-2020 12:23:17 14.6 C 29 %
3532 30-04-2020 12:33:17 14.4 C 29 %
3533 30-04-2020 12:43:17 14.5 C 29 %
3534 30-04-2020 12:53:18 15 C 27 %
3535 30-04-2020 13:03:17 14.7 C 27 %
3536 30-04-2020 13:13:17 14.6 C 27 %
3537 30-04-2020 13:23:17 14.6 C 27 %
3538 30-04-2020 13:33:17 14.5 C 27 %
3539 30-04-2020 13:43:17 15.2 C 26 %
3540 30-04-2020 13:53:17 15.9 C 25 %
3541 30-04-2020 14:03:18 16.8 C 23 %
3542 30-04-2020 14:13:18 16.2 C 21 %
3543 30-04-2020 14:23:17 16.6 C 21 %
3544 30-04-2020 14:33:18 19.7 C 20 %
3545 30-04-2020 14:43:18 18.3 C 20 %
3546 30-04-2020 14:53:17 18.1 C 20 %
3547 30-04-2020 15:03:18 19.2 C 20 %
3548 30-04-2020 15:13:18 19.5 C 20 %
3549 30-04-2020 15:23:17 17.4 C 20 %
3550 30-04-2020 15:33:17 16.5 C 20 %
Sensor: Nr:Datum:Temp:Feuchte:
Aussen-T/F 3551 30-04-2020 15:43:17 15.8 C 20 %
3552 30-04-2020 15:53:18 15.9 C 21 %
3553 30-04-2020 16:03:17 16.2 C 20 %
3554 30-04-2020 16:13:17 16.3 C 20 %
3555 30-04-2020 16:23:17 16.7 C 21 %
3556 30-04-2020 16:33:17 16.4 C 20 %
3557 30-04-2020 16:43:18 16.3 C 21 %
3558 30-04-2020 16:53:17 15.9 C 21 %
3559 30-04-2020 17:03:17 14.8 C 25 %
3560 30-04-2020 17:13:17 12.5 C 33 %
3561 30-04-2020 17:23:18 11.8 C 37 %
3562 30-04-2020 17:33:17 11.5 C 37 %
3563 30-04-2020 17:43:17 10.7 C 40 %
3564 30-04-2020 17:53:17 10.8 C 42 %
3565 30-04-2020 18:03:17 10.6 C 41 %
3566 30-04-2020 18:13:18 10.3 C 42 %
3567 30-04-2020 18:23:17 10.2 C 42 %
3568 30-04-2020 18:33:17 10.2 C 43 %
3569 30-04-2020 18:43:17 10 C 41 %
3570 30-04-2020 18:53:17 9.9 C 41 %
3571 30-04-2020 19:03:18 9.6 C 41 %
3572 30-04-2020 19:13:18 9.5 C 41 %
3573 30-04-2020 19:23:17 10 C 40 %
3574 30-04-2020 19:33:18 10.1 C 41 %
3575 30-04-2020 19:43:18 10 C 41 %
Sensor: Nr:Datum:Temp:Feuchte:
Aussen-T/F 3576 30-04-2020 19:53:17 9.9 C 44 %
3577 30-04-2020 20:03:17 9.7 C 45 %
3578 30-04-2020 20:13:17 9.6 C 45 %
3579 30-04-2020 20:23:17 9.4 C 44 %
3580 30-04-2020 20:33:18 9 C 44 %
3581 30-04-2020 20:43:18 8.6 C 45 %
3582 30-04-2020 20:53:17 8.6 C 46 %
3583 30-04-2020 21:03:17 8.7 C 46 %
3584 30-04-2020 21:13:17 8.8 C 45 %
3585 30-04-2020 21:23:17 8.9 C 45 %
3586 30-04-2020 21:33:17 9 C 45 %
3587 30-04-2020 21:43:18 9 C 45 %
3588 30-04-2020 21:53:17 9 C 45 %
3589 30-04-2020 22:03:18 8.6 C 45 %
3590 30-04-2020 22:13:18 8.4 C 45 %
3591 30-04-2020 22:23:18 8.7 C 45 %
3592 30-04-2020 22:33:17 8.7 C 45 %
3593 30-04-2020 22:43:17 8.6 C 45 %
3594 30-04-2020 22:53:18 8.5 C 45 %
3595 30-04-2020 23:03:17 8.4 C 45 %
3596 30-04-2020 23:13:17 8.3 C 45 %
3597 30-04-2020 23:23:17 8.3 C 45 %
3598 30-04-2020 23:33:17 8.6 C 45 %
3599 30-04-2020 23:43:17 9 C 44 %
3600 30-04-2020 23:53:17 9.2 C 43 %
Sensor: Nr:Datum:Temp:Feuchte:
Aussen-T/F 3601 01-05-2020 00:03:17 8.9 C 43 %
3602 01-05-2020 00:13:17 8.6 C 44 %
3603 01-05-2020 00:23:17 8.2 C 44 %
3604 01-05-2020 00:33:18 8.4 C 44 %
3605 01-05-2020 00:43:18 8.2 C 44 %
3606 01-05-2020 00:53:17 7.8 C 45 %
3607 01-05-2020 01:03:17 8.1 C 45 %
3608 01-05-2020 01:13:18 8.2 C 44 %
3609 01-05-2020 01:23:18 8.1 C 43 %
3610 01-05-2020 01:33:18 8.1 C 43 %
3611 01-05-2020 01:43:18 8.5 C 42 %
3612 01-05-2020 01:53:17 8.5 C 41 %
3613 01-05-2020 02:03:17 8.1 C 42 %
3614 01-05-2020 02:13:18 8 C 42 %
3615 01-05-2020 02:23:17 7.7 C 43 %
3616 01-05-2020 02:33:17 7.6 C 43 %
3617 01-05-2020 02:43:17 7.8 C 43 %
3618 01-05-2020 02:53:17 7.7 C 44 %
3619 01-05-2020 03:03:17 7.4 C 44 %
3620 01-05-2020 03:13:18 7.4 C 46 %
3621 01-05-2020 03:23:17 7.9 C 44 %
3622 01-05-2020 03:33:17 8.2 C 41 %
3623 01-05-2020 03:43:17 8 C 42 %
3624 01-05-2020 03:53:18 7.4 C 44 %
3625 01-05-2020 04:03:17 7.3 C 45 %
Sensor: Nr:Datum:Temp:Feuchte:
Aussen-T/F 3626 01-05-2020 04:13:17 7 C 45 %
3627 01-05-2020 04:23:17 7.1 C 46 %
3628 01-05-2020 04:33:17 7.3 C 46 %
3629 01-05-2020 04:43:17 7.4 C 46 %
3630 01-05-2020 04:53:17 7.6 C 46 %
3631 01-05-2020 05:03:18 7.8 C 46 %
3632 01-05-2020 05:13:18 7.9 C 46 %
3633 01-05-2020 05:23:17 8 C 45 %
3634 01-05-2020 05:33:18 8 C 45 %
3635 01-05-2020 05:43:18 8.6 C 41 %
3636 01-05-2020 05:53:17 8.4 C 40 %
3637 01-05-2020 06:03:17 8.1 C 41 %
3638 01-05-2020 06:13:17 7.8 C 43 %
3639 01-05-2020 06:23:17 7.6 C 44 %
3640 01-05-2020 06:33:17 7.6 C 45 %
3641 01-05-2020 06:43:17 7.4 C 45 %
3642 01-05-2020 06:53:17 7 C 45 %
3643 01-05-2020 07:03:17 6.8 C 46 %
3644 01-05-2020 07:13:17 6.9 C 46 %
3645 01-05-2020 07:23:17 7.8 C 46 %
3646 01-05-2020 07:33:18 7.9 C 46 %
3647 01-05-2020 07:43:18 8.3 C 45 %
3648 01-05-2020 07:53:17 8.1 C 41 %
3649 01-05-2020 08:03:18 8.1 C 41 %
3650 01-05-2020 08:13:18 8.4 C 41 %
Sensor: Nr:Datum:Temp:Feuchte:
Aussen-T/F 3651 01-05-2020 08:23:18 8.3 C 42 %
3652 01-05-2020 08:33:18 8.3 C 44 %
3653 01-05-2020 08:43:18 9 C 44 %
3654 01-05-2020 08:53:17 9.2 C 42 %
3655 01-05-2020 09:03:17 9.6 C 42 %
3656 01-05-2020 09:13:17 9.7 C 42 %
3657 01-05-2020 09:23:17 10.1 C 40 %
3658 01-05-2020 09:33:17 10.4 C 38 %
3659 01-05-2020 09:43:18 10.6 C 39 %
3660 01-05-2020 09:53:18 10.5 C 38 %
3661 01-05-2020 10:03:18 10.5 C 38 %
3662 01-05-2020 10:13:18 10.6 C 37 %
3663 01-05-2020 10:23:17 10.5 C 37 %
3664 01-05-2020 10:33:17 11 C 37 %
3665 01-05-2020 10:43:17 11.5 C 36 %
3666 01-05-2020 10:53:17 12.6 C 34 %
3667 01-05-2020 11:03:17 12.5 C 33 %
3668 01-05-2020 11:13:18 12.8 C 33 %
3669 01-05-2020 11:23:17 12.7 C 32 %
3670 01-05-2020 11:33:18 13.1 C 31 %
3671 01-05-2020 11:43:18 13.1 C 31 %
3672 01-05-2020 11:53:17 12.8 C 32 %
3673 01-05-2020 12:03:17 12.1 C 32 %
3674 01-05-2020 12:13:17 11.9 C 34 %
3675 01-05-2020 12:23:17 12.1 C 33 %
Sensor: Nr:Datum:Temp:Feuchte:
Aussen-T/F 3676 01-05-2020 12:33:17 11.1 C 36 %
3677 01-05-2020 12:43:17 10.7 C 38 %
3678 01-05-2020 12:53:17 10.4 C 39 %
3679 01-05-2020 13:03:18 10.3 C 38 %
3680 01-05-2020 13:13:18 9.7 C 38 %
3681 01-05-2020 13:23:17 10.5 C 38 %
3682 01-05-2020 13:33:17 11.3 C 36 %
3683 01-05-2020 13:43:17 12.4 C 34 %
3684 01-05-2020 13:53:17 12.8 C 34 %
3685 01-05-2020 14:03:17 12.3 C 33 %
3686 01-05-2020 14:13:17 13.5 C 31 %
3687 01-05-2020 14:23:18 14.7 C 28 %
3688 01-05-2020 14:33:18 14.2 C 27 %
3689 01-05-2020 14:43:18 16.8 C 22 %
3690 01-05-2020 14:53:17 19.6 C 20 %
3691 01-05-2020 15:03:17 19.2 C 20 %
3692 01-05-2020 15:13:17 20 C 20 %
3693 01-05-2020 15:23:17 16.6 C 20 %
3694 01-05-2020 15:33:17 14.9 C 25 %
3695 01-05-2020 15:43:17 13.5 C 27 %
3696 01-05-2020 15:53:17 11.7 C 34 %
3697 01-05-2020 16:03:18 13.5 C 30 %
3698 01-05-2020 16:13:18 18.5 C 24 %
3699 01-05-2020 16:23:17 19 C 20 %
3700 01-05-2020 16:33:18 18 C 20 %
Sensor: Nr:Datum:Temp:Feuchte:
Aussen-T/F 3701 01-05-2020 16:43:18 18.4 C 20 %
3702 01-05-2020 16:53:17 17.1 C 22 %
3703 01-05-2020 17:03:18 19.1 C 20 %
3704 01-05-2020 17:13:18 18.3 C 20 %
3705 01-05-2020 17:23:17 15.5 C 25 %
3706 01-05-2020 17:33:17 14 C 28 %
3707 01-05-2020 17:43:17 12.2 C 34 %
3708 01-05-2020 17:53:17 12.3 C 35 %
3709 01-05-2020 18:03:18 12.5 C 35 %
3710 01-05-2020 18:13:18 12.1 C 35 %
3711 01-05-2020 18:23:17 12.2 C 35 %
3712 01-05-2020 18:33:18 12.8 C 35 %
3713 01-05-2020 18:43:18 13.8 C 34 %
3714 01-05-2020 18:53:17 13.2 C 31 %
3715 01-05-2020 19:03:18 12.7 C 34 %
3716 01-05-2020 19:13:18 12.1 C 35 %
3717 01-05-2020 19:23:18 11.7 C 36 %
3718 01-05-2020 19:33:17 11.8 C 35 %
3719 01-05-2020 19:43:17 11.8 C 35 %
3720 01-05-2020 19:53:17 11.4 C 35 %
3721 01-05-2020 20:03:17 11.3 C 35 %
3722 01-05-2020 20:13:17 11.3 C 35 %
3723 01-05-2020 20:23:17 11.5 C 34 %
3724 01-05-2020 20:33:17 11.1 C 34 %
3725 01-05-2020 20:43:17 10.5 C 36 %
Sensor: Nr:Datum:Temp:Feuchte:
Aussen-T/F 3726 01-05-2020 20:53:17 10.3 C 37 %
3727 01-05-2020 21:03:18 10.3 C 37 %
3728 01-05-2020 21:13:18 10.4 C 37 %
3729 01-05-2020 21:23:17 10.2 C 37 %
3730 01-05-2020 21:33:17 9.8 C 38 %
3731 01-05-2020 21:43:17 9.3 C 39 %
3732 01-05-2020 21:53:17 8.8 C 40 %
3733 01-05-2020 22:03:18 9 C 40 %
3734 01-05-2020 22:13:18 9 C 40 %
3735 01-05-2020 22:23:17 9.2 C 39 %
3736 01-05-2020 22:33:17 9.3 C 39 %
3737 01-05-2020 22:43:17 9.3 C 40 %
3738 01-05-2020 22:53:18 9.5 C 39 %
3739 01-05-2020 23:03:17 9.4 C 40 %
3740 01-05-2020 23:13:17 9.3 C 40 %
3741 01-05-2020 23:23:17 9.3 C 40 %
3742 01-05-2020 23:33:17 9.4 C 40 %
3743 01-05-2020 23:43:17 9.5 C 39 %
3744 01-05-2020 23:53:17 9.4 C 40 %
3745 02-05-2020 00:03:17 9.3 C 40 %
3746 02-05-2020 00:13:17 9.2 C 40 %
3747 02-05-2020 00:23:17 9 C 40 %
3748 02-05-2020 00:33:18 8.9 C 40 %
3749 02-05-2020 00:43:18 8.9 C 40 %
3750 02-05-2020 00:53:17 8.9 C 40 %
Sensor: Nr:Datum:Temp:Feuchte:
Aussen-T/F 3751 02-05-2020 01:03:18 9.1 C 40 %
3752 02-05-2020 01:13:18 9.3 C 39 %
3753 02-05-2020 01:23:17 9.3 C 39 %
3754 02-05-2020 01:33:17 9.1 C 40 %
3755 02-05-2020 01:43:18 8.8 C 40 %
3756 02-05-2020 01:53:17 8.5 C 40 %
3757 02-05-2020 02:03:18 8.3 C 41 %
3758 02-05-2020 02:13:18 8.3 C 42 %
3759 02-05-2020 02:23:17 8.4 C 42 %
3760 02-05-2020 02:33:18 8.7 C 41 %
3761 02-05-2020 02:43:18 9.1 C 40 %
3762 02-05-2020 02:53:17 9.3 C 39 %
3763 02-05-2020 03:03:18 9.3 C 39 %
3764 02-05-2020 03:13:18 9.1 C 39 %
3765 02-05-2020 03:23:17 9.3 C 39 %
3766 02-05-2020 03:33:17 9.2 C 39 %
3767 02-05-2020 03:43:17 8.9 C 40 %
3768 02-05-2020 03:53:17 8.9 C 40 %
3769 02-05-2020 04:03:18 8.6 C 40 %
3770 02-05-2020 04:13:18 8.4 C 41 %
3771 02-05-2020 04:23:17 8.4 C 41 %
3772 02-05-2020 04:33:18 8.8 C 40 %
3773 02-05-2020 04:43:18 9 C 39 %
3774 02-05-2020 04:53:18 8.8 C 40 %
3775 02-05-2020 05:03:17 8.8 C 39 %
Sensor: Nr:Datum:Temp:Feuchte:
Aussen-T/F 3776 02-05-2020 05:13:17 8.8 C 39 %
3777 02-05-2020 05:23:17 8.7 C 39 %
3778 02-05-2020 05:33:17 8.8 C 39 %
3779 02-05-2020 05:43:17 8.4 C 40 %
3780 02-05-2020 05:53:17 8.2 C 39 %
3781 02-05-2020 06:03:17 8.2 C 39 %
3782 02-05-2020 06:13:17 7.7 C 40 %
3783 02-05-2020 06:23:17 7.9 C 40 %
3784 02-05-2020 06:33:17 7.9 C 40 %
3785 02-05-2020 06:43:17 8 C 39 %
3786 02-05-2020 06:53:17 8.2 C 39 %
3787 02-05-2020 07:03:17 8 C 39 %
3788 02-05-2020 07:13:17 8.3 C 39 %
3789 02-05-2020 07:23:17 8.4 C 38 %
3790 02-05-2020 07:33:17 8.2 C 38 %
3791 02-05-2020 07:43:17 8 C 39 %
3792 02-05-2020 07:53:17 8.4 C 39 %
3793 02-05-2020 08:03:17 8.5 C 39 %
3794 02-05-2020 08:13:17 8.9 C 38 %
3795 02-05-2020 08:23:17 9 C 37 %
3796 02-05-2020 08:33:17 9.8 C 37 %
3797 02-05-2020 08:43:17 9.8 C 37 %
3798 02-05-2020 08:53:17 9.5 C 37 %
3799 02-05-2020 09:03:17 9.6 C 36 %
3800 02-05-2020 09:13:17 9.7 C 36 %
Sensor: Nr:Datum:Temp:Feuchte:
Aussen-T/F 3801 02-05-2020 09:23:17 9.9 C 36 %
3802 02-05-2020 09:33:17 10.8 C 35 %
3803 02-05-2020 09:43:17 10.8 C 35 %
3804 02-05-2020 09:53:17 10.2 C 35 %
3805 02-05-2020 10:03:18 9.7 C 36 %
3806 02-05-2020 10:13:18 8.6 C 40 %
3807 02-05-2020 10:23:17 6.8 C 41 %
3808 02-05-2020 10:33:17 6.7 C 44 %
3809 02-05-2020 10:43:17 6.7 C 43 %
3810 02-05-2020 10:53:17 6.9 C 43 %
3811 02-05-2020 11:03:17 7.4 C 42 %
3812 02-05-2020 11:13:17 8.4 C 40 %
3813 02-05-2020 11:23:17 8.7 C 40 %
3814 02-05-2020 11:33:17 8.8 C 40 %
3815 02-05-2020 11:43:17 9.3 C 39 %
3816 02-05-2020 11:53:17 9.2 C 39 %
3817 02-05-2020 12:03:17 9.6 C 38 %
3818 02-05-2020 12:13:17 10 C 36 %
3819 02-05-2020 12:23:17 10.3 C 36 %
3820 02-05-2020 12:33:18 10.8 C 36 %
3821 02-05-2020 12:43:18 11.8 C 35 %
3822 02-05-2020 12:53:17 10.4 C 37 %
3823 02-05-2020 13:03:17 11.7 C 32 %
3824 02-05-2020 13:13:17 12.1 C 31 %
3825 02-05-2020 13:23:17 11.4 C 32 %
Sensor: Nr:Datum:Temp:Feuchte:
Aussen-T/F 3826 02-05-2020 13:33:17 11.3 C 32 %
3827 02-05-2020 13:43:17 11.5 C 33 %
3828 02-05-2020 13:53:17 12.2 C 32 %
3829 02-05-2020 14:03:17 12.7 C 31 %
3830 02-05-2020 14:13:17 14.3 C 28 %
3831 02-05-2020 14:23:18 15.6 C 25 %
3832 02-05-2020 14:33:17 12.8 C 27 %
3833 02-05-2020 14:43:18 8.8 C 37 %
3834 02-05-2020 14:53:17 8.4 C 40 %
3835 02-05-2020 15:03:17 7.7 C 42 %
3836 02-05-2020 15:13:17 8.1 C 45 %
3837 02-05-2020 15:23:17 8.9 C 41 %
3838 02-05-2020 15:33:18 13.2 C 32 %
3839 02-05-2020 15:43:18 17.2 C 29 %
3840 02-05-2020 15:53:17 16.8 C 25 %
3841 02-05-2020 16:03:17 18.1 C 23 %
3842 02-05-2020 16:13:17 19.2 C 20 %
3843 02-05-2020 16:23:17 19.8 C 20 %
3844 02-05-2020 16:33:17 16.9 C 20 %
3845 02-05-2020 16:43:17 14.2 C 28 %
3846 02-05-2020 16:53:17 13.5 C 29 %
3847 02-05-2020 17:03:17 18.1 C 23 %
3848 02-05-2020 17:13:17 16.2 C 22 %
3849 02-05-2020 17:23:18 14.5 C 25 %
3850 02-05-2020 17:33:18 14 C 28 %
Sensor: Nr:Datum:Temp:Feuchte:
Aussen-T/F 3851 02-05-2020 17:43:18 14.2 C 27 %
3852 02-05-2020 17:53:17 16.8 C 22 %
3853 02-05-2020 18:03:17 14.7 C 20 %
3854 02-05-2020 18:13:17 14.1 C 22 %
3855 02-05-2020 18:23:17 13.3 C 26 %
3856 02-05-2020 18:33:17 13.2 C 27 %
3857 02-05-2020 18:43:17 12.6 C 29 %
3858 02-05-2020 18:53:17 12.3 C 29 %
3859 02-05-2020 19:03:17 11.9 C 31 %
3860 02-05-2020 19:13:17 11.2 C 31 %
3861 02-05-2020 19:23:17 11.7 C 29 %
3862 02-05-2020 19:33:17 11.5 C 29 %
3863 02-05-2020 19:43:18 11.5 C 30 %
3864 02-05-2020 19:53:17 11.9 C 30 %
3865 02-05-2020 20:03:17 12.1 C 30 %
3866 02-05-2020 20:13:17 11.5 C 30 %
3867 02-05-2020 20:23:17 11.3 C 30 %
3868 02-05-2020 20:33:17 10 C 35 %
3869 02-05-2020 20:43:17 9.2 C 38 %
3870 02-05-2020 20:53:17 8.8 C 39 %
3871 02-05-2020 21:03:17 8.5 C 40 %
3872 02-05-2020 21:13:17 8.3 C 40 %
3873 02-05-2020 21:23:17 8.2 C 39 %
3874 02-05-2020 21:33:17 7.9 C 40 %
3875 02-05-2020 21:43:17 7.8 C 41 %
Sensor: Nr:Datum:Temp:Feuchte:
Aussen-T/F 3876 02-05-2020 21:53:18 7.4 C 41 %
3877 02-05-2020 22:03:17 6.9 C 43 %
3878 02-05-2020 22:13:17 6.8 C 44 %
3879 02-05-2020 22:23:17 6.5 C 45 %
3880 02-05-2020 22:33:17 6.3 C 45 %
3881 02-05-2020 22:43:17 6.3 C 45 %
3882 02-05-2020 22:53:18 6.6 C 45 %
3883 02-05-2020 23:03:17 6.6 C 44 %
3884 02-05-2020 23:13:17 6.4 C 44 %
3885 02-05-2020 23:23:17 6.4 C 44 %
3886 02-05-2020 23:33:17 6.4 C 44 %
3887 02-05-2020 23:43:17 6.2 C 44 %
3888 02-05-2020 23:53:17 6 C 45 %
3889 03-05-2020 00:03:17 6 C 45 %
3890 03-05-2020 00:13:17 5.8 C 46 %
3891 03-05-2020 00:23:17 5.9 C 46 %
3892 03-05-2020 00:33:17 5.6 C 46 %
3893 03-05-2020 00:43:17 5.5 C 46 %
3894 03-05-2020 00:53:17 5.3 C 46 %
3895 03-05-2020 01:03:18 5.2 C 46 %
3896 03-05-2020 01:13:18 5.1 C 46 %
3897 03-05-2020 01:23:17 4.8 C 47 %
3898 03-05-2020 01:33:18 4.6 C 47 %
3899 03-05-2020 01:43:18 4.7 C 47 %
3900 03-05-2020 01:53:18 4.7 C 47 %
Sensor: Nr:Datum:Temp:Feuchte:
Aussen-T/F 3901 03-05-2020 02:03:18 4.7 C 47 %
3902 03-05-2020 02:13:18 5 C 46 %
3903 03-05-2020 02:23:17 4.7 C 47 %
3904 03-05-2020 02:33:18 4.5 C 47 %
3905 03-05-2020 02:43:18 4.5 C 47 %
3906 03-05-2020 02:53:17 4.3 C 47 %
3907 03-05-2020 03:03:17 4.2 C 47 %
3908 03-05-2020 03:13:17 4 C 47 %
3909 03-05-2020 03:23:17 4.2 C 47 %
3910 03-05-2020 03:33:18 4.3 C 47 %
3911 03-05-2020 03:43:18 4.1 C 46 %
3912 03-05-2020 03:53:17 3.8 C 47 %
3913 03-05-2020 04:03:18 3.8 C 47 %
3914 03-05-2020 04:13:18 3.6 C 47 %
3915 03-05-2020 04:23:18 3.5 C 47 %
3916 03-05-2020 04:33:17 3.3 C 47 %
3917 03-05-2020 04:43:17 3 C 47 %
3918 03-05-2020 04:53:17 3.1 C 47 %
3919 03-05-2020 05:03:17 2.9 C 48 %
3920 03-05-2020 05:13:17 2.8 C 48 %
3921 03-05-2020 05:23:17 2.8 C 48 %
3922 03-05-2020 05:33:17 2.8 C 48 %
3923 03-05-2020 05:43:17 2.8 C 48 %
3924 03-05-2020 05:53:17 3.1 C 47 %
3925 03-05-2020 06:03:17 3.3 C 47 %
Sensor: Nr:Datum:Temp:Feuchte:
Aussen-T/F 3926 03-05-2020 06:13:17 3.6 C 47 %
3927 03-05-2020 06:23:17 3.9 C 47 %
3928 03-05-2020 06:33:18 4 C 46 %
3929 03-05-2020 06:43:18 4 C 46 %
3930 03-05-2020 06:53:17 4 C 46 %
3931 03-05-2020 07:03:17 4 C 46 %
3932 03-05-2020 07:13:17 4.1 C 46 %
3933 03-05-2020 07:23:18 4.2 C 46 %
3934 03-05-2020 07:33:18 4.2 C 46 %
3935 03-05-2020 07:43:18 4.4 C 46 %
3936 03-05-2020 07:53:18 4.7 C 46 %
3937 03-05-2020 08:03:18 4.6 C 46 %
3938 03-05-2020 08:13:18 5 C 46 %
3939 03-05-2020 08:23:18 5.5 C 46 %
3940 03-05-2020 08:33:17 5.4 C 46 %
3941 03-05-2020 08:43:17 6.1 C 45 %
3942 03-05-2020 08:53:17 6.2 C 43 %
3943 03-05-2020 09:03:17 6.5 C 43 %
3944 03-05-2020 09:13:17 6.4 C 42 %
3945 03-05-2020 09:23:17 7.2 C 41 %
3946 03-05-2020 09:33:18 7.6 C 42 %
3947 03-05-2020 09:43:18 7.6 C 40 %
3948 03-05-2020 09:53:17 8.6 C 40 %
3949 03-05-2020 10:03:17 8.9 C 40 %
3950 03-05-2020 10:13:17 9.7 C 40 %
Sensor: Nr:Datum:Temp:Feuchte:
Aussen-T/F 3951 03-05-2020 10:23:18 10.1 C 37 %
3952 03-05-2020 10:33:17 10.7 C 39 %
3953 03-05-2020 10:43:17 11.6 C 36 %
3954 03-05-2020 10:53:17 12.5 C 34 %
3955 03-05-2020 11:03:17 12.7 C 33 %
3956 03-05-2020 11:13:17 13.5 C 32 %
3957 03-05-2020 11:23:17 14.4 C 31 %
3958 03-05-2020 11:33:17 14.5 C 30 %
3959 03-05-2020 11:43:18 14.8 C 28 %
3960 03-05-2020 11:53:18 14.5 C 25 %
3961 03-05-2020 12:03:18 14.5 C 25 %
3962 03-05-2020 12:13:18 14.7 C 25 %
3963 03-05-2020 12:23:17 14.7 C 22 %
3964 03-05-2020 12:33:18 14.7 C 23 %
3965 03-05-2020 12:43:18 14.9 C 23 %
3966 03-05-2020 12:53:17 15.1 C 20 %
3967 03-05-2020 13:03:18 16.2 C 20 %
3968 03-05-2020 13:13:18 16.1 C 20 %
3969 03-05-2020 13:23:17 16.3 C 20 %
3970 03-05-2020 13:33:18 16.3 C 20 %
3971 03-05-2020 13:43:18 16.6 C 20 %
3972 03-05-2020 13:53:18 17 C 20 %
3973 03-05-2020 14:03:18 17.4 C 20 %
3974 03-05-2020 14:13:18 18.4 C 20 %
3975 03-05-2020 14:23:17 19.4 C 20 %
Sensor: Nr:Datum:Temp:Feuchte:
Aussen-T/F 3976 03-05-2020 14:33:18 23.3 C 20 %
3977 03-05-2020 14:43:18 22.4 C 20 %
3978 03-05-2020 14:53:17 20.3 C 20 %
3979 03-05-2020 15:03:17 20.3 C 20 %
3980 03-05-2020 15:13:17 20.6 C 20 %
3981 03-05-2020 15:23:17 19.6 C 20 %
3982 03-05-2020 15:33:18 19 C 20 %
3983 03-05-2020 15:43:18 21.2 C 20 %
3984 03-05-2020 15:53:17 19.3 C 20 %
3985 03-05-2020 16:03:17 19 C 20 %
3986 03-05-2020 16:13:17 18.5 C 20 %
3987 03-05-2020 16:23:17 17.9 C 20 %
3988 03-05-2020 16:33:18 17.9 C 20 %
3989 03-05-2020 16:43:18 18.9 C 20 %
3990 03-05-2020 16:53:17 18.2 C 20 %
3991 03-05-2020 17:03:17 17.8 C 20 %
3992 03-05-2020 17:13:17 18.1 C 20 %
3993 03-05-2020 17:23:18 17.2 C 20 %
3994 03-05-2020 17:33:17 17.6 C 20 %
3995 03-05-2020 17:43:17 17.6 C 20 %
3996 03-05-2020 17:53:18 17.3 C 20 %
3997 03-05-2020 18:03:18 16.9 C 20 %
3998 03-05-2020 18:13:18 16.9 C 20 %
3999 03-05-2020 18:23:17 17.2 C 20 %
4000 03-05-2020 18:33:17 16.7 C 20 %
Sensor: Nr:Datum:Temp:Feuchte:
Aussen-T/F 4001 03-05-2020 18:43:17 17 C 20 %
4002 03-05-2020 18:53:17 16.7 C 20 %
4003 03-05-2020 19:03:17 16.2 C 20 %
4004 03-05-2020 19:13:17 15.7 C 21 %
4005 03-05-2020 19:23:17 15.6 C 22 %
4006 03-05-2020 19:33:18 15.2 C 27 %
4007 03-05-2020 19:43:18 14.1 C 29 %
4008 03-05-2020 19:53:17 13.8 C 30 %
4009 03-05-2020 20:03:17 13.3 C 30 %
4010 03-05-2020 20:13:17 13 C 30 %
4011 03-05-2020 20:23:17 12.8 C 31 %
4012 03-05-2020 20:33:18 12.5 C 31 %
4013 03-05-2020 20:43:18 12.4 C 31 %
4014 03-05-2020 20:53:17 12.3 C 32 %
4015 03-05-2020 21:03:17 12.1 C 32 %
4016 03-05-2020 21:13:17 12.1 C 32 %
4017 03-05-2020 21:23:17 12 C 32 %
4018 03-05-2020 21:33:17 12.1 C 32 %
4019 03-05-2020 21:43:18 12 C 32 %
4020 03-05-2020 21:53:17 12 C 33 %
4021 03-05-2020 22:03:18 12 C 33 %
4022 03-05-2020 22:13:18 11.8 C 34 %
4023 03-05-2020 22:23:17 11.8 C 34 %
4024 03-05-2020 22:33:17 11.7 C 34 %
4025 03-05-2020 22:43:17 11.6 C 34 %
Sensor: Nr:Datum:Temp:Feuchte:
Aussen-T/F 4026 03-05-2020 22:53:18 11.4 C 35 %
4027 03-05-2020 23:03:17 11.3 C 35 %
4028 03-05-2020 23:13:17 11.2 C 34 %
4029 03-05-2020 23:23:17 11.4 C 35 %
4030 03-05-2020 23:33:17 11.4 C 34 %
4031 03-05-2020 23:43:17 11.3 C 35 %
4032 03-05-2020 23:53:17 11.4 C 35 %
Sensor: Nr:Datum:Temp:Feuchte:
G-T/H 1 06-04-2020 00:01:17 10.1 C 64 %
2 06-04-2020 00:11:17 10.1 C 64 %
3 06-04-2020 00:21:17 10.1 C 64 %
4 06-04-2020 00:31:18 10.1 C 64 %
5 06-04-2020 00:41:18 10.1 C 64 %
6 06-04-2020 00:51:17 10.1 C 64 %
7 06-04-2020 01:01:18 10.1 C 64 %
8 06-04-2020 01:11:18 10.1 C 64 %
9 06-04-2020 01:21:17 10.1 C 64 %
10 06-04-2020 01:31:17 10.1 C 64 %
11 06-04-2020 01:41:17 10.1 C 64 %
12 06-04-2020 01:51:17 10.1 C 64 %
13 06-04-2020 02:01:17 10.1 C 64 %
14 06-04-2020 02:11:17 10.1 C 64 %
15 06-04-2020 02:21:17 10.1 C 64 %
16 06-04-2020 02:31:17 10.1 C 64 %
17 06-04-2020 02:41:17 10.1 C 64 %
18 06-04-2020 02:51:17 10.1 C 64 %
19 06-04-2020 03:01:17 10.1 C 64 %
20 06-04-2020 03:11:17 10.1 C 64 %
21 06-04-2020 03:21:17 10.1 C 64 %
22 06-04-2020 03:31:18 10.1 C 64 %
23 06-04-2020 03:41:18 10.1 C 64 %
24 06-04-2020 03:51:17 10.1 C 64 %
25 06-04-2020 04:01:17 10.1 C 64 %
Sensor: Nr:Datum:Temp:Feuchte:
G-T/H 26 06-04-2020 04:11:17 10.1 C 64 %
27 06-04-2020 04:21:17 10.1 C 64 %
28 06-04-2020 04:31:17 10.1 C 64 %
29 06-04-2020 04:41:17 10.1 C 63 %
30 06-04-2020 04:51:17 10 C 63 %
31 06-04-2020 05:01:17 10 C 63 %
32 06-04-2020 05:11:17 10 C 63 %
33 06-04-2020 05:21:18 10 C 63 %
34 06-04-2020 05:31:17 10 C 62 %
35 06-04-2020 05:41:17 10 C 62 %
36 06-04-2020 05:51:17 10 C 62 %
37 06-04-2020 06:01:17 10 C 62 %
38 06-04-2020 06:11:17 10 C 62 %
39 06-04-2020 06:21:18 9.9 C 63 %
40 06-04-2020 06:31:17 9.9 C 63 %
41 06-04-2020 06:41:18 9.9 C 63 %
42 06-04-2020 06:51:17 9.9 C 63 %
43 06-04-2020 07:01:17 9.9 C 63 %
44 06-04-2020 07:11:17 9.9 C 63 %
45 06-04-2020 07:21:17 9.9 C 63 %
46 06-04-2020 07:31:18 9.8 C 63 %
47 06-04-2020 07:41:18 9.8 C 63 %
48 06-04-2020 07:51:17 9.8 C 63 %
49 06-04-2020 08:01:17 9.8 C 63 %
50 06-04-2020 08:11:17 9.8 C 63 %
Sensor: Nr:Datum:Temp:Feuchte:
G-T/H 51 06-04-2020 08:21:17 9.8 C 63 %
52 06-04-2020 08:31:17 9.7 C 63 %
53 06-04-2020 08:41:17 9.7 C 63 %
54 06-04-2020 08:51:17 9.7 C 63 %
55 06-04-2020 09:01:18 9.7 C 63 %
56 06-04-2020 09:11:18 9.7 C 63 %
57 06-04-2020 09:21:17 9.7 C 63 %
58 06-04-2020 09:31:17 9.7 C 64 %
59 06-04-2020 09:41:17 9.7 C 64 %
60 06-04-2020 09:51:18 9.7 C 64 %
61 06-04-2020 10:01:18 9.7 C 64 %
62 06-04-2020 10:11:18 9.7 C 64 %
63 06-04-2020 10:21:17 9.7 C 64 %
64 06-04-2020 10:31:17 9.7 C 64 %
65 06-04-2020 10:41:17 9.7 C 64 %
66 06-04-2020 10:51:17 9.7 C 64 %
67 06-04-2020 11:01:17 9.7 C 64 %
68 06-04-2020 11:11:18 9.7 C 64 %
69 06-04-2020 11:21:17 9.7 C 64 %
70 06-04-2020 11:31:17 9.7 C 64 %
71 06-04-2020 11:41:17 9.7 C 64 %
72 06-04-2020 11:51:18 9.7 C 64 %
73 06-04-2020 12:01:18 9.7 C 64 %
74 06-04-2020 12:11:18 9.7 C 64 %
75 06-04-2020 12:21:17 9.7 C 64 %
Sensor: Nr:Datum:Temp:Feuchte:
G-T/H 76 06-04-2020 12:31:17 9.7 C 64 %
77 06-04-2020 12:41:17 9.7 C 64 %
78 06-04-2020 12:51:17 9.8 C 64 %
79 06-04-2020 13:01:17 9.8 C 64 %
80 06-04-2020 13:11:17 9.8 C 64 %
81 06-04-2020 13:21:17 9.8 C 64 %
82 06-04-2020 13:31:18 9.9 C 64 %
83 06-04-2020 13:41:18 9.8 C 64 %
84 06-04-2020 13:51:17 9.9 C 64 %
85 06-04-2020 14:01:18 9.9 C 64 %
86 06-04-2020 14:11:18 10 C 63 %
87 06-04-2020 14:21:17 10 C 63 %
88 06-04-2020 14:31:17 10 C 64 %
89 06-04-2020 14:41:17 10 C 64 %
90 06-04-2020 14:51:18 10.1 C 64 %
91 06-04-2020 15:01:17 10.1 C 64 %
92 06-04-2020 15:11:17 10.1 C 64 %
93 06-04-2020 15:21:17 10.1 C 64 %
94 06-04-2020 15:31:17 10.2 C 64 %
95 06-04-2020 15:41:17 10.2 C 64 %
96 06-04-2020 15:51:17 10.2 C 64 %
97 06-04-2020 16:01:17 10.2 C 64 %
98 06-04-2020 16:11:17 10.3 C 64 %
99 06-04-2020 16:21:18 10.3 C 64 %
100 06-04-2020 16:31:18 10.3 C 64 %
Sensor: Nr:Datum:Temp:Feuchte:
G-T/H 101 06-04-2020 16:41:18 10.4 C 64 %
102 06-04-2020 16:51:17 10.4 C 64 %
103 06-04-2020 17:01:17 10.4 C 64 %
104 06-04-2020 17:11:17 10.4 C 64 %
105 06-04-2020 17:21:17 10.5 C 64 %
106 06-04-2020 17:31:17 10.5 C 64 %
107 06-04-2020 17:41:17 10.5 C 64 %
108 06-04-2020 17:51:17 10.5 C 64 %
109 06-04-2020 18:01:17 10.6 C 64 %
110 06-04-2020 18:11:17 10.6 C 64 %
111 06-04-2020 18:21:17 10.6 C 64 %
112 06-04-2020 18:31:18 10.7 C 64 %
113 06-04-2020 18:41:18 10.7 C 64 %
114 06-04-2020 18:51:17 10.7 C 64 %
115 06-04-2020 19:01:17 10.8 C 64 %
116 06-04-2020 19:11:17 10.8 C 64 %
117 06-04-2020 19:21:17 10.8 C 64 %
118 06-04-2020 19:31:17 10.8 C 64 %
119 06-04-2020 19:41:17 10.8 C 64 %
120 06-04-2020 19:51:17 10.9 C 64 %
121 06-04-2020 20:01:18 10.9 C 64 %
122 06-04-2020 20:11:18 10.9 C 64 %
123 06-04-2020 20:21:17 10.9 C 64 %
124 06-04-2020 20:31:17 10.9 C 64 %
125 06-04-2020 20:41:18 10.9 C 64 %
Sensor: Nr:Datum:Temp:Feuchte:
G-T/H 126 06-04-2020 20:51:17 11 C 64 %
127 06-04-2020 21:01:18 11 C 64 %
128 06-04-2020 21:11:18 11 C 64 %
129 06-04-2020 21:21:17 11 C 64 %
130 06-04-2020 21:31:18 11 C 64 %
131 06-04-2020 21:41:18 11 C 64 %
132 06-04-2020 21:51:17 11 C 64 %
133 06-04-2020 22:01:17 11 C 64 %
134 06-04-2020 22:11:17 11 C 64 %
135 06-04-2020 22:21:17 11 C 64 %
136 06-04-2020 22:31:17 11 C 64 %
137 06-04-2020 22:41:17 11 C 64 %
138 06-04-2020 22:51:17 11.1 C 64 %
139 06-04-2020 23:01:18 11.1 C 64 %
140 06-04-2020 23:11:18 11.1 C 64 %
141 06-04-2020 23:21:17 11.1 C 64 %
142 06-04-2020 23:31:17 11.1 C 64 %
143 06-04-2020 23:41:17 11.1 C 64 %
144 06-04-2020 23:51:17 11.1 C 65 %
145 07-04-2020 00:01:17 11.1 C 65 %
146 07-04-2020 00:11:17 11.1 C 65 %
147 07-04-2020 00:21:18 11.1 C 65 %
148 07-04-2020 00:31:17 11.1 C 65 %
149 07-04-2020 00:41:17 11.1 C 65 %
150 07-04-2020 00:51:17 11.1 C 65 %
Sensor: Nr:Datum:Temp:Feuchte:
G-T/H 151 07-04-2020 01:01:17 11.1 C 65 %
152 07-04-2020 01:11:17 11.1 C 65 %
153 07-04-2020 01:21:17 11.1 C 65 %
154 07-04-2020 01:31:17 11.2 C 65 %
155 07-04-2020 01:41:17 11.2 C 65 %
156 07-04-2020 01:51:18 11.2 C 65 %
157 07-04-2020 02:01:18 11.2 C 65 %
158 07-04-2020 02:11:18 11.2 C 65 %
159 07-04-2020 02:21:17 11.2 C 65 %
160 07-04-2020 02:31:17 11.2 C 65 %
161 07-04-2020 02:41:17 11.1 C 65 %
162 07-04-2020 02:51:17 11.2 C 65 %
163 07-04-2020 03:01:17 11.2 C 65 %
164 07-04-2020 03:11:17 11.1 C 65 %
165 07-04-2020 03:21:17 11.2 C 65 %
166 07-04-2020 03:31:17 11.2 C 65 %
167 07-04-2020 03:41:17 11.1 C 65 %
168 07-04-2020 03:51:17 11.1 C 65 %
169 07-04-2020 04:01:17 11.2 C 65 %
170 07-04-2020 04:11:17 11.1 C 65 %
171 07-04-2020 04:21:17 11.1 C 65 %
172 07-04-2020 04:31:17 11.1 C 65 %
173 07-04-2020 04:41:18 11.1 C 65 %
174 07-04-2020 04:51:17 11.1 C 65 %
175 07-04-2020 05:01:17 11.1 C 65 %
Sensor: Nr:Datum:Temp:Feuchte:
G-T/H 176 07-04-2020 05:11:17 11.1 C 65 %
177 07-04-2020 05:21:18 11.1 C 65 %
178 07-04-2020 05:31:17 11.1 C 65 %
179 07-04-2020 05:41:17 11.1 C 65 %
180 07-04-2020 05:51:17 11.1 C 65 %
181 07-04-2020 06:01:17 11.1 C 65 %
182 07-04-2020 06:11:17 11.1 C 65 %
183 07-04-2020 06:21:17 11.1 C 65 %
184 07-04-2020 06:31:17 11.1 C 65 %
185 07-04-2020 06:41:17 11.1 C 65 %
186 07-04-2020 06:51:17 11.1 C 65 %
187 07-04-2020 07:01:18 11.1 C 65 %
188 07-04-2020 07:11:18 11 C 65 %
189 07-04-2020 07:21:18 11 C 65 %
190 07-04-2020 07:31:17 11 C 65 %
191 07-04-2020 07:41:18 11 C 65 %
192 07-04-2020 07:51:17 11 C 65 %
193 07-04-2020 08:01:17 11 C 65 %
194 07-04-2020 08:11:18 11 C 65 %
195 07-04-2020 08:21:17 11 C 65 %
196 07-04-2020 08:31:17 11 C 65 %
197 07-04-2020 08:41:17 11 C 65 %
198 07-04-2020 08:51:17 11 C 65 %
199 07-04-2020 09:01:17 11 C 65 %
200 07-04-2020 09:11:17 10.9 C 66 %
Sensor: Nr:Datum:Temp:Feuchte:
G-T/H 201 07-04-2020 09:21:17 11 C 65 %
202 07-04-2020 09:31:17 11 C 65 %
203 07-04-2020 09:41:18 11 C 65 %
204 07-04-2020 09:51:17 11 C 65 %
205 07-04-2020 10:01:17 11 C 65 %
206 07-04-2020 10:11:18 11.1 C 65 %
207 07-04-2020 10:21:17 11.1 C 65 %
208 07-04-2020 10:31:18 11.3 C 66 %
209 07-04-2020 10:41:18 11.5 C 66 %
210 07-04-2020 10:51:17 11.6 C 67 %
211 07-04-2020 11:01:17 11.7 C 68 %
212 07-04-2020 11:11:17 11.9 C 68 %
213 07-04-2020 11:21:17 12 C 67 %
214 07-04-2020 11:31:17 12.1 C 67 %
215 07-04-2020 11:41:17 12.2 C 66 %
216 07-04-2020 11:51:17 12.3 C 66 %
217 07-04-2020 12:01:17 12.5 C 66 %
218 07-04-2020 12:11:17 12.6 C 66 %
219 07-04-2020 12:21:18 12.7 C 65 %
220 07-04-2020 12:31:17 12.9 C 65 %
221 07-04-2020 12:41:17 13 C 64 %
222 07-04-2020 12:51:18 13.1 C 64 %
223 07-04-2020 13:01:17 13.3 C 63 %
224 07-04-2020 13:11:17 13.4 C 63 %
225 07-04-2020 13:21:17 13.5 C 63 %
Sensor: Nr:Datum:Temp:Feuchte:
G-T/H 226 07-04-2020 13:31:17 13.7 C 62 %
227 07-04-2020 13:41:17 13.9 C 61 %
228 07-04-2020 13:51:18 14.1 C 60 %
229 07-04-2020 14:01:17 14.2 C 59 %
230 07-04-2020 14:11:17 14.2 C 59 %
231 07-04-2020 14:21:17 14.4 C 59 %
232 07-04-2020 14:31:17 14.5 C 59 %
233 07-04-2020 14:41:17 14.5 C 58 %
234 07-04-2020 14:51:17 14.7 C 58 %
235 07-04-2020 15:01:17 14.8 C 57 %
236 07-04-2020 15:11:17 14.9 C 57 %
237 07-04-2020 15:21:17 15 C 56 %
238 07-04-2020 15:31:17 15.2 C 55 %
239 07-04-2020 15:41:18 15.2 C 54 %
240 07-04-2020 15:51:17 15.3 C 54 %
241 07-04-2020 16:01:17 15.4 C 54 %
242 07-04-2020 16:11:17 15.5 C 53 %
243 07-04-2020 16:21:17 15.6 C 52 %
244 07-04-2020 16:31:17 15.6 C 52 %
245 07-04-2020 16:41:18 15.8 C 51 %
246 07-04-2020 16:51:18 15.9 C 51 %
247 07-04-2020 17:01:17 16.2 C 49 %
248 07-04-2020 17:11:17 16.2 C 48 %
249 07-04-2020 17:21:17 16.2 C 47 %
250 07-04-2020 17:31:18 16.3 C 47 %
Sensor: Nr:Datum:Temp:Feuchte:
G-T/H 251 07-04-2020 17:41:18 16.4 C 46 %
252 07-04-2020 17:51:18 16.5 C 45 %
253 07-04-2020 18:01:17 16.6 C 44 %
254 07-04-2020 18:11:17 16.6 C 45 %
255 07-04-2020 18:21:17 16.8 C 45 %
256 07-04-2020 18:31:17 16.8 C 45 %
257 07-04-2020 18:41:17 16.7 C 45 %
258 07-04-2020 18:51:17 16.8 C 45 %
259 07-04-2020 19:01:17 16.8 C 45 %
260 07-04-2020 19:11:18 16.8 C 45 %
261 07-04-2020 19:21:17 16.9 C 45 %
262 07-04-2020 19:31:17 16.5 C 46 %
263 07-04-2020 19:41:17 16.1 C 47 %
264 07-04-2020 19:51:17 15.9 C 49 %
265 07-04-2020 20:01:18 15.8 C 50 %
266 07-04-2020 20:11:18 15.6 C 50 %
267 07-04-2020 20:21:17 15.5 C 51 %
268 07-04-2020 20:31:17 15.4 C 51 %
269 07-04-2020 20:41:17 15.3 C 52 %
270 07-04-2020 20:51:17 15.2 C 52 %
271 07-04-2020 21:01:17 15.1 C 53 %
272 07-04-2020 21:11:17 15 C 53 %
273 07-04-2020 21:21:18 15 C 54 %
274 07-04-2020 21:31:17 14.9 C 55 %
275 07-04-2020 21:41:17 14.9 C 55 %
Sensor: Nr:Datum:Temp:Feuchte:
G-T/H 276 07-04-2020 21:51:17 14.8 C 55 %
277 07-04-2020 22:01:18 14.7 C 56 %
278 07-04-2020 22:11:18 14.7 C 56 %
279 07-04-2020 22:21:17 14.7 C 56 %
280 07-04-2020 22:31:17 14.6 C 56 %
281 07-04-2020 22:41:17 14.6 C 57 %
282 07-04-2020 22:51:18 14.5 C 57 %
283 07-04-2020 23:01:18 14.5 C 57 %
284 07-04-2020 23:11:18 14.4 C 57 %
285 07-04-2020 23:21:17 14.4 C 57 %
286 07-04-2020 23:31:17 14.4 C 57 %
287 07-04-2020 23:41:17 14.3 C 58 %
288 07-04-2020 23:51:17 14.3 C 58 %
289 08-04-2020 00:01:17 14.3 C 58 %
290 08-04-2020 00:11:17 14.2 C 58 %
291 08-04-2020 00:21:17 14.2 C 58 %
292 08-04-2020 00:31:17 14.2 C 58 %
293 08-04-2020 00:41:17 14.2 C 58 %
294 08-04-2020 00:51:18 14.1 C 58 %
295 08-04-2020 01:01:17 14.1 C 59 %
296 08-04-2020 01:11:17 14.1 C 59 %
297 08-04-2020 01:21:17 14 C 59 %
298 08-04-2020 01:31:18 14 C 59 %
299 08-04-2020 01:41:18 14 C 59 %
300 08-04-2020 01:51:17 13.9 C 60 %
Sensor: Nr:Datum:Temp:Feuchte:
G-T/H 301 08-04-2020 02:01:18 13.9 C 60 %
302 08-04-2020 02:11:18 13.9 C 60 %
303 08-04-2020 02:21:17 13.9 C 60 %
304 08-04-2020 02:31:17 13.8 C 60 %
305 08-04-2020 02:41:18 13.8 C 60 %
306 08-04-2020 02:51:17 13.8 C 60 %
307 08-04-2020 03:01:18 13.8 C 60 %
308 08-04-2020 03:11:18 13.7 C 60 %
309 08-04-2020 03:21:17 13.7 C 60 %
310 08-04-2020 03:31:17 13.6 C 60 %
311 08-04-2020 03:41:17 13.7 C 60 %
312 08-04-2020 03:51:17 13.6 C 59 %
313 08-04-2020 04:01:17 13.6 C 59 %
314 08-04-2020 04:11:18 13.6 C 59 %
315 08-04-2020 04:21:17 13.5 C 59 %
316 08-04-2020 04:31:17 13.5 C 59 %
317 08-04-2020 04:41:17 13.5 C 59 %
318 08-04-2020 04:51:17 13.5 C 59 %
319 08-04-2020 05:01:18 13.4 C 59 %
320 08-04-2020 05:11:18 13.4 C 59 %
321 08-04-2020 05:21:17 13.4 C 60 %
322 08-04-2020 05:31:17 13.4 C 60 %
323 08-04-2020 05:41:18 13.3 C 60 %
324 08-04-2020 05:51:17 13.3 C 60 %
325 08-04-2020 06:01:17 13.3 C 60 %
Sensor: Nr:Datum:Temp:Feuchte:
G-T/H 326 08-04-2020 06:11:17 13.2 C 60 %
327 08-04-2020 06:21:17 13.2 C 60 %
328 08-04-2020 06:31:17 13.2 C 60 %
329 08-04-2020 06:41:17 13.1 C 60 %
330 08-04-2020 06:51:18 13.1 C 60 %
331 08-04-2020 07:01:18 13.1 C 60 %
332 08-04-2020 07:11:18 13.1 C 60 %
333 08-04-2020 07:21:17 13.1 C 60 %
334 08-04-2020 07:31:17 13 C 60 %
335 08-04-2020 07:41:17 13 C 60 %
336 08-04-2020 07:51:17 13 C 60 %
337 08-04-2020 08:01:17 13 C 60 %
338 08-04-2020 08:11:17 13 C 60 %
339 08-04-2020 08:21:17 13 C 60 %
340 08-04-2020 08:31:18 12.9 C 61 %
341 08-04-2020 08:41:18 12.9 C 61 %
342 08-04-2020 08:51:18 12.9 C 61 %
343 08-04-2020 09:01:18 12.9 C 61 %
344 08-04-2020 09:11:18 12.8 C 61 %
345 08-04-2020 09:21:17 12.8 C 62 %
346 08-04-2020 09:31:17 12.8 C 62 %
347 08-04-2020 09:41:17 12.8 C 62 %
348 08-04-2020 09:51:17 12.8 C 62 %
349 08-04-2020 10:01:17 12.8 C 62 %
350 08-04-2020 10:11:17 12.8 C 62 %
Sensor: Nr:Datum:Temp:Feuchte:
G-T/H 351 08-04-2020 10:21:17 12.7 C 62 %
352 08-04-2020 10:31:18 12.7 C 62 %
353 08-04-2020 10:41:18 12.7 C 62 %
354 08-04-2020 10:51:18 12.7 C 62 %
355 08-04-2020 11:01:18 12.7 C 62 %
356 08-04-2020 11:11:18 12.7 C 62 %
357 08-04-2020 11:21:17 12.7 C 62 %
358 08-04-2020 11:31:18 12.7 C 63 %
359 08-04-2020 11:41:18 12.7 C 63 %
360 08-04-2020 11:51:17 12.7 C 63 %
361 08-04-2020 12:01:18 12.7 C 63 %
362 08-04-2020 12:11:18 12.7 C 63 %
363 08-04-2020 12:21:17 12.7 C 63 %
364 08-04-2020 12:31:17 12.7 C 63 %
365 08-04-2020 12:41:17 12.7 C 63 %
366 08-04-2020 12:51:17 12.7 C 63 %
367 08-04-2020 13:01:18 12.7 C 63 %
368 08-04-2020 13:11:18 12.7 C 63 %
369 08-04-2020 13:21:17 12.7 C 63 %
370 08-04-2020 13:31:18 12.7 C 63 %
371 08-04-2020 13:41:18 12.7 C 63 %
372 08-04-2020 13:51:17 12.7 C 63 %
373 08-04-2020 14:01:18 12.7 C 63 %
374 08-04-2020 14:11:18 12.7 C 63 %
375 08-04-2020 14:21:17 12.8 C 63 %
Sensor: Nr:Datum:Temp:Feuchte:
G-T/H 376 08-04-2020 14:31:18 12.8 C 63 %
377 08-04-2020 14:41:18 12.8 C 63 %
378 08-04-2020 14:51:17 12.8 C 63 %
379 08-04-2020 15:01:17 12.8 C 63 %
380 08-04-2020 15:11:17 12.8 C 63 %
381 08-04-2020 15:21:18 12.8 C 63 %
382 08-04-2020 15:31:17 12.8 C 63 %
383 08-04-2020 15:41:17 12.8 C 63 %
384 08-04-2020 15:51:17 12.8 C 63 %
385 08-04-2020 16:01:17 12.9 C 63 %
386 08-04-2020 16:11:17 12.9 C 63 %
387 08-04-2020 16:21:18 12.9 C 63 %
388 08-04-2020 16:31:17 12.9 C 63 %
389 08-04-2020 16:41:17 13 C 62 %
390 08-04-2020 16:51:17 13 C 62 %
391 08-04-2020 17:01:17 13 C 62 %
392 08-04-2020 17:11:17 13 C 62 %
393 08-04-2020 17:21:17 13 C 62 %
394 08-04-2020 17:31:17 13 C 62 %
395 08-04-2020 17:41:17 13 C 62 %
396 08-04-2020 17:51:17 13.1 C 62 %
397 08-04-2020 18:01:17 13.1 C 62 %
398 08-04-2020 18:11:17 13.1 C 62 %
399 08-04-2020 18:21:17 13.1 C 61 %
400 08-04-2020 18:31:18 13.1 C 61 %
Sensor: Nr:Datum:Temp:Feuchte:
G-T/H 401 08-04-2020 18:41:18 13.1 C 61 %
402 08-04-2020 18:51:17 13.2 C 61 %
403 08-04-2020 19:01:17 13.2 C 61 %
404 08-04-2020 19:11:17 13.2 C 61 %
405 08-04-2020 19:21:17 13.2 C 61 %
406 08-04-2020 19:31:17 13.2 C 62 %
407 08-04-2020 19:41:17 13.2 C 62 %
408 08-04-2020 19:51:17 13.2 C 62 %
409 08-04-2020 20:01:17 13.2 C 62 %
410 08-04-2020 20:11:17 13.2 C 62 %
411 08-04-2020 20:21:18 13.2 C 62 %
412 08-04-2020 20:31:17 13.2 C 62 %
413 08-04-2020 20:41:18 13.2 C 62 %
414 08-04-2020 20:51:17 13.2 C 62 %
415 08-04-2020 21:01:18 13.2 C 62 %
416 08-04-2020 21:11:18 13.2 C 62 %
417 08-04-2020 21:21:17 13.2 C 62 %
418 08-04-2020 21:31:17 13.2 C 62 %
419 08-04-2020 21:41:17 13.2 C 62 %
420 08-04-2020 21:51:17 13.2 C 62 %
421 08-04-2020 22:01:17 13.2 C 62 %
422 08-04-2020 22:11:18 13.2 C 62 %
423 08-04-2020 22:21:17 13.2 C 62 %
424 08-04-2020 22:31:17 13.2 C 62 %
425 08-04-2020 22:41:17 13.2 C 62 %
Sensor: Nr:Datum:Temp:Feuchte:
G-T/H 426 08-04-2020 22:51:18 13.2 C 62 %
427 08-04-2020 23:01:17 13.2 C 63 %
428 08-04-2020 23:11:17 13.2 C 63 %
429 08-04-2020 23:21:17 13.2 C 63 %
430 08-04-2020 23:31:17 13.2 C 63 %
431 08-04-2020 23:41:17 13.2 C 63 %
432 08-04-2020 23:51:17 13.2 C 63 %
433 09-04-2020 00:01:18 13.2 C 63 %
434 09-04-2020 00:11:18 13.2 C 63 %
435 09-04-2020 00:21:17 13.2 C 63 %
436 09-04-2020 00:31:18 13.2 C 63 %
437 09-04-2020 00:41:18 13.2 C 63 %
438 09-04-2020 00:51:17 13.2 C 63 %
439 09-04-2020 01:01:17 13.2 C 63 %
440 09-04-2020 01:11:17 13.2 C 63 %
441 09-04-2020 01:21:17 13.1 C 63 %
442 09-04-2020 01:31:17 13.1 C 63 %
443 09-04-2020 01:41:17 13.1 C 63 %
444 09-04-2020 01:51:17 13.1 C 63 %
445 09-04-2020 02:01:17 13.1 C 63 %
446 09-04-2020 02:11:17 13.1 C 63 %
447 09-04-2020 02:21:18 13.1 C 63 %
448 09-04-2020 02:31:18 13.1 C 62 %
449 09-04-2020 02:41:18 13.1 C 62 %
450 09-04-2020 02:51:17 13.1 C 62 %
Sensor: Nr:Datum:Temp:Feuchte:
G-T/H 451 09-04-2020 03:01:17 13.1 C 62 %
452 09-04-2020 03:11:17 13.1 C 62 %
453 09-04-2020 03:21:17 13.1 C 62 %
454 09-04-2020 03:31:17 13 C 62 %
455 09-04-2020 03:41:17 13 C 62 %
456 09-04-2020 03:51:17 13 C 62 %
457 09-04-2020 04:01:17 13 C 62 %
458 09-04-2020 04:11:17 13.1 C 63 %
459 09-04-2020 04:21:17 13 C 62 %
460 09-04-2020 04:31:18 13 C 62 %
461 09-04-2020 04:41:18 13 C 62 %
462 09-04-2020 04:51:17 13 C 62 %
463 09-04-2020 05:01:17 13 C 62 %
464 09-04-2020 05:11:17 13 C 62 %
465 09-04-2020 05:21:17 13 C 62 %
466 09-04-2020 05:31:18 13 C 62 %
467 09-04-2020 05:41:18 13 C 62 %
468 09-04-2020 05:51:17 12.9 C 63 %
469 09-04-2020 06:01:18 12.9 C 63 %
470 09-04-2020 06:11:18 12.9 C 63 %
471 09-04-2020 06:21:17 12.9 C 63 %
472 09-04-2020 06:31:17 12.9 C 63 %
473 09-04-2020 06:41:17 12.9 C 63 %
474 09-04-2020 06:51:17 12.9 C 63 %
475 09-04-2020 07:01:17 12.8 C 63 %
Sensor: Nr:Datum:Temp:Feuchte:
G-T/H 476 09-04-2020 07:11:17 12.8 C 63 %
477 09-04-2020 07:21:17 12.8 C 63 %
478 09-04-2020 07:31:17 12.8 C 63 %
479 09-04-2020 07:41:17 12.8 C 63 %
480 09-04-2020 07:51:17 12.8 C 63 %
481 09-04-2020 08:01:17 12.8 C 63 %
482 09-04-2020 08:11:17 12.8 C 63 %
483 09-04-2020 08:21:18 12.8 C 63 %
484 09-04-2020 08:31:17 12.7 C 63 %
485 09-04-2020 08:41:17 12.8 C 63 %
486 09-04-2020 08:51:17 12.7 C 63 %
487 09-04-2020 09:01:17 12.7 C 63 %
488 09-04-2020 09:11:17 12.7 C 63 %
489 09-04-2020 09:21:17 12.7 C 63 %
490 09-04-2020 09:31:17 12.7 C 63 %
491 09-04-2020 09:41:17 12.7 C 63 %
492 09-04-2020 09:51:17 12.7 C 63 %
493 09-04-2020 10:01:17 12.7 C 64 %
494 09-04-2020 10:11:17 12.6 C 64 %
495 09-04-2020 10:21:17 12.7 C 64 %
496 09-04-2020 10:31:17 12.7 C 64 %
497 09-04-2020 10:41:17 12.7 C 64 %
498 09-04-2020 10:51:18 12.7 C 64 %
499 09-04-2020 11:01:17 12.7 C 64 %
500 09-04-2020 11:11:18 12.7 C 64 %
Sensor: Nr:Datum:Temp:Feuchte:
G-T/H 501 09-04-2020 11:21:17 12.7 C 64 %
502 09-04-2020 11:31:17 12.7 C 64 %
503 09-04-2020 11:41:17 12.6 C 64 %
504 09-04-2020 11:51:18 12.7 C 65 %
505 09-04-2020 12:01:17 12.7 C 65 %
506 09-04-2020 12:11:17 12.7 C 65 %
507 09-04-2020 12:21:17 12.7 C 65 %
508 09-04-2020 12:31:17 12.7 C 65 %
509 09-04-2020 12:41:17 12.7 C 65 %
510 09-04-2020 12:51:18 12.7 C 65 %
511 09-04-2020 13:01:17 12.7 C 65 %
512 09-04-2020 13:11:17 12.7 C 65 %
513 09-04-2020 13:21:17 12.7 C 65 %
514 09-04-2020 13:31:17 12.8 C 65 %
515 09-04-2020 13:41:18 12.8 C 65 %
516 09-04-2020 13:51:17 12.8 C 65 %
517 09-04-2020 14:01:17 12.8 C 65 %
518 09-04-2020 14:11:17 12.8 C 65 %
519 09-04-2020 14:21:17 12.8 C 65 %
520 09-04-2020 14:31:17 12.8 C 65 %
521 09-04-2020 14:41:17 12.9 C 65 %
522 09-04-2020 14:51:17 12.9 C 65 %
523 09-04-2020 15:01:17 12.9 C 65 %
524 09-04-2020 15:11:17 12.9 C 65 %
525 09-04-2020 15:21:17 13 C 64 %
Sensor: Nr:Datum:Temp:Feuchte:
G-T/H 526 09-04-2020 15:31:18 13 C 64 %
527 09-04-2020 15:41:18 13 C 64 %
528 09-04-2020 15:51:17 13 C 64 %
529 09-04-2020 16:01:18 13 C 64 %
530 09-04-2020 16:11:18 13 C 64 %
531 09-04-2020 16:21:17 13.1 C 64 %
532 09-04-2020 16:31:17 13.1 C 64 %
533 09-04-2020 16:41:17 13.1 C 64 %
534 09-04-2020 16:51:17 13.1 C 64 %
535 09-04-2020 17:01:17 13.1 C 64 %
536 09-04-2020 17:11:17 13.2 C 64 %
537 09-04-2020 17:21:17 13.9 C 62 %
538 09-04-2020 17:31:17 14.6 C 57 %
539 09-04-2020 17:41:17 15.2 C 52 %
540 09-04-2020 17:51:18 15.5 C 51 %
541 09-04-2020 18:01:18 15.6 C 50 %
542 09-04-2020 18:11:18 15.9 C 49 %
543 09-04-2020 18:21:17 16 C 48 %
544 09-04-2020 18:31:17 16.2 C 48 %
545 09-04-2020 18:41:17 16.2 C 48 %
546 09-04-2020 18:51:17 16.4 C 47 %
547 09-04-2020 19:01:18 16.4 C 47 %
548 09-04-2020 19:11:18 16.5 C 47 %
549 09-04-2020 19:21:17 16.6 C 47 %
550 09-04-2020 19:31:17 16.6 C 47 %
Sensor: Nr:Datum:Temp:Feuchte:
G-T/H 551 09-04-2020 19:41:17 16.6 C 47 %
552 09-04-2020 19:51:17 16.5 C 47 %
553 09-04-2020 20:01:17 16.5 C 47 %
554 09-04-2020 20:11:17 16.4 C 48 %
555 09-04-2020 20:21:17 16.2 C 48 %
556 09-04-2020 20:31:17 15.9 C 50 %
557 09-04-2020 20:41:17 15.8 C 51 %
558 09-04-2020 20:51:17 15.7 C 51 %
559 09-04-2020 21:01:17 15.6 C 51 %
560 09-04-2020 21:11:17 15.6 C 51 %
561 09-04-2020 21:21:17 15.6 C 51 %
562 09-04-2020 21:31:17 15.5 C 51 %
563 09-04-2020 21:41:17 15.4 C 51 %
564 09-04-2020 21:51:17 15.4 C 52 %
565 09-04-2020 22:01:17 15.2 C 52 %
566 09-04-2020 22:11:17 15.2 C 52 %
567 09-04-2020 22:21:17 15.2 C 52 %
568 09-04-2020 22:31:18 15.1 C 52 %
569 09-04-2020 22:41:18 15 C 52 %
570 09-04-2020 22:51:17 15 C 53 %
571 09-04-2020 23:01:18 15 C 54 %
572 09-04-2020 23:11:18 14.9 C 55 %
573 09-04-2020 23:21:17 14.8 C 56 %
574 09-04-2020 23:31:17 14.8 C 56 %
575 09-04-2020 23:41:18 14.8 C 56 %
Sensor: Nr:Datum:Temp:Feuchte:
G-T/H 576 09-04-2020 23:51:17 14.8 C 57 %
577 10-04-2020 00:01:17 14.7 C 57 %
578 10-04-2020 00:11:17 14.7 C 57 %
579 10-04-2020 00:21:18 14.7 C 57 %
580 10-04-2020 00:31:18 14.6 C 57 %
581 10-04-2020 00:41:18 14.6 C 58 %
582 10-04-2020 00:51:17 14.6 C 58 %
583 10-04-2020 01:01:17 14.5 C 58 %
584 10-04-2020 01:11:17 14.5 C 58 %
585 10-04-2020 01:21:17 14.5 C 58 %
586 10-04-2020 01:31:17 14.5 C 58 %
587 10-04-2020 01:41:17 14.4 C 58 %
588 10-04-2020 01:51:17 14.5 C 58 %
589 10-04-2020 02:01:17 14.4 C 58 %
590 10-04-2020 02:11:17 14.4 C 58 %
591 10-04-2020 02:21:18 14.4 C 58 %
592 10-04-2020 02:31:18 14.3 C 58 %
593 10-04-2020 02:41:18 14.3 C 58 %
594 10-04-2020 02:51:17 14.3 C 58 %
595 10-04-2020 03:01:18 14.2 C 58 %
596 10-04-2020 03:11:18 14.2 C 58 %
597 10-04-2020 03:21:17 14.2 C 58 %
598 10-04-2020 03:31:17 14.2 C 58 %
599 10-04-2020 03:41:17 14.2 C 58 %
600 10-04-2020 03:51:17 14.1 C 58 %
Sensor: Nr:Datum:Temp:Feuchte:
G-T/H 601 10-04-2020 04:01:18 14.1 C 58 %
602 10-04-2020 04:11:18 14.1 C 58 %
603 10-04-2020 04:21:17 14.1 C 58 %
604 10-04-2020 04:31:17 14.1 C 58 %
605 10-04-2020 04:41:17 14 C 58 %
606 10-04-2020 04:51:18 14 C 58 %
607 10-04-2020 05:01:17 14 C 58 %
608 10-04-2020 05:11:17 14 C 58 %
609 10-04-2020 05:21:18 14 C 58 %
610 10-04-2020 05:31:17 13.9 C 59 %
611 10-04-2020 05:41:17 13.9 C 59 %
612 10-04-2020 05:51:17 13.9 C 59 %
613 10-04-2020 06:01:17 13.8 C 59 %
614 10-04-2020 06:11:17 13.8 C 59 %
615 10-04-2020 06:21:17 13.8 C 59 %
616 10-04-2020 06:31:18 13.8 C 59 %
617 10-04-2020 06:41:18 13.8 C 59 %
618 10-04-2020 06:51:17 13.8 C 59 %
619 10-04-2020 07:01:18 13.7 C 59 %
620 10-04-2020 07:11:18 13.7 C 59 %
621 10-04-2020 07:21:17 13.7 C 59 %
622 10-04-2020 07:31:18 13.7 C 59 %
623 10-04-2020 07:41:18 13.6 C 59 %
624 10-04-2020 07:51:17 13.6 C 59 %
625 10-04-2020 08:01:17 13.6 C 59 %
Sensor: Nr:Datum:Temp:Feuchte:
G-T/H 626 10-04-2020 08:11:17 13.6 C 59 %